Provisional Data: West Branch Owego Creek near Speedsville, NY


Please select a monitoring station.
Please select start date.
Please select start date.

Toggle Unit: C/F Toggle Unit: C/F
Sample Time Temperature (C) Temperature (F) Specific Conductivity (mS/cm) pH   Turbidity (NTU+) DO (mg/L)
12/11/2021 12:00:00 AM 3.43 38.174 0.132 7.42 2 13.04
12/11/2021 12:15:00 AM 3.43 38.174 0.132 7.42 2 13.03
12/11/2021 12:30:00 AM 3.43 38.174 0.132 7.42 2.13 13.03
12/11/2021 12:45:00 AM 3.43 38.174 0.132 7.42 2.12 13.02
12/11/2021 1:00:00 AM 3.44 38.192 0.132 7.42 2.28 13.02
12/11/2021 1:15:00 AM 3.44 38.192 0.132 7.42 2.15 13.02
12/11/2021 1:30:00 AM 3.45 38.21 0.132 7.42 2.23 13.01
12/11/2021 1:45:00 AM 3.46 38.228 0.132 7.42 2.26 13.01
12/11/2021 2:00:00 AM 3.47 38.246 0.132 7.42 2.23 12.99
12/11/2021 2:15:00 AM 3.49 38.282 0.132 7.42 2.2 12.99
12/11/2021 2:30:00 AM 3.5 38.3 0.133 7.42 2.16 12.98
12/11/2021 2:45:00 AM 3.52 38.336 0.133 7.42 2.09 12.96
12/11/2021 3:00:00 AM 3.53 38.354 0.133 7.42 2.17 12.96
12/11/2021 3:15:00 AM 3.54 38.372 0.133 7.42 2.03 12.95
12/11/2021 3:30:00 AM 3.56 38.408 0.133 7.42 2.06 12.94
12/11/2021 3:45:00 AM 3.57 38.426 0.133 7.41 2.08 12.93
12/11/2021 4:00:00 AM 3.59 38.462 0.133 7.42 1.92 12.92
12/11/2021 4:15:00 AM 3.61 38.498 0.133 7.41 2 12.91
12/11/2021 4:30:00 AM 3.63 38.534 0.133 7.41 1.94 12.91
12/11/2021 4:45:00 AM 3.66 38.588 0.132 7.41 1.92 12.89
12/11/2021 5:00:00 AM 3.67 38.606 0.132 7.41 1.91 12.89
12/11/2021 5:15:00 AM 3.69 38.642 0.132 7.41 1.86 12.88
12/11/2021 5:30:00 AM 3.71 38.678 0.132 7.41 2.06 12.88
12/11/2021 5:45:00 AM 3.73 38.714 0.132 7.41 2.07 12.86
12/11/2021 6:00:00 AM 3.75 38.75 0.131 7.41 1.99 12.86
12/11/2021 6:15:00 AM 3.77 38.786 0.131 7.41 2.06 12.84
12/11/2021 6:30:00 AM 3.79 38.822 0.131 7.41 2.16 12.82
12/11/2021 6:45:00 AM 3.81 38.858 0.13 7.41 2.25 12.82
12/11/2021 7:00:00 AM 3.83 38.894 0.13 7.4 2.98 12.82
12/11/2021 7:15:00 AM 3.85 38.93 0.129 7.4 4.25 12.81
12/11/2021 7:30:00 AM 3.87 38.966 0.129 7.39 4.36 12.8
12/11/2021 7:45:00 AM 3.87 38.966 0.128 7.38 5.05 12.79
12/11/2021 8:00:00 AM 3.87 38.966 0.126 7.38 10.5 12.8
12/11/2021 8:15:00 AM 3.88 38.984 0.125 7.38 12.88 12.8
12/11/2021 8:30:00 AM 3.9 39.02 0.125 7.37 15.59 12.79
12/11/2021 8:45:00 AM 3.93 39.074 0.125 7.37 12.21 12.79
12/11/2021 9:00:00 AM 3.96 39.128 0.125 7.37 10.55 12.8
12/11/2021 9:15:00 AM 3.98 39.164 0.125 7.38 9.38 12.82
12/11/2021 9:30:00 AM 4 39.2 0.127 7.37 8.82 12.83
12/11/2021 9:45:00 AM 4.03 39.254 0.129 7.37 8.68 12.85
12/11/2021 10:00:00 AM 4.05 39.29 0.132 7.37 9.17 12.86
12/11/2021 10:15:00 AM 4.08 39.344 0.133 7.38 8.62 12.87
12/11/2021 10:30:00 AM 4.12 39.416 0.132 7.39 7.78 12.9
12/11/2021 10:45:00 AM 4.16 39.488 0.131 7.4 7.51 12.92
12/11/2021 11:00:00 AM 4.21 39.578 0.129 7.41 7.05 12.94
12/11/2021 11:15:00 AM 4.26 39.668 0.127 7.42 6.9 12.94
12/11/2021 11:30:00 AM 4.31 39.758 0.126 7.39 7.42 12.96
12/11/2021 11:45:00 AM 4.37 39.866 0.126 7.4 7.57 12.95
12/11/2021 12:00:00 PM 4.42 39.956 0.126 7.41 7.15 12.92
12/11/2021 12:15:00 PM 4.47 40.046 0.126 7.42 7.67 12.89
12/11/2021 12:30:00 PM 4.53 40.154 0.126 7.42 7.05 12.86
12/11/2021 12:45:00 PM 4.58 40.244 0.125 7.42 6.99 12.83
12/11/2021 1:00:00 PM 4.64 40.352 0.124 7.41 6.93 12.8
12/11/2021 1:15:00 PM 4.69 40.442 0.123 7.38 7.12 12.79
12/11/2021 1:30:00 PM 4.76 40.568 0.123 7.41 6.76 12.79
12/11/2021 1:45:00 PM 4.82 40.676 0.123 7.43 7.26 12.78
12/11/2021 2:00:00 PM 4.88 40.784 0.123 7.41 7.56 12.74
12/11/2021 2:15:00 PM 4.95 40.91 0.123 7.41 7.55 12.73
12/11/2021 2:30:00 PM 5.01 41.018 0.122 7.42 8.22 12.71
12/11/2021 2:45:00 PM 5.08 41.144 0.121 7.42 8.76 12.69
12/11/2021 3:00:00 PM 5.13 41.234 0.121 7.43 8.92 12.63
12/11/2021 3:15:00 PM 5.18 41.324 0.12 7.41 9.81 12.6
12/11/2021 3:30:00 PM 5.22 41.396 0.119 7.42 11.08 12.55
12/11/2021 3:45:00 PM 5.26 41.468 0.118 7.42 10.74 12.51
12/11/2021 4:00:00 PM 5.3 41.54 0.118 7.41 11.77 12.46
12/11/2021 4:15:00 PM 5.33 41.594 0.117 7.38 10.61 12.43
12/11/2021 4:30:00 PM 5.36 41.648 0.117 7.37 11.1 12.38
12/11/2021 4:45:00 PM 5.39 41.702 0.116 7.35 11.34 12.34
12/11/2021 5:00:00 PM 5.42 41.756 0.116 7.35 11.16 12.31
12/11/2021 5:15:00 PM 5.46 41.828 0.115 7.34 11.76 12.28
12/11/2021 5:30:00 PM 5.5 41.9 0.115 7.32 11.51 12.25
12/11/2021 5:45:00 PM 5.53 41.954 0.115 7.33 11.77 12.22
12/11/2021 6:00:00 PM 5.56 42.008 0.115 7.33 12.13 12.2
12/11/2021 6:15:00 PM 5.6 42.08 0.115 7.33 12.19 12.18
12/11/2021 6:30:00 PM 5.64 42.152 0.115 7.31 11.76 12.16
12/11/2021 6:45:00 PM 5.69 42.242 0.115 7.31 12.24 12.14
12/11/2021 7:00:00 PM 5.74 42.332 0.115 7.31 10.88 12.12
12/11/2021 7:15:00 PM 5.79 42.422 0.115 7.31 11.24 12.1
12/11/2021 7:30:00 PM 5.83 42.494 0.115 7.3 10.98 12.08
12/11/2021 7:45:00 PM 5.85 42.53 0.115 7.31 10.26 12.07
12/11/2021 8:00:00 PM 5.85 42.53 0.116 7.31 10.26 12.06
12/11/2021 8:15:00 PM 5.83 42.494 0.116 7.3 10.11 12.06
12/11/2021 8:30:00 PM 5.8 42.44 0.116 7.3 9.61 12.07
12/11/2021 8:45:00 PM 5.76 42.368 0.116 7.3 9.47 12.08
12/11/2021 9:00:00 PM 5.72 42.296 0.116 7.31 9.19 12.09
12/11/2021 9:15:00 PM 5.68 42.224 0.116 7.31 8.81 12.11
12/11/2021 9:30:00 PM 5.63 42.134 0.116 7.31 8.62 12.12
12/11/2021 9:45:00 PM 5.59 42.062 0.116 7.31 8.11 12.14
12/11/2021 10:00:00 PM 5.55 41.99 0.116 7.31 7.86 12.15
12/11/2021 10:15:00 PM 5.52 41.936 0.117 7.31 7.86 12.16
12/11/2021 10:30:00 PM 5.48 41.864 0.117 7.31 7.47 12.17
12/11/2021 10:45:00 PM 5.45 41.81 0.117 7.31 7.15 12.18
12/11/2021 11:00:00 PM 5.42 41.756 0.117 7.31 7.08 12.18
12/11/2021 11:15:00 PM 5.4 41.72 0.117 7.31 6.87 12.19
12/11/2021 11:30:00 PM 5.37 41.666 0.117 7.31 6.56 12.21
12/11/2021 11:45:00 PM 5.35 41.63 0.117 7.31 6.21 12.23
12/12/2021 12:00:00 AM 5.31 41.558 0.117 7.31 6.02 12.24
12/12/2021 12:15:00 AM 5.28 41.504 0.117 7.31 6.05 12.25
12/12/2021 12:30:00 AM 5.26 41.468 0.117 7.31 5.78 12.27
12/12/2021 12:45:00 AM 5.23 41.414 0.117 7.32 5.55 12.28
12/12/2021 1:00:00 AM 5.21 41.378 0.118 7.31 5.38 12.3
12/12/2021 1:15:00 AM 5.19 41.342 0.118 7.31 5.56 12.31
12/12/2021 1:30:00 AM 5.16 41.288 0.118 7.32 5.28 12.33
12/12/2021 1:45:00 AM 5.13 41.234 0.118 7.31 5.15 12.33
12/12/2021 2:00:00 AM 5.1 41.18 0.118 7.32 5.22 12.36
12/12/2021 2:15:00 AM 5.06 41.108 0.118 7.32 5.01 12.37
12/12/2021 2:30:00 AM 5.03 41.054 0.118 7.32 5.03 12.39
12/12/2021 2:45:00 AM 4.99 40.982 0.118 7.32 4.89 12.41
12/12/2021 3:00:00 AM 4.94 40.892 0.118 7.32 4.7 12.43
12/12/2021 3:15:00 AM 4.9 40.82 0.118 7.32 4.73 12.44
12/12/2021 3:30:00 AM 4.85 40.73 0.118 7.32 4.64 12.46
12/12/2021 3:45:00 AM 4.81 40.658 0.119 7.32 4.72 12.48
12/12/2021 4:00:00 AM 4.76 40.568 0.119 7.32 4.6 12.49
12/12/2021 4:15:00 AM 4.7 40.46 0.119 7.33 4.62 12.51
12/12/2021 4:30:00 AM 4.64 40.352 0.119 7.33 4.55 12.54
12/12/2021 4:45:00 AM 4.58 40.244 0.119 7.32 4.31 12.57
12/12/2021 5:00:00 AM 4.52 40.136 0.119 7.32 4.38 12.6
12/12/2021 5:15:00 AM 4.46 40.028 0.119 7.32 4.39 12.62
12/12/2021 5:30:00 AM 4.41 39.938 0.119 7.32 4.18 12.64
12/12/2021 5:45:00 AM 4.36 39.848 0.119 7.32 4.33 12.66
12/12/2021 6:00:00 AM 4.31 39.758 0.119 7.32 4.16 12.68
12/12/2021 6:15:00 AM 4.25 39.65 0.119 7.33 4.26 12.7
12/12/2021 6:30:00 AM 4.2 39.56 0.119 7.33 4.15 12.72
12/12/2021 6:45:00 AM 4.15 39.47 0.12 7.33 4.13 12.73
12/12/2021 7:00:00 AM 4.1 39.38 0.12 7.33 3.95 12.75
12/12/2021 7:15:00 AM 4.05 39.29 0.12 7.34 4.05 12.78
12/12/2021 7:30:00 AM 3.99 39.182 0.12 7.33 3.97 12.81
12/12/2021 7:45:00 AM 3.95 39.11 0.12 7.33 3.89 12.84
12/12/2021 8:00:00 AM 3.9 39.02 0.12 7.34 3.88 12.88
12/12/2021 8:15:00 AM 3.86 38.948 0.12 7.34 3.89 12.92
12/12/2021 8:30:00 AM 3.83 38.894 0.12 7.35 3.67 12.98
12/12/2021 8:45:00 AM 3.8 38.84 0.12 7.38 3.46 13.05
12/12/2021 9:00:00 AM 3.77 38.786 0.12 7.38 3.42 13.12
12/12/2021 9:15:00 AM 3.75 38.75 0.12 7.39 3.4 13.19
12/12/2021 9:30:00 AM 3.73 38.714 0.12 7.41 3.22 13.26
12/12/2021 9:45:00 AM 3.72 38.696 0.12 7.4 3.19 13.34
12/12/2021 10:00:00 AM 3.73 38.714 0.12 7.42 3.12 13.41
12/12/2021 10:15:00 AM 3.74 38.732 0.12 7.44 3.03 13.49
12/12/2021 10:30:00 AM 3.77 38.786 0.12 7.46 3 13.57
12/12/2021 10:45:00 AM 3.81 38.858 0.12 7.48 2.91 13.64
12/12/2021 11:00:00 AM 3.87 38.966 0.12 7.5 2.86 13.7
12/12/2021 11:15:00 AM 3.92 39.056 0.119 7.52 2.84 13.76
12/12/2021 11:30:00 AM 3.99 39.182 0.119 7.54 2.86 13.8
12/12/2021 11:45:00 AM 4.07 39.326 0.119 7.57 2.86 13.83
12/12/2021 12:00:00 PM 4.15 39.47 0.119 7.58 2.76 13.86
12/12/2021 12:15:00 PM 4.24 39.632 0.12 7.61 2.74 13.89
12/12/2021 12:30:00 PM 4.32 39.776 0.12 7.62 2.67 13.91
12/12/2021 12:45:00 PM 4.4 39.92 0.12 7.64 2.55 13.91
12/12/2021 1:00:00 PM 4.45 40.01 0.12 7.66 2.54 13.91
12/12/2021 1:15:00 PM 4.48 40.064 0.12 7.66 2.59 13.9
12/12/2021 1:30:00 PM 4.49 40.082 0.12 7.66 2.59 13.89
12/12/2021 1:45:00 PM 4.48 40.064 0.12 7.68 2.45 13.88
12/12/2021 2:00:00 PM 4.44 39.992 0.12 7.68 2.41 13.86
12/12/2021 2:15:00 PM 4.41 39.938 0.121 7.67 2.34 13.84
12/12/2021 2:30:00 PM 4.35 39.83 0.121 7.66 2.39 13.81
12/12/2021 2:45:00 PM 4.29 39.722 0.121 7.65 2.28 13.76
12/12/2021 3:00:00 PM 4.24 39.632 0.121 7.64 2.35 13.72
12/12/2021 3:15:00 PM 4.19 39.542 0.121 7.62 2.38 13.66
12/12/2021 3:30:00 PM 4.13 39.434 0.122 7.6 2.39 13.62
12/12/2021 3:45:00 PM 4.08 39.344 0.122 7.59 2.48 13.58
12/12/2021 4:00:00 PM 4.03 39.254 0.122 7.56 2.42 13.54
12/12/2021 4:15:00 PM 3.97 39.146 0.122 7.56 2.42 13.49
12/12/2021 4:30:00 PM 3.92 39.056 0.122 7.53 2.28 13.43
12/12/2021 4:45:00 PM 3.86 38.948 0.122 7.51 2.38 13.38
12/12/2021 5:00:00 PM 3.81 38.858 0.123 7.49 2.4 13.33
12/12/2021 5:15:00 PM 3.76 38.768 0.123 7.47 2.37 13.3
12/12/2021 5:30:00 PM 3.7 38.66 0.123 7.46 2.41 13.25
12/12/2021 5:45:00 PM 3.65 38.57 0.123 7.45 2.61 13.22
12/12/2021 6:00:00 PM 3.59 38.462 0.123 7.44 2.5 13.2
12/12/2021 6:15:00 PM 3.54 38.372 0.123 7.43 2.45 13.18
12/12/2021 6:30:00 PM 3.49 38.282 0.124 7.41 2.61 13.17
12/12/2021 6:45:00 PM 3.45 38.21 0.124 7.41 2.41 13.17
12/12/2021 7:00:00 PM 3.41 38.138 0.124 7.41 2.44 13.17
12/12/2021 7:15:00 PM 3.36 38.048 0.124 7.4 2.43 13.18
12/12/2021 7:30:00 PM 3.33 37.994 0.124 7.39 2.43 13.18
12/12/2021 7:45:00 PM 3.29 37.922 0.124 7.39 2.51 13.18
12/12/2021 8:00:00 PM 3.26 37.868 0.124 7.39 2.42 13.19
12/12/2021 8:15:00 PM 3.23 37.814 0.124 7.39 2.48 13.19
12/12/2021 8:30:00 PM 3.2 37.76 0.124 7.37 2.37 13.21
12/12/2021 8:45:00 PM 3.17 37.706 0.124 7.38 2.47 13.21
12/12/2021 9:00:00 PM 3.15 37.67 0.124 7.38 2.49 13.22
12/12/2021 9:15:00 PM 3.13 37.634 0.124 7.38 2.32 13.23
12/12/2021 9:30:00 PM 3.11 37.598 0.124 7.37 2.21 13.23
12/12/2021 9:45:00 PM 3.09 37.562 0.125 7.37 2.26 13.23
12/12/2021 10:00:00 PM 3.06 37.508 0.125 7.37 2.46 13.24
12/12/2021 10:15:00 PM 3.05 37.49 0.125 7.37 2.38 13.24
12/12/2021 10:30:00 PM 3.02 37.436 0.125 7.37 2.41 13.26
12/12/2021 10:45:00 PM 3.01 37.418 0.125 7.37 2.4 13.26
12/12/2021 11:00:00 PM 2.99 37.382 0.125 7.37 2.51 13.25
12/12/2021 11:15:00 PM 2.97 37.346 0.125 7.37 2.44 13.26
12/12/2021 11:30:00 PM 2.94 37.292 0.125 7.37 2.46 13.26
12/12/2021 11:45:00 PM 2.93 37.274 0.125 7.37 2.44 13.26
12/13/2021 12:00:00 AM 2.9 37.22 0.125 7.37 2.41 13.27
12/13/2021 12:15:00 AM 2.88 37.184 0.125 7.36 2.27 13.28
12/13/2021 12:30:00 AM 2.86 37.148 0.125 7.36 2.28 13.28
12/13/2021 12:45:00 AM 2.84 37.112 0.125 7.37 2.29 13.3
12/13/2021 1:00:00 AM 2.81 37.058 0.125 7.37 2.34 13.3
12/13/2021 1:15:00 AM 2.79 37.022 0.125 7.36 2.31 13.31
12/13/2021 1:30:00 AM 2.77 36.986 0.125 7.36 2.22 13.33
12/13/2021 1:45:00 AM 2.75 36.95 0.125 7.37 2.33 13.34
12/13/2021 2:00:00 AM 2.74 36.932 0.126 7.37 2.26 13.34
12/13/2021 2:15:00 AM 2.73 36.914 0.126 7.37 2.3 13.35
12/13/2021 2:30:00 AM 2.73 36.914 0.126 7.37 2.23 13.35
12/13/2021 2:45:00 AM 2.72 36.896 0.126 7.37 2.11 13.37
12/13/2021 3:00:00 AM 2.71 36.878 0.126 7.37 2.23 13.38
12/13/2021 3:15:00 AM 2.71 36.878 0.126 7.37 2.19 13.38
12/13/2021 3:30:00 AM 2.7 36.86 0.126 7.37 2.16 13.38
12/13/2021 3:45:00 AM 2.7 36.86 0.126 7.37 2.19 13.38
12/13/2021 4:00:00 AM 2.7 36.86 0.126 7.36 2.2 13.39
12/13/2021 4:15:00 AM 2.7 36.86 0.126 7.37 2.2 13.39
12/13/2021 4:30:00 AM 2.7 36.86 0.126 7.37 2.24 13.39
12/13/2021 4:45:00 AM 2.7 36.86 0.126 7.37 2.22 13.39
12/13/2021 5:00:00 AM 2.7 36.86 0.126 7.37 2.23 13.39
12/13/2021 5:15:00 AM 2.71 36.878 0.126 7.37 2.19 13.39
12/13/2021 5:30:00 AM 2.71 36.878 0.126 7.37 2.2 13.4
12/13/2021 5:45:00 AM 2.71 36.878 0.126 7.37 2.24 13.4
12/13/2021 6:00:00 AM 2.71 36.878 0.126 7.37 2.13 13.39
12/13/2021 6:15:00 AM 2.71 36.878 0.126 7.37 2.1 13.39
12/13/2021 6:30:00 AM 2.71 36.878 0.126 7.37 2.16 13.4
12/13/2021 6:45:00 AM 2.72 36.896 0.126 7.37 2.17 13.39
12/13/2021 7:00:00 AM 2.72 36.896 0.126 7.37 2.12 13.4
12/13/2021 7:15:00 AM 2.72 36.896 0.126 7.36 2.17 13.4
12/13/2021 7:30:00 AM 2.73 36.914 0.126 7.37 2.2 13.4
12/13/2021 7:45:00 AM 2.73 36.914 0.126 7.37 2.16 13.4
12/13/2021 8:00:00 AM 2.73 36.914 0.126 7.37 2.11 13.43
12/13/2021 8:15:00 AM 2.74 36.932 0.126 7.38 2.1 13.47
12/13/2021 8:30:00 AM 2.75 36.95 0.126 7.39 2.05 13.5
12/13/2021 8:45:00 AM 2.77 36.986 0.126 7.4 2.02 13.57
12/13/2021 9:00:00 AM 2.77 36.986 0.126 7.41 1.94 13.62
12/13/2021 9:15:00 AM 2.79 37.022 0.126 7.42 2 13.72
12/13/2021 9:30:00 AM 2.8 37.04 0.126 7.44 1.9 13.78
12/13/2021 9:45:00 AM 2.82 37.076 0.126 7.47 1.89 13.86
12/13/2021 10:00:00 AM 2.85 37.13 0.126 7.48 1.93 13.94
12/13/2021 10:15:00 AM 2.88 37.184 0.125 7.5 1.81 13.99
12/13/2021 10:30:00 AM 2.93 37.274 0.125 7.52 1.86 14.06
12/13/2021 10:45:00 AM 2.99 37.382 0.125 7.54 1.78 14.12
12/13/2021 11:00:00 AM 3.07 37.526 0.125 7.56 1.72 14.18
12/13/2021 11:15:00 AM 3.17 37.706 0.125 7.59 1.77 14.23
12/13/2021 11:30:00 AM 3.27 37.886 0.125 7.61 1.73 14.26
12/13/2021 11:45:00 AM 3.38 38.084 0.125 7.64 1.71 14.27
12/13/2021 12:00:00 PM 3.5 38.3 0.125 7.66 1.7 14.29
12/13/2021 12:15:00 PM 3.64 38.552 0.125 7.69 1.66 14.31
12/13/2021 12:30:00 PM 3.77 38.786 0.125 7.71 1.77 14.31
12/13/2021 12:45:00 PM 3.9 39.02 0.125 7.73 1.71 14.3
12/13/2021 1:00:00 PM 3.99 39.182 0.125 7.74 1.66 14.28
12/13/2021 1:15:00 PM 4.06 39.308 0.125 7.76 1.67 14.25
12/13/2021 1:30:00 PM 4.11 39.398 0.125 7.77 1.74 14.21
12/13/2021 1:45:00 PM 4.13 39.434 0.125 7.77 1.69 14.16
12/13/2021 2:00:00 PM 4.13 39.434 0.125 7.77 1.73 14.13
12/13/2021 2:15:00 PM 4.12 39.416 0.125 7.75 1.7 14.09
12/13/2021 2:30:00 PM 4.09 39.362 0.125 7.74 1.76 14.04
12/13/2021 2:45:00 PM 4.05 39.29 0.125 7.73 1.71 13.98
12/13/2021 3:00:00 PM 4.01 39.218 0.125 7.7 1.71 13.92
12/13/2021 3:15:00 PM 3.97 39.146 0.125 7.69 1.7 13.87
12/13/2021 3:30:00 PM 3.93 39.074 0.126 7.67 1.71 13.81
12/13/2021 3:45:00 PM 3.9 39.02 0.126 7.65 1.73 13.76
12/13/2021 4:00:00 PM 3.86 38.948 0.126 7.63 1.7 13.7
12/13/2021 4:15:00 PM 3.82 38.876 0.126 7.61 1.7 13.64
12/13/2021 4:30:00 PM 3.78 38.804 0.126 7.59 1.76 13.57
12/13/2021 4:45:00 PM 3.74 38.732 0.126 7.56 1.84 13.5
12/13/2021 5:00:00 PM 3.71 38.678 0.126 7.54 1.83 13.44
12/13/2021 5:15:00 PM 3.67 38.606 0.126 7.52 1.81 13.39
12/13/2021 5:30:00 PM 3.63 38.534 0.126 7.5 1.8 13.33
12/13/2021 5:45:00 PM 3.59 38.462 0.127 7.49 1.79 13.29
12/13/2021 6:00:00 PM 3.56 38.408 0.127 7.47 1.75 13.25
12/13/2021 6:15:00 PM 3.51 38.318 0.127 7.46 1.8 13.23
12/13/2021 6:30:00 PM 3.47 38.246 0.127 7.45 1.83 13.22
12/13/2021 6:45:00 PM 3.43 38.174 0.127 7.44 1.93 13.21
12/13/2021 7:00:00 PM 3.39 38.102 0.127 7.43 1.79 13.21
12/13/2021 7:15:00 PM 3.35 38.03 0.127 7.43 1.88 13.21
12/13/2021 7:30:00 PM 3.32 37.976 0.127 7.42 1.89 13.21
12/13/2021 7:45:00 PM 3.28 37.904 0.127 7.42 1.82 13.22
12/13/2021 8:00:00 PM 3.25 37.85 0.127 7.41 1.92 13.22
12/13/2021 8:15:00 PM 3.22 37.796 0.127 7.41 1.86 13.23
12/13/2021 8:30:00 PM 3.2 37.76 0.127 7.41 1.87 13.23
12/13/2021 8:45:00 PM 3.18 37.724 0.127 7.4 1.84 13.24
12/13/2021 9:00:00 PM 3.16 37.688 0.127 7.4 1.92 13.24
12/13/2021 9:15:00 PM 3.14 37.652 0.127 7.4 1.86 13.24
12/13/2021 9:30:00 PM 3.13 37.634 0.127 7.4 1.88 13.25
12/13/2021 9:45:00 PM 3.11 37.598 0.127 7.39 1.87 13.25
12/13/2021 10:00:00 PM 3.1 37.58 0.127 7.39 1.85 13.25
12/13/2021 10:15:00 PM 3.09 37.562 0.127 7.39 1.91 13.25
12/13/2021 10:30:00 PM 3.08 37.544 0.127 7.39 1.88 13.27
12/13/2021 10:45:00 PM 3.07 37.526 0.127 7.39 1.86 13.26
12/13/2021 11:00:00 PM 3.06 37.508 0.127 7.39 1.79 13.27
12/13/2021 11:15:00 PM 3.05 37.49 0.127 7.39 1.85 13.27
12/13/2021 11:30:00 PM 3.04 37.472 0.127 7.38 1.8 13.28
12/13/2021 11:45:00 PM 3.02 37.436 0.127 7.39 1.78 13.28
12/14/2021 12:00:00 AM 3.01 37.418 0.127 7.39 1.83 13.28
12/14/2021 12:15:00 AM 3 37.4 0.127 7.39 1.88 13.29
12/14/2021 12:30:00 AM 2.98 37.364 0.127 7.39 1.82 13.29
12/14/2021 12:45:00 AM 2.97 37.346 0.127 7.38 1.8 13.3
12/14/2021 1:00:00 AM 2.95 37.31 0.127 7.38 1.86 13.3
12/14/2021 1:15:00 AM 2.93 37.274 0.127 7.38 1.9 13.31
12/14/2021 1:30:00 AM 2.91 37.238 0.127 7.38 1.91 13.32
12/14/2021 1:45:00 AM 2.89 37.202 0.127 7.38 1.87 13.33
12/14/2021 2:00:00 AM 2.87 37.166 0.127 7.38 1.83 13.33
12/14/2021 2:15:00 AM 2.85 37.13 0.127 7.38 1.8 13.35
12/14/2021 2:30:00 AM 2.83 37.094 0.127 7.39 1.76 13.35
12/14/2021 2:45:00 AM 2.81 37.058 0.127 7.38 1.89 13.36
12/14/2021 3:00:00 AM 2.79 37.022 0.127 7.38 1.85 13.38
12/14/2021 3:15:00 AM 2.77 36.986 0.127 7.38 1.82 13.39
12/14/2021 3:30:00 AM 2.75 36.95 0.127 7.38 1.78 13.4
12/14/2021 3:45:00 AM 2.72 36.896 0.127 7.38 1.78 13.41
12/14/2021 4:00:00 AM 2.7 36.86 0.127 7.38 1.83 13.42
12/14/2021 4:15:00 AM 2.67 36.806 0.127 7.38 1.79 13.43
12/14/2021 4:30:00 AM 2.65 36.77 0.127 7.38 1.74 13.44
12/14/2021 4:45:00 AM 2.64 36.752 0.127 7.38 1.78 13.46
12/14/2021 5:00:00 AM 2.62 36.716 0.127 7.38 1.82 13.46
12/14/2021 5:15:00 AM 2.61 36.698 0.127 7.37 1.91 13.47
12/14/2021 5:30:00 AM 2.6 36.68 0.127 7.32 1.77 13.48
12/14/2021 5:45:00 AM 2.6 36.68 0.127 7.26 2.02 13.48
12/14/2021 6:00:00 AM 2.61 36.698 0.127 7.27 1.96 13.49
12/14/2021 6:15:00 AM 2.62 36.716 0.127 7.3 1.83 13.5
12/14/2021 6:30:00 AM 2.64 36.752 0.127 7.32 1.84 13.5
12/14/2021 6:45:00 AM 2.67 36.806 0.127 7.33 1.83 13.5
12/14/2021 7:00:00 AM 2.7 36.86 0.127 7.33 1.86 13.49
12/14/2021 7:15:00 AM 2.74 36.932 0.127 7.35 1.95 13.48
12/14/2021 7:30:00 AM 2.77 36.986 0.127 7.36 1.85 13.48
12/14/2021 7:45:00 AM 2.81 37.058 0.127 7.37 1.87 13.48
12/14/2021 8:00:00 AM 2.84 37.112 0.127 7.38 1.84 13.5
12/14/2021 8:15:00 AM 2.86 37.148 0.127 7.39 1.86 13.53
12/14/2021 8:30:00 AM 2.9 37.22 0.127 7.4 1.9 13.59
12/14/2021 8:45:00 AM 2.93 37.274 0.127 7.41 1.78 13.66
12/14/2021 9:00:00 AM 2.97 37.346 0.127 7.43 1.76 13.75
12/14/2021 9:15:00 AM 3.03 37.454 0.127 7.46 1.76 13.86
12/14/2021 9:30:00 AM 3.08 37.544 0.127 7.48 1.73 13.98
12/14/2021 9:45:00 AM 3.14 37.652 0.127 7.51 1.68 14.09
12/14/2021 10:00:00 AM 3.18 37.724 0.127 7.54 1.67 14.18
12/14/2021 10:15:00 AM 3.22 37.796 0.126 7.57 1.65 14.24
12/14/2021 10:30:00 AM 3.27 37.886 0.126 7.59 1.58 14.29
12/14/2021 10:45:00 AM 3.33 37.994 0.126 7.62 1.64 14.33
12/14/2021 11:00:00 AM 3.39 38.102 0.126 7.64 1.6 14.37
12/14/2021 11:15:00 AM 3.46 38.228 0.126 7.66 1.62 14.4
12/14/2021 11:30:00 AM 3.54 38.372 0.126 7.69 1.57 14.42
12/14/2021 11:45:00 AM 3.63 38.534 0.126 7.72 1.56 14.45
12/14/2021 12:00:00 PM 3.74 38.732 0.126 7.73 1.57 14.47
12/14/2021 12:15:00 PM 3.87 38.966 0.126 7.76 1.55 14.48
12/14/2021 12:30:00 PM 3.99 39.182 0.126 7.78 1.62 14.48
12/14/2021 12:45:00 PM 4.1 39.38 0.126 7.81 1.61 14.46
12/14/2021 1:00:00 PM 4.19 39.542 0.126 7.82 1.61 14.45
12/14/2021 1:15:00 PM 4.27 39.686 0.126 7.84 1.63 14.44
12/14/2021 1:30:00 PM 4.31 39.758 0.126 7.83 1.59 14.4
12/14/2021 1:45:00 PM 4.33 39.794 0.126 7.84 1.55 14.38
12/14/2021 2:00:00 PM 4.33 39.794 0.126 7.83 4.5 14.33
12/14/2021 2:15:00 PM 4.31 39.758 0.126 7.82 2.29 14.28
12/14/2021 2:30:00 PM 4.28 39.704 0.126 7.81 1.75 14.24
12/14/2021 2:45:00 PM 4.22 39.596 0.126 7.79 1.65 14.17
12/14/2021 3:00:00 PM 4.17 39.506 0.127 7.78 1.67 14.11
12/14/2021 3:15:00 PM 4.12 39.416 0.127 7.75 1.93 14.04
12/14/2021 3:30:00 PM 4.07 39.326 0.127 7.67 28.19 13.92
12/14/2021 3:45:00 PM 4.02 39.236 0.127 7.67 7.67 13.9
12/14/2021 4:00:00 PM 3.96 39.128 0.127 7.66 3.19 13.87
12/14/2021 4:15:00 PM 3.91 39.038 0.127 7.64 2.13 13.82
12/14/2021 4:30:00 PM 3.85 38.93 0.127 7.62 1.91 13.75
12/14/2021 4:45:00 PM 3.8 38.84 0.128 7.59 1.83 13.69
12/14/2021 5:00:00 PM 3.74 38.732 0.128 7.57 1.85 13.62
12/14/2021 5:15:00 PM 3.69 38.642 0.128 7.55 1.82 13.56
12/14/2021 5:30:00 PM 3.64 38.552 0.128 7.52 1.95 13.52
12/14/2021 5:45:00 PM 3.59 38.462 0.128 7.51 1.84 13.47
12/14/2021 6:00:00 PM 3.55 38.39 0.128 7.49 1.86 13.43
12/14/2021 6:15:00 PM 3.5 38.3 0.128 7.48 1.83 13.4
12/14/2021 6:30:00 PM 3.46 38.228 0.129 7.47 1.81 13.39
12/14/2021 6:45:00 PM 3.43 38.174 0.129 7.46 1.87 13.38
12/14/2021 7:00:00 PM 3.39 38.102 0.129 7.45 1.92 13.38
12/14/2021 7:15:00 PM 3.35 38.03 0.129 7.45 1.95 13.37
12/14/2021 7:30:00 PM 3.31 37.958 0.129 7.43 1.95 13.38
12/14/2021 7:45:00 PM 3.28 37.904 0.129 7.42 2.06 13.37
12/14/2021 8:00:00 PM 3.25 37.85 0.129 7.41 1.95 13.38
12/14/2021 8:15:00 PM 3.22 37.796 0.129 7.4 1.9 13.39
12/14/2021 8:30:00 PM 3.19 37.742 0.129 7.39 1.93 13.39
12/14/2021 8:45:00 PM 3.17 37.706 0.129 7.39 2.05 13.4
12/14/2021 9:00:00 PM 3.14 37.652 0.129 7.39 2.02 13.4
12/14/2021 9:15:00 PM 3.13 37.634 0.129 7.39 1.94 13.4
12/14/2021 9:30:00 PM 3.11 37.598 0.129 7.39 2 13.41
12/14/2021 9:45:00 PM 3.09 37.562 0.129 7.39 1.91 13.41
12/14/2021 10:00:00 PM 3.09 37.562 0.129 7.4 1.85 13.41
12/14/2021 10:15:00 PM 3.08 37.544 0.129 7.4 1.88 13.42
12/14/2021 10:30:00 PM 3.07 37.526 0.129 7.39 2.03 13.41
12/14/2021 10:45:00 PM 3.05 37.49 0.129 7.4 2.13 13.42
12/14/2021 11:00:00 PM 3.05 37.49 0.129 7.4 2.26 13.41
12/14/2021 11:15:00 PM 3.04 37.472 0.129 7.4 2.62 13.41
12/14/2021 11:30:00 PM 3.03 37.454 0.129 7.4 2.94 13.42
12/14/2021 11:45:00 PM 3.02 37.436 0.129 7.4 3.22 13.42
12/15/2021 12:00:00 AM 3 37.4 0.129 7.4 3.64 13.42
12/15/2021 12:15:00 AM 2.99 37.382 0.129 7.39 3.72 13.42
12/15/2021 12:30:00 AM 2.97 37.346 0.129 7.4 3.96 13.42
12/15/2021 12:45:00 AM 2.96 37.328 0.129 7.4 4.36 13.42
12/15/2021 1:00:00 AM 2.94 37.292 0.129 7.4 4.5 13.42
12/15/2021 1:15:00 AM 2.93 37.274 0.129 7.4 4.32 13.43
12/15/2021 1:30:00 AM 2.91 37.238 0.13 7.39 4.86 13.43
12/15/2021 1:45:00 AM 2.89 37.202 0.13 7.4 5.68 13.44
12/15/2021 2:00:00 AM 2.87 37.166 0.13 7.4 5.93 13.44
12/15/2021 2:15:00 AM 2.85 37.13 0.13 7.4 7.35 13.45
12/15/2021 2:30:00 AM 2.84 37.112 0.13 7.39 8.65 13.46
12/15/2021 2:45:00 AM 2.81 37.058 0.13 7.4 9.23 13.47
12/15/2021 3:00:00 AM 2.79 37.022 0.13 7.39 10.09 13.47
12/15/2021 3:15:00 AM 2.77 36.986 0.13 7.39 10.45 13.48
12/15/2021 3:30:00 AM 2.75 36.95 0.13 7.39 11.33 13.49
12/15/2021 3:45:00 AM 2.74 36.932 0.13 7.39 11.17 13.5
12/15/2021 4:00:00 AM 2.72 36.896 0.13 7.39 10.48 13.51
12/15/2021 4:15:00 AM 2.7 36.86 0.13 7.39 10.16 13.51
12/15/2021 4:30:00 AM 2.67 36.806 0.13 7.39 9.18 13.52
12/15/2021 4:45:00 AM 2.65 36.77 0.13 7.39 8.19 13.53
12/15/2021 5:00:00 AM 2.63 36.734 0.13 7.39 7.44 13.54
12/15/2021 5:15:00 AM 2.62 36.716 0.13 7.39 6.81 13.54
12/15/2021 5:30:00 AM 2.6 36.68 0.13 7.38 5.89 13.55
12/15/2021 5:45:00 AM 2.57 36.626 0.13 7.38 5.57 13.57
12/15/2021 6:00:00 AM 2.55 36.59 0.13 7.39 4.95 13.57
12/15/2021 6:15:00 AM 2.53 36.554 0.13 7.39 4.3 13.58
12/15/2021 6:30:00 AM 2.51 36.518 0.13 7.39 4.21 13.59
12/15/2021 6:45:00 AM 2.5 36.5 0.13 7.39 3.76 13.59
12/15/2021 7:00:00 AM 2.48 36.464 0.13 7.39 3.56 13.6
12/15/2021 7:15:00 AM 2.47 36.446 0.13 7.39 3.37 13.61
12/15/2021 7:30:00 AM 2.47 36.446 0.13 7.39 2.96 13.62
12/15/2021 7:45:00 AM 2.46 36.428 0.13 7.39 2.97 13.63
12/15/2021 8:00:00 AM 2.46 36.428 0.13 7.4 2.78 13.66
12/15/2021 8:15:00 AM 2.45 36.41 0.13 7.41 2.83 13.7
12/15/2021 8:30:00 AM 2.46 36.428 0.13 7.41 2.82 13.76
12/15/2021 8:45:00 AM 2.47 36.446 0.13 7.43 2.5 13.84
12/15/2021 9:00:00 AM 2.48 36.464 0.13 7.44 2.38 13.92
12/15/2021 9:15:00 AM 2.51 36.518 0.13 7.47 2.3 14.04
12/15/2021 9:30:00 AM 2.54 36.572 0.13 7.49 2.28 14.16
12/15/2021 9:45:00 AM 2.58 36.644 0.13 7.52 2.2 14.28
12/15/2021 10:00:00 AM 2.62 36.716 0.129 7.55 2.05 14.37
12/15/2021 10:15:00 AM 2.69 36.842 0.129 7.58 1.95 14.47
12/15/2021 10:30:00 AM 2.74 36.932 0.129 7.61 1.91 14.51
12/15/2021 10:45:00 AM 2.8 37.04 0.129 7.63 1.91 14.54
12/15/2021 11:00:00 AM 2.85 37.13 0.129 7.65 1.9 14.55
12/15/2021 11:15:00 AM 2.9 37.22 0.129 7.67 1.84 14.54
12/15/2021 11:30:00 AM 2.96 37.328 0.129 7.69 1.78 14.56
12/15/2021 11:45:00 AM 3.03 37.454 0.129 7.71 1.82 14.59
12/15/2021 12:00:00 PM 3.07 37.526 0.129 7.72 1.78 14.57
12/15/2021 12:15:00 PM 3.12 37.616 0.129 7.72 1.78 14.54
12/15/2021 12:30:00 PM 3.16 37.688 0.129 7.73 1.83 14.49
12/15/2021 12:45:00 PM 3.2 37.76 0.129 7.72 1.92 14.43
12/15/2021 1:00:00 PM 3.24 37.832 0.129 7.71 1.84 14.36
12/15/2021 1:15:00 PM 3.27 37.886 0.129 7.71 1.91 14.3
12/15/2021 1:30:00 PM 3.3 37.94 0.128 7.7 1.9 14.25
12/15/2021 1:45:00 PM 3.33 37.994 0.128 7.69 2.08 14.18
12/15/2021 2:00:00 PM 3.36 38.048 0.128 7.68 2.05 14.14
12/15/2021 2:15:00 PM 3.38 38.084 0.128 7.66 2.01 14.08
12/15/2021 2:30:00 PM 3.4 38.12 0.128 7.65 2.02 14.01
12/15/2021 2:45:00 PM 3.43 38.174 0.128 7.63 2.15 13.96
12/15/2021 3:00:00 PM 3.45 38.21 0.128 7.62 2.3 13.9
12/15/2021 3:15:00 PM 3.47 38.246 0.127 7.6 2.58 13.82
12/15/2021 3:30:00 PM 3.5 38.3 0.127 7.58 2.88 13.77
12/15/2021 3:45:00 PM 3.52 38.336 0.127 7.56 2.73 13.7
12/15/2021 4:00:00 PM 3.53 38.354 0.127 7.55 2.9 13.64
12/15/2021 4:15:00 PM 3.56 38.408 0.127 7.53 3.37 13.57
12/15/2021 4:30:00 PM 3.57 38.426 0.126 7.51 3.38 13.5
12/15/2021 4:45:00 PM 3.6 38.48 0.125 7.5 3.94 13.45
12/15/2021 5:00:00 PM 3.62 38.516 0.125 7.48 4.57 13.39
12/15/2021 5:15:00 PM 3.64 38.552 0.125 7.47 4.75 13.34
12/15/2021 5:30:00 PM 3.67 38.606 0.124 7.45 5.14 13.29
12/15/2021 5:45:00 PM 3.69 38.642 0.124 7.43 5.21 13.26
12/15/2021 6:00:00 PM 3.72 38.696 0.124 7.43 4.96 13.22
12/15/2021 6:15:00 PM 3.74 38.732 0.125 7.42 4.69 13.19
12/15/2021 6:30:00 PM 3.77 38.786 0.126 7.41 4.44 13.17
12/15/2021 6:45:00 PM 3.79 38.822 0.127 7.41 4.51 13.15
12/15/2021 7:00:00 PM 3.81 38.858 0.127 7.39 4.51 13.12
12/15/2021 7:15:00 PM 3.84 38.912 0.127 7.39 4.34 13.12
12/15/2021 7:30:00 PM 3.86 38.948 0.126 7.38 4.41 13.09
12/15/2021 7:45:00 PM 3.88 38.984 0.125 7.39 4.67 13.08
12/15/2021 8:00:00 PM 3.91 39.038 0.125 7.38 4.32 13.07
12/15/2021 8:15:00 PM 3.94 39.092 0.124 7.39 4.56 13.06
12/15/2021 8:30:00 PM 3.96 39.128 0.124 7.38 4.64 13.04
12/15/2021 8:45:00 PM 3.99 39.182 0.124 7.38 4.31 13.03
12/15/2021 9:00:00 PM 4.02 39.236 0.124 7.38 4.15 13.02
12/15/2021 9:15:00 PM 4.04 39.272 0.124 7.38 4.35 13
12/15/2021 9:30:00 PM 4.07 39.326 0.124 7.37 4.17 12.98
12/15/2021 9:45:00 PM 4.1 39.38 0.124 7.38 4.22 12.97
12/15/2021 10:00:00 PM 4.14 39.452 0.124 7.37 4.27 12.95
12/15/2021 10:15:00 PM 4.17 39.506 0.124 7.37 4.31 12.94
12/15/2021 10:30:00 PM 4.2 39.56 0.124 7.37 4.25 12.93
12/15/2021 10:45:00 PM 4.23 39.614 0.125 7.37 4.26 12.91
12/15/2021 11:00:00 PM 4.25 39.65 0.125 7.36 4.11 12.9
12/15/2021 11:15:00 PM 4.28 39.704 0.125 7.37 4.14 12.89
12/15/2021 11:30:00 PM 4.31 39.758 0.125 7.36 4.46 12.89
12/15/2021 11:45:00 PM 4.33 39.794 0.125 7.36 4.22 12.87
12/16/2021 12:00:00 AM 4.36 39.848 0.124 7.36 4.38 12.86
12/16/2021 12:15:00 AM 4.38 39.884 0.124 7.36 4.82 12.85
12/16/2021 12:30:00 AM 4.4 39.92 0.123 7.36 5.16 12.84
12/16/2021 12:45:00 AM 4.41 39.938 0.122 7.36 5.42 12.83
12/16/2021 1:00:00 AM 4.42 39.956 0.122 7.36 5.45 12.82
12/16/2021 1:15:00 AM 4.43 39.974 0.121 7.35 5.8 12.82
12/16/2021 1:30:00 AM 4.43 39.974 0.121 7.35 6.91 12.81
12/16/2021 1:45:00 AM 4.44 39.992 0.12 7.35 6.99 12.81
12/16/2021 2:00:00 AM 4.44 39.992 0.12 7.34 6.68 12.8
12/16/2021 2:15:00 AM 4.44 39.992 0.119 7.34 7.08 12.79
12/16/2021 2:30:00 AM 4.44 39.992 0.119 7.34 7.2 12.79
12/16/2021 2:45:00 AM 4.44 39.992 0.118 7.33 6.7 12.79
12/16/2021 3:00:00 AM 4.45 40.01 0.118 7.33 7.07 12.78
12/16/2021 3:15:00 AM 4.45 40.01 0.118 7.33 6.52 12.77
12/16/2021 3:30:00 AM 4.45 40.01 0.118 7.32 6.7 12.76
12/16/2021 3:45:00 AM 4.46 40.028 0.117 7.32 6.53 12.76
12/16/2021 4:00:00 AM 4.47 40.046 0.117 7.31 6.34 12.76
12/16/2021 4:15:00 AM 4.48 40.064 0.117 7.31 6.14 12.75
12/16/2021 4:30:00 AM 4.5 40.1 0.117 7.3 6.08 12.74
12/16/2021 4:45:00 AM 4.51 40.118 0.117 7.3 5.8 12.74
12/16/2021 5:00:00 AM 4.53 40.154 0.117 7.3 5.85 12.73
12/16/2021 5:15:00 AM 4.54 40.172 0.117 7.3 5.89 12.71
12/16/2021 5:30:00 AM 4.56 40.208 0.117 7.3 5.94 12.71
12/16/2021 5:45:00 AM 4.57 40.226 0.117 7.29 5.68 12.7
12/16/2021 6:00:00 AM 4.59 40.262 0.117 7.3 5.78 12.69
12/16/2021 6:15:00 AM 4.61 40.298 0.117 7.3 5.45 12.68
12/16/2021 6:30:00 AM 4.63 40.334 0.117 7.29 5.4 12.67
12/16/2021 6:45:00 AM 4.65 40.37 0.118 7.29 5.16 12.67
12/16/2021 7:00:00 AM 4.67 40.406 0.118 7.3 5.17 12.65
12/16/2021 7:15:00 AM 4.69 40.442 0.118 7.29 4.98 12.64
12/16/2021 7:30:00 AM 4.71 40.478 0.118 7.3 4.78 12.63
12/16/2021 7:45:00 AM 4.73 40.514 0.118 7.3 4.75 12.63
12/16/2021 8:00:00 AM 4.75 40.55 0.118 7.3 4.87 12.63
12/16/2021 8:15:00 AM 4.77 40.586 0.119 7.31 4.55 12.64
12/16/2021 8:30:00 AM 4.79 40.622 0.119 7.31 4.66 12.67
12/16/2021 8:45:00 AM 4.81 40.658 0.119 7.32 4.3 12.72
12/16/2021 9:00:00 AM 4.83 40.694 0.119 7.34 4.22 12.79
12/16/2021 9:15:00 AM 4.85 40.73 0.119 7.35 3.98 12.88
12/16/2021 9:30:00 AM 4.88 40.784 0.119 7.38 3.85 12.96
12/16/2021 9:45:00 AM 4.92 40.856 0.119 7.4 3.89 13.06
12/16/2021 10:00:00 AM 4.98 40.964 0.119 7.44 3.65 13.18
12/16/2021 10:15:00 AM 5.06 41.108 0.119 7.48 3.65 13.28
12/16/2021 10:30:00 AM 5.14 41.252 0.119 7.52 3.57 13.39
12/16/2021 10:45:00 AM 5.23 41.414 0.119 7.58 3.48 13.49
12/16/2021 11:00:00 AM 5.35 41.63 0.119 7.63 3.16 13.56
12/16/2021 11:15:00 AM 5.46 41.828 0.118 7.66 3.27 13.62
12/16/2021 11:30:00 AM 5.56 42.008 0.118 7.71 3.06 13.67
12/16/2021 11:45:00 AM 5.69 42.242 0.118 7.74 3.17 13.69
12/16/2021 12:00:00 PM 5.82 42.476 0.118 7.78 3.16 13.71
12/16/2021 12:15:00 PM 5.97 42.746 0.118 7.81 3.04 13.72
12/16/2021 12:30:00 PM 6.1 42.98 0.118 7.85 2.9 13.72
12/16/2021 12:45:00 PM 6.23 43.214 0.118 7.89 2.82 13.72
12/16/2021 1:00:00 PM 6.34 43.412 0.118 7.92 2.83 13.72
12/16/2021 1:15:00 PM 6.43 43.574 0.118 7.94 2.71 13.7
12/16/2021 1:30:00 PM 6.48 43.664 0.118 7.96 2.76 13.66
12/16/2021 1:45:00 PM 6.54 43.772 0.118 7.98 2.72 13.64
12/16/2021 2:00:00 PM 6.59 43.862 0.119 7.99 2.73 13.59
12/16/2021 2:15:00 PM 6.63 43.934 0.119 7.98 2.65 13.53
12/16/2021 2:30:00 PM 6.68 44.024 0.119 7.98 2.63 13.49
12/16/2021 2:45:00 PM 6.71 44.078 0.119 7.97 2.6 13.42
12/16/2021 3:00:00 PM 6.72 44.096 0.119 7.93 2.63 13.31
12/16/2021 3:15:00 PM 6.74 44.132 0.119 7.89 2.63 13.21
12/16/2021 3:30:00 PM 6.77 44.186 0.119 7.86 2.51 13.12
12/16/2021 3:45:00 PM 6.78 44.204 0.119 7.8 2.4 13
12/16/2021 4:00:00 PM 6.78 44.204 0.12 7.76 2.46 12.87
12/16/2021 4:15:00 PM 6.78 44.204 0.12 7.71 2.55 12.74
12/16/2021 4:30:00 PM 6.78 44.204 0.12 7.66 2.49 12.61
12/16/2021 4:45:00 PM 6.78 44.204 0.12 7.62 2.47 12.5
12/16/2021 5:00:00 PM 6.77 44.186 0.121 7.59 2.46 12.39
12/16/2021 5:15:00 PM 6.74 44.132 0.121 7.56 2.57 12.29
12/16/2021 5:30:00 PM 6.73 44.114 0.121 7.52 2.58 12.19
12/16/2021 5:45:00 PM 6.72 44.096 0.122 7.5 2.62 12.13
12/16/2021 6:00:00 PM 6.7 44.06 0.122 7.48 2.63 12.08
12/16/2021 6:15:00 PM 6.69 44.042 0.122 7.45 2.62 12.04
12/16/2021 6:30:00 PM 6.69 44.042 0.122 7.44 2.47 12
12/16/2021 6:45:00 PM 6.69 44.042 0.122 7.43 2.61 11.98
12/16/2021 7:00:00 PM 6.69 44.042 0.122 7.42 2.54 11.96
12/16/2021 7:15:00 PM 6.7 44.06 0.122 7.41 2.58 11.94
12/16/2021 7:30:00 PM 6.71 44.078 0.122 7.4 2.58 11.91
12/16/2021 7:45:00 PM 6.73 44.114 0.123 7.4 2.6 11.89
12/16/2021 8:00:00 PM 6.74 44.132 0.123 7.4 2.58 11.88
12/16/2021 8:15:00 PM 6.76 44.168 0.123 7.4 2.48 11.87
12/16/2021 8:30:00 PM 6.78 44.204 0.123 7.39 2.48 11.86
12/16/2021 8:45:00 PM 6.79 44.222 0.123 7.39 2.52 11.85
12/16/2021 9:00:00 PM 6.81 44.258 0.123 7.39 2.53 11.83
12/16/2021 9:15:00 PM 6.83 44.294 0.123 7.39 2.65 11.82
12/16/2021 9:30:00 PM 6.85 44.33 0.123 7.38 2.52 11.82
12/16/2021 9:45:00 PM 6.86 44.348 0.123 7.38 2.45 11.81
12/16/2021 10:00:00 PM 6.88 44.384 0.123 7.37 2.4 11.8
12/16/2021 10:15:00 PM 6.9 44.42 0.123 7.37 2.41 11.78
12/16/2021 10:30:00 PM 6.91 44.438 0.123 7.37 2.32 11.78
12/16/2021 10:45:00 PM 6.92 44.456 0.123 7.37 2.48 11.77
12/16/2021 11:00:00 PM 6.94 44.492 0.123 7.36 2.45 11.76
12/16/2021 11:15:00 PM 6.95 44.51 0.123 7.36 2.41 11.76
12/16/2021 11:30:00 PM 6.96 44.528 0.123 7.36 2.59 11.76
12/16/2021 11:45:00 PM 6.98 44.564 0.123 7.36 2.39 11.74
12/17/2021 12:00:00 AM 7.01 44.618 0.123 7.36 2.42 11.73
12/17/2021 12:15:00 AM 7.05 44.69 0.123 7.36 2.47 11.73
12/17/2021 12:30:00 AM 7.07 44.726 0.123 7.36 2.58 11.72
12/17/2021 12:45:00 AM 7.07 44.726 0.123 7.37 2.4 11.72
12/17/2021 1:00:00 AM 7.07 44.726 0.123 7.37 2.34 11.72
12/17/2021 1:15:00 AM 7.04 44.672 0.123 7.37 2.35 11.72
12/17/2021 1:30:00 AM 7 44.6 0.123 7.37 2.3 11.73
12/17/2021 1:45:00 AM 6.96 44.528 0.123 7.37 2.36 11.74
12/17/2021 2:00:00 AM 6.92 44.456 0.123 7.38 2.4 11.75
12/17/2021 2:15:00 AM 6.87 44.366 0.123 7.38 2.3 11.76
12/17/2021 2:30:00 AM 6.83 44.294 0.123 7.37 2.54 11.78
12/17/2021 2:45:00 AM 6.79 44.222 0.124 7.38 2.47 11.78
12/17/2021 3:00:00 AM 6.74 44.132 0.124 7.37 2.54 11.8
12/17/2021 3:15:00 AM 6.69 44.042 0.124 7.36 2.4 11.81
12/17/2021 3:30:00 AM 6.64 43.952 0.124 7.37 2.42 11.83
12/17/2021 3:45:00 AM 6.58 43.844 0.124 7.37 2.44 11.85
12/17/2021 4:00:00 AM 6.51 43.718 0.124 7.37 2.46 11.88
12/17/2021 4:15:00 AM 6.45 43.61 0.124 7.37 2.33 11.89
12/17/2021 4:30:00 AM 6.39 43.502 0.124 7.36 2.47 11.92
12/17/2021 4:45:00 AM 6.34 43.412 0.124 7.37 2.27 11.94
12/17/2021 5:00:00 AM 6.28 43.304 0.124 7.37 2.4 11.95
12/17/2021 5:15:00 AM 6.22 43.196 0.124 7.37 2.28 11.98
12/17/2021 5:30:00 AM 6.16 43.088 0.124 7.37 2.32 11.99
12/17/2021 5:45:00 AM 6.1 42.98 0.124 7.37 2.26 12
12/17/2021 6:00:00 AM 6.04 42.872 0.124 7.37 2.31 12.02
12/17/2021 6:15:00 AM 5.99 42.782 0.125 7.36 2.61 12.04
12/17/2021 6:30:00 AM 5.94 42.692 0.125 7.37 2.54 12.06
12/17/2021 6:45:00 AM 5.88 42.584 0.125 7.37 2.55 12.09
12/17/2021 7:00:00 AM 5.82 42.476 0.125 7.37 2.39 12.12
12/17/2021 7:15:00 AM 5.76 42.368 0.125 7.36 2.32 12.13
12/17/2021 7:30:00 AM 5.7 42.26 0.125 7.37 2.45 12.15
12/17/2021 7:45:00 AM 5.64 42.152 0.125 7.37 2.3 12.19
12/17/2021 8:00:00 AM 5.57 42.026 0.125 7.37 2.33 12.23
12/17/2021 8:15:00 AM 5.51 41.918 0.125 7.38 2.21 12.27
12/17/2021 8:30:00 AM 5.47 41.846 0.125 7.39 2.31 12.34
12/17/2021 8:45:00 AM 5.43 41.774 0.125 7.4 2.4 12.42
12/17/2021 9:00:00 AM 5.4 41.72 0.125 7.42 2.6 12.51
12/17/2021 9:15:00 AM 5.38 41.684 0.125 7.43 2.44 12.6
12/17/2021 9:30:00 AM 5.35 41.63 0.125 7.44 2.37 12.68
12/17/2021 9:45:00 AM 5.34 41.612 0.125 7.46 2.12 12.77
12/17/2021 10:00:00 AM 5.33 41.594 0.125 7.49 2.17 12.86
12/17/2021 10:15:00 AM 5.35 41.63 0.125 7.51 2.02 12.96
12/17/2021 10:30:00 AM 5.38 41.684 0.125 7.53 2.1 13.07
12/17/2021 10:45:00 AM 5.43 41.774 0.124 7.56 2.05 13.16
12/17/2021 11:00:00 AM 5.49 41.882 0.124 7.6 2.04 13.25
12/17/2021 11:15:00 AM 5.56 42.008 0.124 7.63 1.94 13.35
12/17/2021 11:30:00 AM 5.63 42.134 0.124 7.66 1.92 13.41
12/17/2021 11:45:00 AM 5.7 42.26 0.124 7.71 1.86 13.46
12/17/2021 12:00:00 PM 5.79 42.422 0.124 7.74 1.86 13.52
12/17/2021 12:15:00 PM 5.89 42.602 0.124 7.78 1.95 13.56
12/17/2021 12:30:00 PM 5.99 42.782 0.123 7.81 1.96 13.58
12/17/2021 12:45:00 PM 6.07 42.926 0.123 7.85 1.96 13.6
12/17/2021 1:00:00 PM 6.14 43.052 0.123 7.87 1.93 13.6
12/17/2021 1:15:00 PM 6.17 43.106 0.124 7.9 1.95 13.62
12/17/2021 1:30:00 PM 6.18 43.124 0.124 7.9 1.91 13.6
12/17/2021 1:45:00 PM 6.17 43.106 0.124 7.91 2.14 13.56
12/17/2021 2:00:00 PM 6.13 43.034 0.124 7.91 1.93 13.53
12/17/2021 2:15:00 PM 6.08 42.944 0.124 7.89 1.94 13.49
12/17/2021 2:30:00 PM 6.02 42.836 0.124 7.87 1.96 13.45
12/17/2021 2:45:00 PM 5.94 42.692 0.124 7.84 1.92 13.4
12/17/2021 3:00:00 PM 5.86 42.548 0.125 7.82 1.96 13.35
12/17/2021 3:15:00 PM 5.78 42.404 0.125 7.78 1.94 13.29
12/17/2021 3:30:00 PM 5.72 42.296 0.125 7.76 1.88 13.26
12/17/2021 3:45:00 PM 5.66 42.188 0.125 7.74 1.86 13.22
12/17/2021 4:00:00 PM 5.6 42.08 0.125 7.71 1.89 13.16
12/17/2021 4:15:00 PM 5.54 41.972 0.125 7.68 1.91 13.08
12/17/2021 4:30:00 PM 5.48 41.864 0.125 7.65 1.88 13
12/17/2021 4:45:00 PM 5.42 41.756 0.126 7.62 1.98 12.93
12/17/2021 5:00:00 PM 5.36 41.648 0.126 7.59 1.96 12.87
12/17/2021 5:15:00 PM 5.3 41.54 0.126 7.56 1.94 12.81
12/17/2021 5:30:00 PM 5.24 41.432 0.126 7.54 1.95 12.75
12/17/2021 5:45:00 PM 5.18 41.324 0.126 7.51 2.02 12.7
12/17/2021 6:00:00 PM 5.12 41.216 0.126 7.5 2.07 12.67
12/17/2021 6:15:00 PM 5.07 41.126 0.127 7.48 1.96 12.64
12/17/2021 6:30:00 PM 5.02 41.036 0.127 7.47 2.02 12.63
12/17/2021 6:45:00 PM 4.97 40.946 0.127 7.45 2.07 12.63
12/17/2021 7:00:00 PM 4.92 40.856 0.127 7.45 1.98 12.61
12/17/2021 7:15:00 PM 4.87 40.766 0.127 7.44 2.03 12.61
12/17/2021 7:30:00 PM 4.82 40.676 0.127 7.44 2.07 12.62
12/17/2021 7:45:00 PM 4.77 40.586 0.127 7.43 2.04 12.63
12/17/2021 8:00:00 PM 4.72 40.496 0.127 7.42 2.25 12.62
12/17/2021 8:15:00 PM 4.68 40.424 0.127 7.42 1.98 12.63
12/17/2021 8:30:00 PM 4.64 40.352 0.127 7.41 2.05 12.65
12/17/2021 8:45:00 PM 4.61 40.298 0.127 7.41 2.12 12.66
12/17/2021 9:00:00 PM 4.57 40.226 0.127 7.41 2.08 12.67
12/17/2021 9:15:00 PM 4.55 40.19 0.127 7.4 1.96 12.68
12/17/2021 9:30:00 PM 4.52 40.136 0.127 7.41 2.04 12.69
12/17/2021 9:45:00 PM 4.5 40.1 0.127 7.4 1.99 12.69
12/17/2021 10:00:00 PM 4.48 40.064 0.127 7.4 2.05 12.7
12/17/2021 10:15:00 PM 4.46 40.028 0.127 7.4 2 12.7
12/17/2021 10:30:00 PM 4.45 40.01 0.127 7.4 2.01 12.71
12/17/2021 10:45:00 PM 4.44 39.992 0.127 7.4 2.1 12.71
12/17/2021 11:00:00 PM 4.43 39.974 0.127 7.4 2.01 12.71
12/17/2021 11:15:00 PM 4.42 39.956 0.127 7.4 1.92 12.71
12/17/2021 11:30:00 PM 4.42 39.956 0.127 7.39 2.09 12.71
12/17/2021 11:45:00 PM 4.41 39.938 0.127 7.39 2.05 12.71
12/18/2021 12:00:00 AM 4.4 39.92 0.127 7.39 2.08 12.72
12/18/2021 12:15:00 AM 4.4 39.92 0.127 7.38 1.95 12.71
12/18/2021 12:30:00 AM 4.39 39.902 0.127 7.39 2 12.72
12/18/2021 12:45:00 AM 4.38 39.884 0.127 7.39 1.91 12.72
12/18/2021 1:00:00 AM 4.37 39.866 0.127 7.38 2 12.72
12/18/2021 1:15:00 AM 4.37 39.866 0.127 7.39 2.06 12.73
12/18/2021 1:30:00 AM 4.36 39.848 0.127 7.39 2.01 12.73
12/18/2021 1:45:00 AM 4.35 39.83 0.127 7.39 1.97 12.73
12/18/2021 2:00:00 AM 4.34 39.812 0.127 7.39 1.97 12.73
12/18/2021 2:15:00 AM 4.33 39.794 0.128 7.38 1.99 12.73
12/18/2021 2:30:00 AM 4.32 39.776 0.128 7.38 1.98 12.74
12/18/2021 2:45:00 AM 4.32 39.776 0.128 7.39 1.95 12.74
12/18/2021 3:00:00 AM 4.31 39.758 0.128 7.39 1.98 12.74
12/18/2021 3:15:00 AM 4.31 39.758 0.128 7.39 1.95 12.74
12/18/2021 3:30:00 AM 4.31 39.758 0.128 7.39 2.04 12.74
12/18/2021 3:45:00 AM 4.3 39.74 0.128 7.39 1.93 12.74
12/18/2021 4:00:00 AM 4.3 39.74 0.128 7.39 2.05 12.74
12/18/2021 4:15:00 AM 4.3 39.74 0.128 7.39 2.01 12.74
12/18/2021 4:30:00 AM 4.3 39.74 0.128 7.38 2.13 12.74
12/18/2021 4:45:00 AM 4.3 39.74 0.128 7.39 2.03 12.75
12/18/2021 5:00:00 AM 4.3 39.74 0.128 7.38 1.96 12.75
12/18/2021 5:15:00 AM 4.29 39.722 0.128 7.39 1.95 12.75
12/18/2021 5:30:00 AM 4.29 39.722 0.128 7.39 1.98 12.75
12/18/2021 5:45:00 AM 4.29 39.722 0.128 7.39 2.07 12.75
12/18/2021 6:00:00 AM 4.29 39.722 0.128 7.38 2.1 12.75
12/18/2021 6:15:00 AM 4.29 39.722 0.128 7.39 2.06 12.75
12/18/2021 6:30:00 AM 4.28 39.704 0.128 7.39 2.04 12.75
12/18/2021 6:45:00 AM 4.28 39.704 0.128 7.38 2.05 12.74
12/18/2021 7:00:00 AM 4.28 39.704 0.128 7.39 2.06 12.74
12/18/2021 7:15:00 AM 4.27 39.686 0.128 7.39 2.03 12.75
12/18/2021 7:30:00 AM 4.26 39.668 0.128 7.39 2.09 12.75
12/18/2021 7:45:00 AM 4.26 39.668 0.128 7.39 2.12 12.75
12/18/2021 8:00:00 AM 4.25 39.65 0.128 7.39 2.02 12.77
12/18/2021 8:15:00 AM 4.24 39.632 0.128 7.4 2 12.8
12/18/2021 8:30:00 AM 4.24 39.632 0.128 7.41 2.18 12.84
12/18/2021 8:45:00 AM 4.24 39.632 0.128 7.4 2.14 12.89
12/18/2021 9:00:00 AM 4.24 39.632 0.128 7.42 2.03 12.94
12/18/2021 9:15:00 AM 4.24 39.632 0.128 7.43 1.96 13.01
12/18/2021 9:30:00 AM 4.25 39.65 0.128 7.45 2 13.09
12/18/2021 9:45:00 AM 4.26 39.668 0.128 7.47 1.97 13.19
12/18/2021 10:00:00 AM 4.26 39.668 0.127 7.49 1.9 13.27
12/18/2021 10:15:00 AM 4.26 39.668 0.127 7.51 1.86 13.33
12/18/2021 10:30:00 AM 4.27 39.686 0.127 7.53 1.85 13.39
12/18/2021 10:45:00 AM 4.27 39.686 0.127 7.54 1.88 13.44
12/18/2021 11:00:00 AM 4.27 39.686 0.127 7.55 1.86 13.49
12/18/2021 11:15:00 AM 4.28 39.704 0.126 7.57 1.9 13.52
12/18/2021 11:30:00 AM 4.29 39.722 0.126 7.59 1.89 13.59
12/18/2021 11:45:00 AM 4.3 39.74 0.126 7.61 1.9 13.64
12/18/2021 12:00:00 PM 4.31 39.758 0.126 7.64 1.93 13.7
12/18/2021 12:15:00 PM 4.32 39.776 0.126 7.65 1.93 13.7
12/18/2021 12:30:00 PM 4.32 39.776 0.126 7.66 1.95 13.7
12/18/2021 12:45:00 PM 4.33 39.794 0.126 7.67 1.92 13.7
12/18/2021 1:00:00 PM 4.32 39.776 0.125 7.67 1.93 13.67
12/18/2021 1:15:00 PM 4.32 39.776 0.125 7.67 1.97 13.62
12/18/2021 1:30:00 PM 4.31 39.758 0.125 7.66 2.02 13.57
12/18/2021 1:45:00 PM 4.31 39.758 0.125 7.65 1.96 13.53
12/18/2021 2:00:00 PM 4.31 39.758 0.125 7.64 2.08 13.49
12/18/2021 2:15:00 PM 4.3 39.74 0.125 7.63 2.08 13.45
12/18/2021 2:30:00 PM 4.3 39.74 0.125 7.62 2.17 13.43
12/18/2021 2:45:00 PM 4.31 39.758 0.125 7.61 2.21 13.4
12/18/2021 3:00:00 PM 4.31 39.758 0.125 7.6 2.41 13.34
12/18/2021 3:15:00 PM 4.31 39.758 0.125 7.59 2.49 13.29
12/18/2021 3:30:00 PM 4.3 39.74 0.125 7.57 2.57 13.24
12/18/2021 3:45:00 PM 4.3 39.74 0.125 7.55 2.63 13.18
12/18/2021 4:00:00 PM 4.3 39.74 0.125 7.53 2.72 13.11
12/18/2021 4:15:00 PM 4.3 39.74 0.125 7.51 2.85 13.04
12/18/2021 4:30:00 PM 4.3 39.74 0.126 7.48 3.12 12.98
12/18/2021 4:45:00 PM 4.3 39.74 0.126 7.46 3.04 12.93
12/18/2021 5:00:00 PM 4.3 39.74 0.127 7.46 3.17 12.89
12/18/2021 5:15:00 PM 4.3 39.74 0.128 7.45 3.15 12.85
12/18/2021 5:30:00 PM 4.31 39.758 0.129 7.45 3.2 12.81
12/18/2021 5:45:00 PM 4.31 39.758 0.129 7.42 3.16 12.78
12/18/2021 6:00:00 PM 4.31 39.758 0.129 7.42 3.37 12.76
12/18/2021 6:15:00 PM 4.32 39.776 0.129 7.43 3.28 12.74
12/18/2021 6:30:00 PM 4.32 39.776 0.128 7.4 3.41 12.73
12/18/2021 6:45:00 PM 4.33 39.794 0.128 7.4 3.42 12.72
12/18/2021 7:00:00 PM 4.34 39.812 0.127 7.39 3.48 12.71
12/18/2021 7:15:00 PM 4.34 39.812 0.127 7.38 3.67 12.7
12/18/2021 7:30:00 PM 4.35 39.83 0.126 7.38 3.8 12.69
12/18/2021 7:45:00 PM 4.36 39.848 0.126 7.38 3.95 12.69
12/18/2021 8:00:00 PM 4.37 39.866 0.125 7.37 3.96 12.69
12/18/2021 8:15:00 PM 4.38 39.884 0.125 7.36 4.36 12.69
12/18/2021 8:30:00 PM 4.39 39.902 0.125 7.36 4.6 12.69
12/18/2021 8:45:00 PM 4.4 39.92 0.125 7.37 4.63 12.68
12/18/2021 9:00:00 PM 4.41 39.938 0.124 7.34 4.98 12.68
12/18/2021 9:15:00 PM 4.42 39.956 0.124 7.35 4.75 12.68
12/18/2021 9:30:00 PM 4.43 39.974 0.124 7.34 5.01 12.68
12/18/2021 9:45:00 PM 4.43 39.974 0.123 7.34 5.28 12.68
12/18/2021 10:00:00 PM 4.44 39.992 0.122 7.34 5.31 12.69
12/18/2021 10:15:00 PM 4.45 40.01 0.122 7.33 5.22 12.69
12/18/2021 10:30:00 PM 4.44 39.992 0.121 7.34 5.85 12.68
12/18/2021 10:45:00 PM 4.43 39.974 0.12 7.34 5.9 12.69
12/18/2021 11:00:00 PM 4.41 39.938 0.119 7.34 6.17 12.69
12/18/2021 11:15:00 PM 4.39 39.902 0.118 7.31 5.93 12.7
12/18/2021 11:30:00 PM 4.37 39.866 0.118 7.31 6.42 12.71
12/18/2021 11:45:00 PM 4.34 39.812 0.117 7.3 6.73 12.72
12/19/2021 12:00:00 AM 4.32 39.776 0.116 7.31 7.47 12.72
12/19/2021 12:15:00 AM 4.29 39.722 0.115 7.32 7.08 12.73
12/19/2021 12:30:00 AM 4.26 39.668 0.115 7.32 7.68 12.74
12/19/2021 12:45:00 AM 4.22 39.596 0.114 7.32 7.7 12.76
12/19/2021 1:00:00 AM 4.18 39.524 0.113 7.3 8.14 12.76
12/19/2021 1:15:00 AM 4.14 39.452 0.112 7.3 8.24 12.78
12/19/2021 1:30:00 AM 4.11 39.398 0.112 7.29 8.31 12.79
12/19/2021 1:45:00 AM 4.05 39.29 0.112 7.29 8.1 12.81
12/19/2021 2:00:00 AM 4 39.2 0.111 7.29 8.49 12.83
12/19/2021 2:15:00 AM 3.94 39.092 0.111 7.29 8.58 12.84
12/19/2021 2:30:00 AM 3.89 39.002 0.111 7.28 8.7 12.86
12/19/2021 2:45:00 AM 3.87 38.966 0.11 7.28 8.43 12.88
12/19/2021 3:00:00 AM 3.84 38.912 0.11 7.28 8.57 12.9
12/19/2021 3:15:00 AM 3.81 38.858 0.11 7.27 8.9 12.92
12/19/2021 3:30:00 AM 3.78 38.804 0.11 7.27 8.87 12.93
12/19/2021 3:45:00 AM 3.74 38.732 0.11 7.27 8.79 12.95
12/19/2021 4:00:00 AM 3.71 38.678 0.11 7.26 8.72 12.96
12/19/2021 4:15:00 AM 3.68 38.624 0.11 7.25 8.37 12.97
12/19/2021 4:30:00 AM 3.64 38.552 0.11 7.26 8.3 12.99
12/19/2021 4:45:00 AM 3.59 38.462 0.11 7.24 8.22 13
12/19/2021 5:00:00 AM 3.54 38.372 0.11 7.25 8.3 13.02
12/19/2021 5:15:00 AM 3.5 38.3 0.11 7.26 7.84 13.04
12/19/2021 5:30:00 AM 3.46 38.228 0.11 7.26 8.12 13.06
12/19/2021 5:45:00 AM 3.42 38.156 0.11 7.27 8.1 13.07
12/19/2021 6:00:00 AM 3.38 38.084 0.11 7.27 7.77 13.1
12/19/2021 6:15:00 AM 3.34 38.012 0.11 7.27 7.93 13.12
12/19/2021 6:30:00 AM 3.3 37.94 0.11 7.27 7.74 13.14
12/19/2021 6:45:00 AM 3.26 37.868 0.109 7.27 7.67 13.16
12/19/2021 7:00:00 AM 3.22 37.796 0.109 7.27 7.62 13.17
12/19/2021 7:15:00 AM 3.17 37.706 0.109 7.26 8.06 13.19
12/19/2021 7:30:00 AM 3.13 37.634 0.109 7.25 7.81 13.22
12/19/2021 7:45:00 AM 3.09 37.562 0.109 7.24 7.29 13.23
12/19/2021 8:00:00 AM 3.06 37.508 0.109 7.24 7.46 13.25
12/19/2021 8:15:00 AM 3.02 37.436 0.109 7.23 7.37 13.28
12/19/2021 8:30:00 AM 2.98 37.364 0.109 7.25 7.25 13.3
12/19/2021 8:45:00 AM 2.95 37.31 0.109 7.27 7.23 13.32
12/19/2021 9:00:00 AM 2.92 37.256 0.109 7.26 6.98 13.35
12/19/2021 9:15:00 AM 2.9 37.22 0.109 7.27 6.62 13.41
12/19/2021 9:30:00 AM 2.87 37.166 0.109 7.28 6.64 13.46
12/19/2021 9:45:00 AM 2.85 37.13 0.109 7.3 6.23 13.52
12/19/2021 10:00:00 AM 2.84 37.112 0.109 7.31 6.09 13.6
12/19/2021 10:15:00 AM 2.81 37.058 0.109 7.33 5.91 13.69
12/19/2021 10:30:00 AM 2.8 37.04 0.109 7.35 6.17 13.79
12/19/2021 10:45:00 AM 2.8 37.04 0.109 7.36 5.94 13.87
12/19/2021 11:00:00 AM 2.8 37.04 0.109 7.38 5.44 13.94
12/19/2021 11:15:00 AM 2.8 37.04 0.109 7.39 5.71 14
12/19/2021 11:30:00 AM 2.8 37.04 0.109 7.42 5.4 14.06
12/19/2021 11:45:00 AM 2.79 37.022 0.109 7.43 5.14 14.1
12/19/2021 12:00:00 PM 2.8 37.04 0.109 7.45 4.89 14.14
12/19/2021 12:15:00 PM 2.8 37.04 0.109 7.45 4.82 14.18
12/19/2021 12:30:00 PM 2.8 37.04 0.11 7.47 4.86 14.2
12/19/2021 12:45:00 PM 2.8 37.04 0.11 7.47 4.73 14.22
12/19/2021 1:00:00 PM 2.79 37.022 0.11 7.49 4.6 14.23
12/19/2021 1:15:00 PM 2.78 37.004 0.11 7.5 4.29 14.24
12/19/2021 1:30:00 PM 2.77 36.986 0.11 7.51 4.35 14.26
12/19/2021 1:45:00 PM 2.77 36.986 0.11 7.52 4.09 14.27
12/19/2021 2:00:00 PM 2.75 36.95 0.11 7.51 3.99 14.27
12/19/2021 2:15:00 PM 2.74 36.932 0.11 7.51 3.97 14.25
12/19/2021 2:30:00 PM 2.73 36.914 0.111 7.51 3.79 14.25
12/19/2021 2:45:00 PM 2.71 36.878 0.111 7.52 3.93 14.25
12/19/2021 3:00:00 PM 2.69 36.842 0.111 7.5 3.6 14.23
12/19/2021 3:15:00 PM 2.66 36.788 0.111 7.49 3.61 14.19
12/19/2021 3:30:00 PM 2.64 36.752 0.111 7.46 3.74 14.15
12/19/2021 3:45:00 PM 2.61 36.698 0.111 7.43 3.65 14.09
12/19/2021 4:00:00 PM 2.59 36.662 0.111 7.4 3.7 14.03
12/19/2021 4:15:00 PM 2.57 36.626 0.112 7.39 3.58 13.97
12/19/2021 4:30:00 PM 2.55 36.59 0.112 7.39 3.59 13.92
12/19/2021 4:45:00 PM 2.53 36.554 0.112 7.37 3.56 13.87
12/19/2021 5:00:00 PM 2.5 36.5 0.112 7.35 3.53 13.82
12/19/2021 5:15:00 PM 2.47 36.446 0.112 7.35 3.58 13.78
12/19/2021 5:30:00 PM 2.44 36.392 0.113 7.33 3.45 13.74
12/19/2021 5:45:00 PM 2.42 36.356 0.113 7.32 3.55 13.72
12/19/2021 6:00:00 PM 2.4 36.32 0.113 7.31 3.32 13.69
12/19/2021 6:15:00 PM 2.38 36.284 0.113 7.31 3.4 13.68
12/19/2021 6:30:00 PM 2.36 36.248 0.113 7.29 3.48 13.66
12/19/2021 6:45:00 PM 2.34 36.212 0.113 7.29 3.39 13.66
12/19/2021 7:00:00 PM 2.32 36.176 0.113 7.29 3.52 13.66
12/19/2021 7:15:00 PM 2.3 36.14 0.113 7.28 3.44 13.65
12/19/2021 7:30:00 PM 2.28 36.104 0.113 7.29 3.41 13.65
12/19/2021 7:45:00 PM 2.26 36.068 0.113 7.28 3.4 13.65
12/19/2021 8:00:00 PM 2.24 36.032 0.113 7.28 3.34 13.66
12/19/2021 8:15:00 PM 2.23 36.014 0.113 7.29 3.3 13.66
12/19/2021 8:30:00 PM 2.21 35.978 0.113 7.29 3.42 13.67
12/19/2021 8:45:00 PM 2.2 35.96 0.113 7.3 3.3 13.66
12/19/2021 9:00:00 PM 2.18 35.924 0.114 7.3 3.2 13.67
12/19/2021 9:15:00 PM 2.16 35.888 0.114 7.3 3.11 13.67
12/19/2021 9:30:00 PM 2.14 35.852 0.114 7.3 3.26 13.69
12/19/2021 9:45:00 PM 2.12 35.816 0.114 7.31 3.14 13.69
12/19/2021 10:00:00 PM 2.1 35.78 0.114 7.32 3.17 13.7
12/19/2021 10:15:00 PM 2.08 35.744 0.114 7.31 3.23 13.71
12/19/2021 10:30:00 PM 2.06 35.708 0.114 7.31 3.04 13.72
12/19/2021 10:45:00 PM 2.04 35.672 0.114 7.3 2.98 13.72
12/19/2021 11:00:00 PM 2.03 35.654 0.114 7.31 2.98 13.73
12/19/2021 11:15:00 PM 2.01 35.618 0.115 7.3 2.89 13.75
12/19/2021 11:30:00 PM 2 35.6 0.115 7.31 2.95 13.76
12/19/2021 11:45:00 PM 1.99 35.582 0.115 7.31 2.94 13.75
12/20/2021 12:00:00 AM 1.97 35.546 0.115 7.32 2.91 13.76
12/20/2021 12:15:00 AM 1.96 35.528 0.115 7.31 2.92 13.77
12/20/2021 12:30:00 AM 1.94 35.492 0.115 7.31 2.85 13.77
12/20/2021 12:45:00 AM 1.93 35.474 0.115 7.31 2.88 13.78
12/20/2021 1:00:00 AM 1.9 35.42 0.115 7.32 2.83 13.79
12/20/2021 1:15:00 AM 1.88 35.384 0.115 7.33 2.72 13.79
12/20/2021 1:30:00 AM 1.87 35.366 0.115 7.32 2.79 13.8
12/20/2021 1:45:00 AM 1.85 35.33 0.116 7.33 2.72 13.8
12/20/2021 2:00:00 AM 1.83 35.294 0.116 7.34 2.8 13.81
12/20/2021 2:15:00 AM 1.8 35.24 0.116 7.33 2.8 13.82
12/20/2021 2:30:00 AM 1.77 35.186 0.116 7.32 2.71 13.82
12/20/2021 2:45:00 AM 1.74 35.132 0.116 7.3 2.75 13.84
12/20/2021 3:00:00 AM 1.7 35.06 0.116 7.3 2.65 13.84
12/20/2021 3:15:00 AM 1.66 34.988 0.116 7.29 2.82 13.85
12/20/2021 3:30:00 AM 1.61 34.898 0.116 7.29 2.66 13.86
12/20/2021 3:45:00 AM 1.57 34.826 0.116 7.29 2.74 13.87
12/20/2021 4:00:00 AM 1.54 34.772 0.116 7.29 2.76 13.88
12/20/2021 4:15:00 AM 1.5 34.7 0.116 7.29 2.68 13.9
12/20/2021 4:30:00 AM 1.46 34.628 0.116 7.29 2.69 13.91
12/20/2021 4:45:00 AM 1.42 34.556 0.116 7.28 2.71 13.93
12/20/2021 5:00:00 AM 1.38 34.484 0.116 7.27 2.67 13.95
12/20/2021 5:15:00 AM 1.34 34.412 0.116 7.27 2.66 13.97
12/20/2021 5:30:00 AM 1.3 34.34 0.117 7.26 2.66 13.99
12/20/2021 5:45:00 AM 1.26 34.268 0.117 7.26 2.6 14.01
12/20/2021 6:00:00 AM 1.22 34.196 0.117 7.28 2.61 14.02
12/20/2021 6:15:00 AM 1.19 34.142 0.117 7.28 2.62 14.03
12/20/2021 6:30:00 AM 1.15 34.07 0.117 7.28 2.65 14.05
12/20/2021 6:45:00 AM 1.12 34.016 0.117 7.28 2.58 14.06
12/20/2021 7:00:00 AM 1.08 33.944 0.117 7.27 2.62 14.07
12/20/2021 7:15:00 AM 1.05 33.89 0.117 7.28 2.53 14.08
12/20/2021 7:30:00 AM 1.02 33.836 0.117 7.28 2.66 14.1
12/20/2021 7:45:00 AM 0.99 33.782 0.117 7.29 2.61 14.13
12/20/2021 8:00:00 AM 0.97 33.746 0.117 7.3 2.52 14.15
12/20/2021 8:15:00 AM 0.97 33.746 0.117 7.3 2.49 14.2
12/20/2021 8:30:00 AM 0.96 33.728 0.117 7.31 2.46 14.26
12/20/2021 8:45:00 AM 0.97 33.746 0.117 7.33 2.44 14.34
12/20/2021 9:00:00 AM 0.97 33.746 0.117 7.35 2.26 14.42
12/20/2021 9:15:00 AM 0.99 33.782 0.117 7.37 2.26 14.51
12/20/2021 9:30:00 AM 1.01 33.818 0.117 7.4 2.27 14.6
12/20/2021 9:45:00 AM 1.03 33.854 0.117 7.42 2.23 14.69
12/20/2021 10:00:00 AM 1.06 33.908 0.117 7.45 2.12 14.77
12/20/2021 10:15:00 AM 1.11 33.998 0.117 7.47 2.13 14.86
12/20/2021 10:30:00 AM 1.18 34.124 0.117 7.5 2.04 14.94
12/20/2021 10:45:00 AM 1.24 34.232 0.116 7.53 2.07 14.99
12/20/2021 11:00:00 AM 1.31 34.358 0.116 7.56 2.09 15.04
12/20/2021 11:15:00 AM 1.38 34.484 0.116 7.58 2.08 15.07
12/20/2021 11:30:00 AM 1.44 34.592 0.116 7.6 1.97 15.08
12/20/2021 11:45:00 AM 1.55 34.79 0.116 7.62 2.17 15.09
12/20/2021 12:00:00 PM 1.6 34.88 0.116 7.63 2.09 15.08
12/20/2021 12:15:00 PM 1.67 35.006 0.116 7.65 2.07 15.1
12/20/2021 12:30:00 PM 1.78 35.204 0.116 7.67 2.05 15.09
12/20/2021 12:45:00 PM 1.87 35.366 0.116 7.68 2.02 15.07
12/20/2021 1:00:00 PM 1.92 35.456 0.116 7.69 2 15.04
12/20/2021 1:15:00 PM 1.95 35.51 0.116 7.69 1.96 15.02
12/20/2021 1:30:00 PM 2.01 35.618 0.116 7.7 2.02 15
12/20/2021 1:45:00 PM 2.04 35.672 0.116 7.7 1.93 14.97
12/20/2021 2:00:00 PM 2.06 35.708 0.116 7.71 2.02 14.95
12/20/2021 2:15:00 PM 2.05 35.69 0.116 7.71 2.01 14.92
12/20/2021 2:30:00 PM 2.03 35.654 0.116 7.71 2.01 14.9
12/20/2021 2:45:00 PM 2.02 35.636 0.116 7.7 1.97 14.88
12/20/2021 3:00:00 PM 1.99 35.582 0.116 7.69 1.99 14.83
12/20/2021 3:15:00 PM 1.96 35.528 0.116 7.68 1.94 14.78
12/20/2021 3:30:00 PM 1.94 35.492 0.116 7.66 1.97 14.73
12/20/2021 3:45:00 PM 1.92 35.456 0.116 7.64 1.98 14.66
12/20/2021 4:00:00 PM 1.91 35.438 0.116 7.62 2 14.58
12/20/2021 4:15:00 PM 1.89 35.402 0.117 7.6 1.96 14.49
12/20/2021 4:30:00 PM 1.87 35.366 0.117 7.57 2.02 14.4
12/20/2021 4:45:00 PM 1.85 35.33 0.117 7.55 2.09 14.32
12/20/2021 5:00:00 PM 1.83 35.294 0.117 7.52 2.17 14.24
12/20/2021 5:15:00 PM 1.81 35.258 0.117 7.5 2.09 14.17
12/20/2021 5:30:00 PM 1.79 35.222 0.117 7.48 2.14 14.1
12/20/2021 5:45:00 PM 1.77 35.186 0.117 7.46 2.09 14.04
12/20/2021 6:00:00 PM 1.74 35.132 0.118 7.44 2.08 14
12/20/2021 6:15:00 PM 1.72 35.096 0.118 7.43 2.25 13.96
12/20/2021 6:30:00 PM 1.7 35.06 0.118 7.42 2.22 13.94
12/20/2021 6:45:00 PM 1.68 35.024 0.118 7.41 2.18 13.92
12/20/2021 7:00:00 PM 1.66 34.988 0.118 7.4 2.21 13.9
12/20/2021 7:15:00 PM 1.65 34.97 0.118 7.39 2.19 13.89
12/20/2021 7:30:00 PM 1.63 34.934 0.118 7.39 2.26 13.88
12/20/2021 7:45:00 PM 1.62 34.916 0.118 7.37 2.24 13.87
12/20/2021 8:00:00 PM 1.62 34.916 0.118 7.38 2.28 13.86
12/20/2021 8:15:00 PM 1.61 34.898 0.118 7.37 2.31 13.85
12/20/2021 8:30:00 PM 1.6 34.88 0.118 7.37 2.29 13.85
12/20/2021 8:45:00 PM 1.6 34.88 0.118 7.37 2.27 13.84
12/20/2021 9:00:00 PM 1.59 34.862 0.118 7.38 2.21 13.84
12/20/2021 9:15:00 PM 1.59 34.862 0.118 7.37 2.3 13.84
12/20/2021 9:30:00 PM 1.59 34.862 0.118 7.37 2.25 13.83
12/20/2021 9:45:00 PM 1.58 34.844 0.118 7.37 2.11 13.82
12/20/2021 10:00:00 PM 1.58 34.844 0.118 7.36 2.25 13.82
12/20/2021 10:15:00 PM 1.58 34.844 0.118 7.37 2.2 13.82
12/20/2021 10:30:00 PM 1.57 34.826 0.118 7.36 2.3 13.82
12/20/2021 10:45:00 PM 1.56 34.808 0.118 7.36 2.29 13.82
12/20/2021 11:00:00 PM 1.54 34.772 0.118 7.36 2.25 13.82
12/20/2021 11:15:00 PM 1.53 34.754 0.118 7.36 2.24 13.82
12/20/2021 11:30:00 PM 1.51 34.718 0.118 7.35 2.14 13.82
12/20/2021 11:45:00 PM 1.5 34.7 0.118 7.36 2.27 13.83
12/21/2021 12:00:00 AM 1.48 34.664 0.118 7.36 2.31 13.83
12/21/2021 12:15:00 AM 1.47 34.646 0.118 7.36 2.27 13.83
12/21/2021 12:30:00 AM 1.46 34.628 0.118 7.36 2.12 13.84
12/21/2021 12:45:00 AM 1.45 34.61 0.118 7.36 2.21 13.84
12/21/2021 1:00:00 AM 1.44 34.592 0.118 7.36 2.08 13.85
12/21/2021 1:15:00 AM 1.42 34.556 0.118 7.36 2.34 13.85
12/21/2021 1:30:00 AM 1.41 34.538 0.118 7.35 2.13 13.86
12/21/2021 1:45:00 AM 1.39 34.502 0.118 7.35 2.25 13.87
12/21/2021 2:00:00 AM 1.38 34.484 0.118 7.35 2.43 13.87
12/21/2021 2:15:00 AM 1.37 34.466 0.118 7.35 2.4 13.87
12/21/2021 2:30:00 AM 1.36 34.448 0.118 7.35 2.26 13.88
12/21/2021 2:45:00 AM 1.35 34.43 0.118 7.35 2.2 13.89
12/21/2021 3:00:00 AM 1.34 34.412 0.118 7.35 2.16 13.89
12/21/2021 3:15:00 AM 1.34 34.412 0.118 7.34 2.12 13.9
12/21/2021 3:30:00 AM 1.34 34.412 0.117 7.35 2.2 13.9
12/21/2021 3:45:00 AM 1.35 34.43 0.117 7.35 2.24 13.9
12/21/2021 4:00:00 AM 1.36 34.448 0.117 7.35 2.33 13.9
12/21/2021 4:15:00 AM 1.37 34.466 0.117 7.35 2.29 13.9
12/21/2021 4:30:00 AM 1.39 34.502 0.117 7.34 2.18 13.89
12/21/2021 4:45:00 AM 1.4 34.52 0.117 7.34 2.25 13.89
12/21/2021 5:00:00 AM 1.42 34.556 0.117 7.34 2.37 13.88
12/21/2021 5:15:00 AM 1.43 34.574 0.117 7.34 2.4 13.88
12/21/2021 5:30:00 AM 1.45 34.61 0.117 7.35 2.35 13.87
12/21/2021 5:45:00 AM 1.46 34.628 0.117 7.34 2.46 13.86
12/21/2021 6:00:00 AM 1.48 34.664 0.117 7.34 2.3 13.86
12/21/2021 6:15:00 AM 1.49 34.682 0.117 7.34 2.39 13.86
12/21/2021 6:30:00 AM 1.49 34.682 0.117 7.34 2.28 13.85
12/21/2021 6:45:00 AM 1.5 34.7 0.117 7.34 2.23 13.85
12/21/2021 7:00:00 AM 1.49 34.682 0.117 7.34 2.17 13.85
12/21/2021 7:15:00 AM 1.48 34.664 0.117 7.34 2.14 13.85
12/21/2021 7:30:00 AM 1.47 34.646 0.117 7.34 2.19 13.86
12/21/2021 7:45:00 AM 1.47 34.646 0.117 7.34 2.21 13.87
12/21/2021 8:00:00 AM 1.46 34.628 0.117 7.34 2.12 13.89
12/21/2021 8:15:00 AM 1.46 34.628 0.117 7.35 2.08 13.94
12/21/2021 8:30:00 AM 1.46 34.628 0.117 7.36 2.12 14.01
12/21/2021 8:45:00 AM 1.47 34.646 0.117 7.37 2.1 14.09
12/21/2021 9:00:00 AM 1.49 34.682 0.117 7.39 1.99 14.17
12/21/2021 9:15:00 AM 1.51 34.718 0.117 7.41 1.92 14.26
12/21/2021 9:30:00 AM 1.53 34.754 0.117 7.43 1.98 14.35
12/21/2021 9:45:00 AM 1.55 34.79 0.116 7.46 1.98 14.43
12/21/2021 10:00:00 AM 1.59 34.862 0.116 7.47 1.85 14.51
12/21/2021 10:15:00 AM 1.64 34.952 0.116 7.5 1.84 14.59
12/21/2021 10:30:00 AM 1.7 35.06 0.116 7.52 1.85 14.66
12/21/2021 10:45:00 AM 1.77 35.186 0.116 7.55 1.95 14.72
12/21/2021 11:00:00 AM 1.85 35.33 0.116 7.57 1.95 14.77
12/21/2021 11:15:00 AM 1.95 35.51 0.116 7.6 1.93 14.81
12/21/2021 11:30:00 AM 2.03 35.654 0.116 7.62 1.86 14.83
12/21/2021 11:45:00 AM 2.13 35.834 0.116 7.65 1.94 14.84
12/21/2021 12:00:00 PM 2.24 36.032 0.116 7.67 1.88 14.83
12/21/2021 12:15:00 PM 2.35 36.23 0.115 7.69 1.87 14.84
12/21/2021 12:30:00 PM 2.45 36.41 0.115 7.71 1.88 14.83
12/21/2021 12:45:00 PM 2.58 36.644 0.115 7.73 1.82 14.82
12/21/2021 1:00:00 PM 2.7 36.86 0.115 7.74 1.79 14.8
12/21/2021 1:15:00 PM 2.79 37.022 0.115 7.76 1.83 14.75
12/21/2021 1:30:00 PM 2.85 37.13 0.115 7.77 1.82 14.72
12/21/2021 1:45:00 PM 2.9 37.22 0.115 7.77 1.82 14.66
12/21/2021 2:00:00 PM 2.92 37.256 0.115 7.77 1.83 14.62
12/21/2021 2:15:00 PM 2.91 37.238 0.115 7.76 1.84 14.58
12/21/2021 2:30:00 PM 2.88 37.184 0.116 7.75 1.79 14.53
12/21/2021 2:45:00 PM 2.85 37.13 0.116 7.73 1.81 14.46
12/21/2021 3:00:00 PM 2.81 37.058 0.116 7.71 1.87 14.38
12/21/2021 3:15:00 PM 2.78 37.004 0.116 7.69 1.78 14.32
12/21/2021 3:30:00 PM 2.74 36.932 0.116 7.67 1.86 14.26
12/21/2021 3:45:00 PM 2.7 36.86 0.116 7.64 1.84 14.19
12/21/2021 4:00:00 PM 2.66 36.788 0.116 7.62 1.88 14.13
12/21/2021 4:15:00 PM 2.63 36.734 0.116 7.59 2.07 14.05
12/21/2021 4:30:00 PM 2.59 36.662 0.116 7.57 2.1 13.97
12/21/2021 4:45:00 PM 2.56 36.608 0.117 7.54 1.99 13.89
12/21/2021 5:00:00 PM 2.53 36.554 0.117 7.52 2 13.82
12/21/2021 5:15:00 PM 2.49 36.482 0.117 7.5 1.88 13.75
12/21/2021 5:30:00 PM 2.47 36.446 0.117 7.48 1.95 13.69
12/21/2021 5:45:00 PM 2.45 36.41 0.117 7.46 1.97 13.64
12/21/2021 6:00:00 PM 2.42 36.356 0.117 7.45 2 13.6
12/21/2021 6:15:00 PM 2.4 36.32 0.117 7.44 2.04 13.57
12/21/2021 6:30:00 PM 2.38 36.284 0.117 7.42 2.05 13.55
12/21/2021 6:45:00 PM 2.35 36.23 0.117 7.41 2.07 13.53
12/21/2021 7:00:00 PM 2.33 36.194 0.117 7.41 2.1 13.52
12/21/2021 7:15:00 PM 2.3 36.14 0.117 7.4 2.06 13.5
12/21/2021 7:30:00 PM 2.28 36.104 0.117 7.4 2.08 13.5
12/21/2021 7:45:00 PM 2.25 36.05 0.117 7.39 2.11 13.49
12/21/2021 8:00:00 PM 2.23 36.014 0.117 7.39 2.17 13.49
12/21/2021 8:15:00 PM 2.21 35.978 0.117 7.38 2.29 13.48
12/21/2021 8:30:00 PM 2.2 35.96 0.117 7.38 2.39 13.48
12/21/2021 8:45:00 PM 2.18 35.924 0.117 7.38 2.22 13.48
12/21/2021 9:00:00 PM 2.17 35.906 0.117 7.38 2.28 13.48
12/21/2021 9:15:00 PM 2.16 35.888 0.117 7.38 2.53 13.47
12/21/2021 9:30:00 PM 2.15 35.87 0.117 7.38 2.14 13.46
12/21/2021 9:45:00 PM 2.15 35.87 0.117 7.37 2.21 13.47
12/21/2021 10:00:00 PM 2.14 35.852 0.117 7.37 2.24 13.46
12/21/2021 10:15:00 PM 2.14 35.852 0.117 7.37 2.2 13.45
12/21/2021 10:30:00 PM 2.14 35.852 0.117 7.36 2.23 13.45
12/21/2021 10:45:00 PM 2.13 35.834 0.117 7.37 2.18 13.45
12/21/2021 11:00:00 PM 2.12 35.816 0.117 7.37 2.27 13.45
12/21/2021 11:15:00 PM 2.12 35.816 0.117 7.36 2.23 13.45
12/21/2021 11:30:00 PM 2.11 35.798 0.117 7.37 2.18 13.45
12/21/2021 11:45:00 PM 2.09 35.762 0.117 7.36 2.09 13.45
12/22/2021 12:00:00 AM 2.08 35.744 0.117 7.36 2.09 13.45
12/22/2021 12:15:00 AM 2.06 35.708 0.117 7.36 2.07 13.46
12/22/2021 12:30:00 AM 2.05 35.69 0.117 7.36 2.16 13.46
12/22/2021 12:45:00 AM 2.03 35.654 0.117 7.36 2.14 13.46
12/22/2021 1:00:00 AM 2.01 35.618 0.117 7.36 2.15 13.47
12/22/2021 1:15:00 AM 1.99 35.582 0.117 7.36 2.14 13.47
12/22/2021 1:30:00 AM 1.96 35.528 0.117 7.36 2.08 13.48
12/22/2021 1:45:00 AM 1.94 35.492 0.117 7.36 2.1 13.49
12/22/2021 2:00:00 AM 1.91 35.438 0.117 7.35 2.23 13.49
12/22/2021 2:15:00 AM 1.89 35.402 0.117 7.36 2.16 13.49
12/22/2021 2:30:00 AM 1.86 35.348 0.117 7.36 2.11 13.5
12/22/2021 2:45:00 AM 1.83 35.294 0.117 7.35 2.11 13.51
12/22/2021 3:00:00 AM 1.81 35.258 0.117 7.35 2.16 13.52
12/22/2021 3:15:00 AM 1.79 35.222 0.117 7.35 2.1 13.53
12/22/2021 3:30:00 AM 1.76 35.168 0.117 7.35 2.07 13.54
12/22/2021 3:45:00 AM 1.74 35.132 0.117 7.35 2.29 13.55
12/22/2021 4:00:00 AM 1.71 35.078 0.117 7.35 2.29 13.55
12/22/2021 4:15:00 AM 1.68 35.024 0.117 7.35 2.23 13.56
12/22/2021 4:30:00 AM 1.66 34.988 0.117 7.34 2.1 13.56
12/22/2021 4:45:00 AM 1.64 34.952 0.117 7.36 2.29 13.57
12/22/2021 5:00:00 AM 1.62 34.916 0.117 7.35 2.24 13.57
12/22/2021 5:15:00 AM 1.61 34.898 0.117 7.35 2.18 13.57
12/22/2021 5:30:00 AM 1.61 34.898 0.117 7.35 2.27 13.58
12/22/2021 5:45:00 AM 1.6 34.88 0.118 7.35 2.3 13.58
12/22/2021 6:00:00 AM 1.6 34.88 0.118 7.35 2.18 13.58
12/22/2021 6:15:00 AM 1.6 34.88 0.118 7.35 2.24 13.59
12/22/2021 6:30:00 AM 1.6 34.88 0.118 7.35 2.28 13.6
12/22/2021 6:45:00 AM 1.61 34.898 0.118 7.35 2.17 13.59
12/22/2021 7:00:00 AM 1.62 34.916 0.118 7.35 2.23 13.59
12/22/2021 7:15:00 AM 1.63 34.934 0.118 7.35 2.2 13.59
12/22/2021 7:30:00 AM 1.63 34.934 0.118 7.35 2.12 13.59
12/22/2021 7:45:00 AM 1.65 34.97 0.118 7.35 2.15 13.6
12/22/2021 8:00:00 AM 1.66 34.988 0.118 7.35 2.1 13.59
12/22/2021 8:15:00 AM 1.67 35.006 0.118 7.36 2.14 13.61
12/22/2021 8:30:00 AM 1.69 35.042 0.118 7.36 2.19 13.63
12/22/2021 8:45:00 AM 1.71 35.078 0.118 7.36 2.07 13.64
12/22/2021 9:00:00 AM 1.73 35.114 0.118 7.37 2.12 13.67
12/22/2021 9:15:00 AM 1.75 35.15 0.118 7.38 1.97 13.71
12/22/2021 9:30:00 AM 1.78 35.204 0.118 7.39 1.93 13.79
12/22/2021 9:45:00 AM 1.81 35.258 0.118 7.4 2.01 13.87
12/22/2021 10:00:00 AM 1.83 35.294 0.118 7.41 1.97 13.88
12/22/2021 10:15:00 AM 1.83 35.294 0.118 7.42 2.01 13.9
12/22/2021 10:30:00 AM 1.84 35.312 0.118 7.43 1.98 13.92
12/22/2021 10:45:00 AM 1.86 35.348 0.118 7.44 1.96 13.97
12/22/2021 11:00:00 AM 1.89 35.402 0.118 7.46 1.94 14
12/22/2021 11:15:00 AM 1.92 35.456 0.118 7.47 1.97 14.04
12/22/2021 11:30:00 AM 1.92 35.456 0.118 7.48 1.99 14.06
12/22/2021 11:45:00 AM 1.96 35.528 0.118 7.49 1.92 14.12
12/22/2021 12:00:00 PM 2.03 35.654 0.117 7.52 1.91 14.22
12/22/2021 12:15:00 PM 2.04 35.672 0.117 7.53 1.89 14.25
12/22/2021 12:30:00 PM 2.11 35.798 0.117 7.56 1.93 14.29
12/22/2021 12:45:00 PM 2.17 35.906 0.117 7.58 1.85 14.34
12/22/2021 1:00:00 PM 2.25 36.05 0.117 7.6 1.86 14.4
12/22/2021 1:15:00 PM 2.26 36.068 0.117 7.62 1.88 14.45
12/22/2021 1:30:00 PM 2.31 36.158 0.117 7.64 2.05 14.48
12/22/2021 1:45:00 PM 2.33 36.194 0.117 7.67 1.92 14.52
12/22/2021 2:00:00 PM 2.35 36.23 0.117 7.69 1.85 14.54
12/22/2021 2:15:00 PM 2.34 36.212 0.117 7.7 1.81 14.54
12/22/2021 2:30:00 PM 2.32 36.176 0.117 7.71 1.83 14.52
12/22/2021 2:45:00 PM 2.31 36.158 0.117 7.72 1.78 14.51
12/22/2021 3:00:00 PM 2.28 36.104 0.117 7.72 1.83 14.49
12/22/2021 3:15:00 PM 2.26 36.068 0.117 7.71 1.88 14.45
12/22/2021 3:30:00 PM 2.24 36.032 0.118 7.69 1.84 14.38
12/22/2021 3:45:00 PM 2.23 36.014 0.118 7.67 1.84 14.3
12/22/2021 4:00:00 PM 2.22 35.996 0.118 7.64 1.83 14.21
12/22/2021 4:15:00 PM 2.19 35.942 0.118 7.62 1.84 14.12
12/22/2021 4:30:00 PM 2.17 35.906 0.118 7.59 1.83 14.03
12/22/2021 4:45:00 PM 2.13 35.834 0.119 7.56 1.9 13.95
12/22/2021 5:00:00 PM 2.1 35.78 0.119 7.54 1.97 13.88
12/22/2021 5:15:00 PM 2.07 35.726 0.119 7.51 1.96 13.82
12/22/2021 5:30:00 PM 2.05 35.69 0.119 7.49 2.03 13.77
12/22/2021 5:45:00 PM 2.04 35.672 0.119 7.48 2.02 13.72
12/22/2021 6:00:00 PM 2.02 35.636 0.119 7.47 1.97 13.7
12/22/2021 6:15:00 PM 2.01 35.618 0.119 7.45 1.96 13.66
12/22/2021 6:30:00 PM 2 35.6 0.12 7.44 2.09 13.64
12/22/2021 6:45:00 PM 1.97 35.546 0.12 7.43 2.1 13.63
12/22/2021 7:00:00 PM 1.95 35.51 0.12 7.43 2.11 13.63
12/22/2021 7:15:00 PM 1.94 35.492 0.12 7.42 2.31 13.62
12/22/2021 7:30:00 PM 1.93 35.474 0.12 7.42 2.35 13.62
12/22/2021 7:45:00 PM 1.91 35.438 0.12 7.42 2.07 13.62
12/22/2021 8:00:00 PM 1.9 35.42 0.12 7.41 2.14 13.63
12/22/2021 8:15:00 PM 1.89 35.402 0.12 7.41 2.22 13.63
12/22/2021 8:30:00 PM 1.87 35.366 0.12 7.41 2.2 13.63
12/22/2021 8:45:00 PM 1.86 35.348 0.121 7.4 2.25 13.64
12/22/2021 9:00:00 PM 1.84 35.312 0.121 7.4 2.22 13.65
12/22/2021 9:15:00 PM 1.82 35.276 0.121 7.4 2.26 13.65
12/22/2021 9:30:00 PM 1.8 35.24 0.121 7.4 2.25 13.66
12/22/2021 9:45:00 PM 1.77 35.186 0.121 7.39 2.24 13.67
12/22/2021 10:00:00 PM 1.68 35.024 0.121 7.39 2.11 13.66
12/22/2021 10:15:00 PM 1.54 34.772 0.12 7.39 2.13 13.66
12/22/2021 10:30:00 PM 1.49 34.682 0.12 7.4 2.2 13.69
12/22/2021 10:45:00 PM 1.45 34.61 0.12 7.4 2.15 13.71
12/22/2021 11:00:00 PM 1.4 34.52 0.12 7.39 2.2 13.74
12/22/2021 11:15:00 PM 1.36 34.448 0.12 7.39 2.14 13.76
12/22/2021 11:30:00 PM 1.33 34.394 0.12 7.39 2.18 13.78
12/22/2021 11:45:00 PM 1.29 34.322 0.12 7.39 2.24 13.79
12/23/2021 12:00:00 AM 1.29 34.322 0.12 7.38 2.2 13.81
12/23/2021 12:15:00 AM 1.27 34.286 0.12 7.38 2.27 13.82
12/23/2021 12:30:00 AM 1.27 34.286 0.121 7.38 2.28 13.83
12/23/2021 12:45:00 AM 1.27 34.286 0.121 7.38 2.24 13.84
12/23/2021 1:00:00 AM 1.26 34.268 0.121 7.38 2.25 13.86
12/23/2021 1:15:00 AM 1.26 34.268 0.121 7.38 2.14 13.86
12/23/2021 1:30:00 AM 1.27 34.286 0.121 7.38 2.19 13.87
12/23/2021 1:45:00 AM 1.28 34.304 0.121 7.38 2.24 13.87
12/23/2021 2:00:00 AM 1.29 34.322 0.121 7.38 2.23 13.87
12/23/2021 2:15:00 AM 1.3 34.34 0.121 7.38 2.19 13.87
12/23/2021 2:30:00 AM 1.3 34.34 0.121 7.38 2.2 13.88
12/23/2021 2:45:00 AM 1.29 34.322 0.121 7.38 2.37 13.88
12/23/2021 3:00:00 AM 1.28 34.304 0.121 7.38 2.29 13.9
12/23/2021 3:15:00 AM 1.28 34.304 0.121 7.38 2.28 13.89
12/23/2021 3:30:00 AM 1.27 34.286 0.121 7.37 2.27 13.9
12/23/2021 3:45:00 AM 1.26 34.268 0.121 7.38 2.33 13.91
12/23/2021 4:00:00 AM 1.24 34.232 0.121 7.38 2.35 13.91
12/23/2021 4:15:00 AM 1.23 34.214 0.121 7.38 2.32 13.92
12/23/2021 4:30:00 AM 1.22 34.196 0.122 7.37 2.33 13.93
12/23/2021 4:45:00 AM 1.21 34.178 0.122 7.37 2.25 13.94
12/23/2021 5:00:00 AM 1.21 34.178 0.122 7.38 2.17 13.95
12/23/2021 5:15:00 AM 1.19 34.142 0.122 7.37 2.19 13.95
12/23/2021 5:30:00 AM 1.19 34.142 0.122 7.38 2.24 13.96
12/23/2021 5:45:00 AM 1.17 34.106 0.122 7.37 2.14 13.96
12/23/2021 6:00:00 AM 1.17 34.106 0.122 7.38 2.21 13.97
12/23/2021 6:15:00 AM 1.16 34.088 0.122 7.38 2.19 13.98
12/23/2021 6:30:00 AM 1.15 34.07 0.122 7.37 2.12 13.98
12/23/2021 6:45:00 AM 1.15 34.07 0.122 7.38 2.05 13.98
12/23/2021 7:00:00 AM 1.14 34.052 0.122 7.38 2.07 13.99
12/23/2021 7:15:00 AM 1.13 34.034 0.122 7.38 2.1 13.99
12/23/2021 7:30:00 AM 1.12 34.016 0.123 7.38 2.11 14
12/23/2021 7:45:00 AM 1.09 33.962 0.123 7.38 2.08 14
12/23/2021 8:00:00 AM 1.04 33.872 0.123 7.38 2.03 14.01
12/23/2021 8:15:00 AM 1 33.8 0.123 7.38 2.07 14.02
12/23/2021 8:30:00 AM 0.95 33.71 0.123 7.38 2.02 14.04
12/23/2021 8:45:00 AM 0.91 33.638 0.123 7.39 1.96 14.08
12/23/2021 9:00:00 AM 0.89 33.602 0.123 7.4 2.09 14.13
12/23/2021 9:15:00 AM 0.88 33.584 0.123 7.41 2 14.2
12/23/2021 9:30:00 AM 0.9 33.62 0.123 7.42 1.98 14.29
12/23/2021 9:45:00 AM 0.89 33.602 0.123 7.43 2 14.37
12/23/2021 10:00:00 AM 0.82 33.476 0.123 7.45 2.01 14.45
12/23/2021 10:15:00 AM 0.8 33.44 0.123 7.47 1.94 14.55
12/23/2021 10:30:00 AM 0.72 33.296 0.122 7.48 1.97 14.63
12/23/2021 10:45:00 AM 0.65 33.17 0.122 7.5 1.89 14.73
12/23/2021 11:00:00 AM 0.57 33.026 0.122 7.51 1.91 14.82
12/23/2021 11:15:00 AM 0.48 32.864 0.122 7.52 2.12 14.91
12/23/2021 11:30:00 AM 0.43 32.774 0.122 7.54 2.08 14.98
12/23/2021 11:45:00 AM 0.45 32.81 0.122 7.55 2.08 15.07
12/23/2021 12:00:00 PM 0.46 32.828 0.122 7.54 2.14 15.14
12/23/2021 12:15:00 PM 0.5 32.9 0.122 7.56 2.03 15.2
12/23/2021 12:30:00 PM 0.57 33.026 0.122 7.59 2.03 15.25
12/23/2021 12:45:00 PM 0.63 33.134 0.122 7.62 1.97 15.28
12/23/2021 1:00:00 PM 0.75 33.35 0.122 7.65 1.93 15.33
12/23/2021 1:15:00 PM 0.76 33.368 0.122 7.66 1.97 15.32
12/23/2021 1:30:00 PM 0.82 33.476 0.122 7.68 1.85 15.3
12/23/2021 1:45:00 PM 0.92 33.656 0.122 7.69 1.85 15.28
12/23/2021 2:00:00 PM 1.01 33.818 0.122 7.71 1.91 15.27
12/23/2021 2:15:00 PM 1.09 33.962 0.123 7.71 1.87 15.25
12/23/2021 2:30:00 PM 1.18 34.124 0.123 7.73 1.89 15.23
12/23/2021 2:45:00 PM 1.22 34.196 0.123 7.73 1.88 15.21
12/23/2021 3:00:00 PM 1.24 34.232 0.124 7.73 1.9 15.17
12/23/2021 3:15:00 PM 1.26 34.268 0.125 7.73 1.91 15.14
12/23/2021 3:30:00 PM 1.24 34.232 0.125 7.73 1.91 15.09
12/23/2021 3:45:00 PM 1.23 34.214 0.125 7.71 1.9 15.04
12/23/2021 4:00:00 PM 1.2 34.16 0.124 7.7 1.91 14.98
12/23/2021 4:15:00 PM 1.18 34.124 0.124 7.68 1.86 14.92
12/23/2021 4:30:00 PM 1.15 34.07 0.124 7.66 1.87 14.84
12/23/2021 4:45:00 PM 1.11 33.998 0.125 7.63 1.89 14.75
12/23/2021 5:00:00 PM 1.09 33.962 0.125 7.6 1.9 14.65
12/23/2021 5:15:00 PM 1.07 33.926 0.125 7.57 1.91 14.56
12/23/2021 5:30:00 PM 1.05 33.89 0.125 7.55 1.88 14.49
12/23/2021 5:45:00 PM 1.05 33.89 0.125 7.53 1.95 14.41
12/23/2021 6:00:00 PM 1.06 33.908 0.126 7.51 1.95 14.33
12/23/2021 6:15:00 PM 1.07 33.926 0.126 7.49 2 14.27
12/23/2021 6:30:00 PM 1.08 33.944 0.126 7.48 2.12 14.23
12/23/2021 6:45:00 PM 1.09 33.962 0.126 7.47 2.02 14.18
12/23/2021 7:00:00 PM 1.1 33.98 0.126 7.46 2.03 14.15
12/23/2021 7:15:00 PM 1.11 33.998 0.126 7.45 2.07 14.12
12/23/2021 7:30:00 PM 1.12 34.016 0.126 7.44 2.06 14.11
12/23/2021 7:45:00 PM 1.12 34.016 0.127 7.44 2.14 14.09
12/23/2021 8:00:00 PM 1.12 34.016 0.127 7.44 2.07 14.07
12/23/2021 8:15:00 PM 1.13 34.034 0.127 7.43 2.09 14.05
12/23/2021 8:30:00 PM 1.13 34.034 0.127 7.43 2.1 14.05
12/23/2021 8:45:00 PM 1.13 34.034 0.127 7.42 2.04 14.03
12/23/2021 9:00:00 PM 1.12 34.016 0.127 7.42 2.07 14.03
12/23/2021 9:15:00 PM 1.11 33.998 0.127 7.42 2.19 14.02
12/23/2021 9:30:00 PM 1.08 33.944 0.127 7.42 2.11 14.01
12/23/2021 9:45:00 PM 1.05 33.89 0.128 7.42 2.17 14.01
12/23/2021 10:00:00 PM 1.03 33.854 0.128 7.42 2.25 14.01
12/23/2021 10:15:00 PM 1.03 33.854 0.128 7.41 2.33 14.01
12/23/2021 10:30:00 PM 1.03 33.854 0.128 7.41 2.36 14.01
12/23/2021 10:45:00 PM 1.02 33.836 0.128 7.41 2.13 14
12/23/2021 11:00:00 PM 1.03 33.854 0.128 7.41 2.14 14.01
12/23/2021 11:15:00 PM 1.04 33.872 0.128 7.41 2.13 14
12/23/2021 11:30:00 PM 1.06 33.908 0.128 7.41 2.04 14
12/23/2021 11:45:00 PM 1.08 33.944 0.128 7.41 2.04 13.99
12/24/2021 12:00:00 AM 1.1 33.98 0.128 7.41 2.1 13.99
12/24/2021 12:15:00 AM 1.12 34.016 0.128 7.4 2.06 13.98
12/24/2021 12:30:00 AM 1.12 34.016 0.128 7.41 2.16 13.97
12/24/2021 12:45:00 AM 1.13 34.034 0.128 7.4 2.03 13.97
12/24/2021 1:00:00 AM 1.14 34.052 0.128 7.41 2.05 13.95
12/24/2021 1:15:00 AM 1.15 34.07 0.128 7.4 2.07 13.95
12/24/2021 1:30:00 AM 1.16 34.088 0.128 7.41 2.19 13.93
12/24/2021 1:45:00 AM 1.16 34.088 0.128 7.4 2.22 13.93
12/24/2021 2:00:00 AM 1.18 34.124 0.128 7.41 2.3 13.93
12/24/2021 2:15:00 AM 1.17 34.106 0.128 7.4 2.2 13.92
12/24/2021 2:30:00 AM 1.18 34.124 0.128 7.4 2.1 13.91
12/24/2021 2:45:00 AM 1.15 34.07 0.128 7.41 2.12 13.92
12/24/2021 3:00:00 AM 1.13 34.034 0.128 7.41 2.21 13.92
12/24/2021 3:15:00 AM 1.11 33.998 0.128 7.4 2.33 13.93
12/24/2021 3:30:00 AM 1.09 33.962 0.128 7.4 2.11 13.92
12/24/2021 3:45:00 AM 1.07 33.926 0.128 7.4 2.16 13.93
12/24/2021 4:00:00 AM 1.04 33.872 0.128 7.4 2.3 13.94
12/24/2021 4:15:00 AM 1.04 33.872 0.128 7.4 2.17 13.94
12/24/2021 4:30:00 AM 1.05 33.89 0.128 7.4 2.15 13.94
12/24/2021 4:45:00 AM 1.05 33.89 0.129 7.4 2.14 13.95
12/24/2021 5:00:00 AM 1.05 33.89 0.129 7.4 2.09 13.96
12/24/2021 5:15:00 AM 1.06 33.908 0.129 7.4 2.13 13.95
12/24/2021 5:30:00 AM 1.07 33.926 0.129 7.4 2.12 13.95
12/24/2021 5:45:00 AM 1.09 33.962 0.129 7.4 2.07 13.95
12/24/2021 6:00:00 AM 1.1 33.98 0.129 7.39 2.23 13.95
12/24/2021 6:15:00 AM 1.12 34.016 0.129 7.4 2.19 13.94
12/24/2021 6:30:00 AM 1.13 34.034 0.129 7.4 2.12 13.94
12/24/2021 6:45:00 AM 1.15 34.07 0.129 7.39 2.11 13.94
12/24/2021 7:00:00 AM 1.17 34.106 0.129 7.4 2.08 13.93
12/24/2021 7:15:00 AM 1.19 34.142 0.129 7.4 2.05 13.93
12/24/2021 7:30:00 AM 1.2 34.16 0.129 7.4 2.02 13.93
12/24/2021 7:45:00 AM 1.22 34.196 0.129 7.4 2.08 13.93
12/24/2021 8:00:00 AM 1.24 34.232 0.13 7.4 2.04 13.94
12/24/2021 8:15:00 AM 1.26 34.268 0.13 7.4 2.08 13.96
12/24/2021 8:30:00 AM 1.28 34.304 0.13 7.41 2.05 13.98
12/24/2021 8:45:00 AM 1.31 34.358 0.13 7.42 1.95 14.05
12/24/2021 9:00:00 AM 1.34 34.412 0.13 7.43 1.82 14.11
12/24/2021 9:15:00 AM 1.37 34.466 0.13 7.45 1.89 14.19
12/24/2021 9:30:00 AM 1.41 34.538 0.13 7.46 1.89 14.27
12/24/2021 9:45:00 AM 1.44 34.592 0.13 7.48 1.87 14.36
12/24/2021 10:00:00 AM 1.48 34.664 0.129 7.51 1.9 14.44
12/24/2021 10:15:00 AM 1.52 34.736 0.129 7.53 1.86 14.51
12/24/2021 10:30:00 AM 1.55 34.79 0.129 7.55 1.89 14.58
12/24/2021 10:45:00 AM 1.59 34.862 0.129 7.57 1.91 14.63
12/24/2021 11:00:00 AM 1.63 34.934 0.129 7.59 1.85 14.67
12/24/2021 11:15:00 AM 1.68 35.024 0.129 7.61 1.89 14.72
12/24/2021 11:30:00 AM 1.73 35.114 0.129 7.63 1.97 14.75
12/24/2021 11:45:00 AM 1.78 35.204 0.129 7.65 1.83 14.79
12/24/2021 12:00:00 PM 1.83 35.294 0.129 7.67 1.84 14.81
12/24/2021 12:15:00 PM 1.89 35.402 0.129 7.69 1.82 14.83
12/24/2021 12:30:00 PM 1.94 35.492 0.129 7.7 1.84 14.85
12/24/2021 12:45:00 PM 2 35.6 0.129 7.72 1.83 14.86
12/24/2021 1:00:00 PM 2.05 35.69 0.129 7.75 1.88 14.86
12/24/2021 1:15:00 PM 2.11 35.798 0.129 7.76 1.79 14.86
12/24/2021 1:30:00 PM 2.18 35.924 0.129 7.77 1.76 14.86
12/24/2021 1:45:00 PM 2.23 36.014 0.129 7.79 1.77 14.86
12/24/2021 2:00:00 PM 2.28 36.104 0.129 7.8 1.8 14.86
12/24/2021 2:15:00 PM 2.37 36.266 0.129 7.82 1.77 14.86
12/24/2021 2:30:00 PM 2.41 36.338 0.129 7.83 1.75 14.84
12/24/2021 2:45:00 PM 2.42 36.356 0.129 7.83 1.74 14.81
12/24/2021 3:00:00 PM 2.45 36.41 0.13 7.83 1.77 14.77
12/24/2021 3:15:00 PM 2.47 36.446 0.13 7.83 1.73 14.71
12/24/2021 3:30:00 PM 2.48 36.464 0.13 7.81 1.76 14.64
12/24/2021 3:45:00 PM 2.46 36.428 0.13 7.79 1.77 14.57
12/24/2021 4:00:00 PM 2.44 36.392 0.13 7.77 1.75 14.48
12/24/2021 4:15:00 PM 2.41 36.338 0.131 7.73 1.8 14.37
12/24/2021 4:30:00 PM 2.37 36.266 0.131 7.7 1.79 14.26
12/24/2021 4:45:00 PM 2.34 36.212 0.131 7.67 1.77 14.15
12/24/2021 5:00:00 PM 2.31 36.158 0.132 7.63 1.77 14.05
12/24/2021 5:15:00 PM 2.28 36.104 0.132 7.6 1.8 13.97
12/24/2021 5:30:00 PM 2.25 36.05 0.132 7.57 1.77 13.89
12/24/2021 5:45:00 PM 2.22 35.996 0.132 7.55 1.81 13.81
12/24/2021 6:00:00 PM 2.2 35.96 0.133 7.53 2.1 13.75
12/24/2021 6:15:00 PM 2.17 35.906 0.133 7.51 1.83 13.71
12/24/2021 6:30:00 PM 2.16 35.888 0.133 7.5 1.85 13.67
12/24/2021 6:45:00 PM 2.14 35.852 0.133 7.49 1.93 13.64
12/24/2021 7:00:00 PM 2.13 35.834 0.133 7.48 1.95 13.61
12/24/2021 7:15:00 PM 2.13 35.834 0.134 7.47 2.11 13.59
12/24/2021 7:30:00 PM 2.13 35.834 0.134 7.47 2.06 13.57
12/24/2021 7:45:00 PM 2.13 35.834 0.134 7.46 1.95 13.56
12/24/2021 8:00:00 PM 2.13 35.834 0.134 7.45 1.98 13.55
12/24/2021 8:15:00 PM 2.14 35.852 0.134 7.45 1.96 13.53
12/24/2021 8:30:00 PM 2.15 35.87 0.134 7.44 2 13.51
12/24/2021 8:45:00 PM 2.16 35.888 0.134 7.44 1.91 13.51
12/24/2021 9:00:00 PM 2.18 35.924 0.134 7.43 2.1 13.49
12/24/2021 9:15:00 PM 2.2 35.96 0.134 7.44 2.14 13.48
12/24/2021 9:30:00 PM 2.21 35.978 0.134 7.43 2.03 13.48
12/24/2021 9:45:00 PM 2.23 36.014 0.134 7.43 1.99 13.46
12/24/2021 10:00:00 PM 2.25 36.05 0.134 7.43 1.95 13.46
12/24/2021 10:15:00 PM 2.27 36.086 0.134 7.43 2.07 13.45
12/24/2021 10:30:00 PM 2.29 36.122 0.134 7.42 1.95 13.44
12/24/2021 10:45:00 PM 2.31 36.158 0.134 7.43 2.04 13.43
12/24/2021 11:00:00 PM 2.33 36.194 0.134 7.42 2.05 13.41
12/24/2021 11:15:00 PM 2.36 36.248 0.134 7.42 1.97 13.4
12/24/2021 11:30:00 PM 2.38 36.284 0.134 7.42 1.97 13.39
12/24/2021 11:45:00 PM 2.41 36.338 0.134 7.42 2.09 13.38
12/25/2021 12:00:00 AM 2.43 36.374 0.134 7.42 2.18 13.36
12/25/2021 12:15:00 AM 2.46 36.428 0.134 7.42 2.32 13.36
12/25/2021 12:30:00 AM 2.48 36.464 0.134 7.42 2.22 13.34
12/25/2021 12:45:00 AM 2.5 36.5 0.134 7.41 2.1 13.33
12/25/2021 1:00:00 AM 2.52 36.536 0.134 7.42 2.15 13.32
12/25/2021 1:15:00 AM 2.55 36.59 0.134 7.42 2.04 13.3
12/25/2021 1:30:00 AM 2.57 36.626 0.134 7.41 2.07 13.29
12/25/2021 1:45:00 AM 2.58 36.644 0.134 7.42 2.06 13.28
12/25/2021 2:00:00 AM 2.6 36.68 0.134 7.42 2.06 13.27
12/25/2021 2:15:00 AM 2.62 36.716 0.134 7.42 2.07 13.25
12/25/2021 2:30:00 AM 2.63 36.734 0.134 7.42 2.05 13.25
12/25/2021 2:45:00 AM 2.65 36.77 0.134 7.41 2.04 13.23
12/25/2021 3:00:00 AM 2.66 36.788 0.134 7.41 2.19 13.21
12/25/2021 3:15:00 AM 2.68 36.824 0.134 7.41 2.29 13.21
12/25/2021 3:30:00 AM 2.69 36.842 0.134 7.41 2.16 13.2
12/25/2021 3:45:00 AM 2.7 36.86 0.134 7.41 1.91 13.19
12/25/2021 4:00:00 AM 2.71 36.878 0.134 7.41 1.98 13.18
12/25/2021 4:15:00 AM 2.72 36.896 0.133 7.41 2.05 13.18
12/25/2021 4:30:00 AM 2.73 36.914 0.133 7.41 2.04 13.17
12/25/2021 4:45:00 AM 2.74 36.932 0.133 7.41 2.07 13.16
12/25/2021 5:00:00 AM 2.75 36.95 0.133 7.41 1.99 13.15
12/25/2021 5:15:00 AM 2.76 36.968 0.133 7.41 2.05 13.15
12/25/2021 5:30:00 AM 2.76 36.968 0.133 7.41 2.08 13.13
12/25/2021 5:45:00 AM 2.76 36.968 0.133 7.41 2.16 13.14
12/25/2021 6:00:00 AM 2.77 36.986 0.133 7.41 2.08 13.13
12/25/2021 6:15:00 AM 2.77 36.986 0.133 7.41 2.18 13.13
12/25/2021 6:30:00 AM 2.78 37.004 0.132 7.41 2.23 13.12
12/25/2021 6:45:00 AM 2.78 37.004 0.132 7.4 2.28 13.13
12/25/2021 7:00:00 AM 2.78 37.004 0.132 7.4 2.27 13.12
12/25/2021 7:15:00 AM 2.78 37.004 0.132 7.39 2.32 13.12
12/25/2021 7:30:00 AM 2.78 37.004 0.132 7.39 2.49 13.12
12/25/2021 7:45:00 AM 2.78 37.004 0.132 7.4 2.48 13.12
12/25/2021 8:00:00 AM 2.78 37.004 0.132 7.39 2.51 13.12
12/25/2021 8:15:00 AM 2.79 37.022 0.132 7.39 2.59 13.12
12/25/2021 8:30:00 AM 2.79 37.022 0.131 7.39 2.81 13.14
12/25/2021 8:45:00 AM 2.79 37.022 0.131 7.39 2.69 13.15
12/25/2021 9:00:00 AM 2.79 37.022 0.131 7.39 2.91 13.18
12/25/2021 9:15:00 AM 2.79 37.022 0.132 7.4 2.95 13.22
12/25/2021 9:30:00 AM 2.8 37.04 0.133 7.41 3.4 13.24
12/25/2021 9:45:00 AM 2.8 37.04 0.135 7.42 3.71 13.28
12/25/2021 10:00:00 AM 2.8 37.04 0.136 7.4 4.15 13.31
12/25/2021 10:15:00 AM 2.8 37.04 0.137 7.41 4.36 13.32
12/25/2021 10:30:00 AM 2.79 37.022 0.138 7.41 4.58 13.34
12/25/2021 10:45:00 AM 2.79 37.022 0.138 7.42 5.31 13.38
12/25/2021 11:00:00 AM 2.78 37.004 0.138 7.42 5.73 13.39
12/25/2021 11:15:00 AM 2.77 36.986 0.137 7.42 7.55 13.43
12/25/2021 11:30:00 AM 2.77 36.986 0.136 7.41 9.32 13.47
12/25/2021 11:45:00 AM 2.77 36.986 0.134 7.41 10.92 13.49
12/25/2021 12:00:00 PM 2.77 36.986 0.134 7.41 11.16 13.49
12/25/2021 12:15:00 PM 2.77 36.986 0.135 7.4 10.48 13.5
12/25/2021 12:30:00 PM 2.77 36.986 0.136 7.39 10.53 13.48
12/25/2021 12:45:00 PM 2.76 36.968 0.137 7.38 11.27 13.47
12/25/2021 1:00:00 PM 2.76 36.968 0.137 7.38 11.9 13.46
12/25/2021 1:15:00 PM 2.75 36.95 0.135 7.39 12.51 13.45
12/25/2021 1:30:00 PM 2.75 36.95 0.133 7.38 12.22 13.43
12/25/2021 1:45:00 PM 2.76 36.968 0.131 7.38 12.58 13.4
12/25/2021 2:00:00 PM 2.77 36.986 0.129 7.37 14.59 13.37
12/25/2021 2:15:00 PM 2.79 37.022 0.128 7.35 16.09 13.34
12/25/2021 2:30:00 PM 2.8 37.04 0.128 7.34 17.73 13.32
12/25/2021 2:45:00 PM 2.82 37.076 0.126 7.29 23.02 13.31
12/25/2021 3:00:00 PM 2.82 37.076 0.124 7.29 21.7 13.29
12/25/2021 3:15:00 PM 2.81 37.058 0.122 7.28 23.44 13.27
12/25/2021 3:30:00 PM 2.8 37.04 0.119 7.3 23.21 13.26
12/25/2021 3:45:00 PM 2.77 36.986 0.117 7.3 25.45 13.25
12/25/2021 4:00:00 PM 2.73 36.914 0.115 7.26 23.6 13.24
12/25/2021 4:15:00 PM 2.69 36.842 0.114 7.22 25.61 13.26
12/25/2021 4:30:00 PM 2.63 36.734 0.113 7.2 26.91 13.28
12/25/2021 4:45:00 PM 2.57 36.626 0.113 7.21 28.51 13.3
12/25/2021 5:00:00 PM 2.51 36.518 0.112 7.16 31.1 13.33
12/25/2021 5:15:00 PM 2.46 36.428 0.112 7.2 35.99 13.34
12/25/2021 5:30:00 PM 2.42 36.356 0.112 7.17 29.84 13.37
12/25/2021 5:45:00 PM 2.39 36.302 0.112 7.16 30.02 13.37
12/25/2021 6:00:00 PM 2.36 36.248 0.112 7.17 218.75 13.37
12/25/2021 6:15:00 PM 2.35 36.23 0.107 7.19 27.85 13.38
12/25/2021 6:30:00 PM 2.34 36.212 0.111 7.18 28.16 13.38
12/25/2021 6:45:00 PM 2.34 36.212 0.111 7.18 26.5 13.38
12/25/2021 7:00:00 PM 2.35 36.23 0.11 7.17 26.29 13.38
12/25/2021 7:15:00 PM 2.36 36.248 0.109 7.17 26.6 13.38
12/25/2021 7:30:00 PM 2.38 36.284 0.108 7.16 23.59 13.38
12/25/2021 7:45:00 PM 2.4 36.32 0.108 7.15 23.32 13.37
12/25/2021 8:00:00 PM 2.42 36.356 0.107 7.16 22.39 13.36
12/25/2021 8:15:00 PM 2.45 36.41 0.107 7.15 19.1 13.35
12/25/2021 8:30:00 PM 2.49 36.482 0.106 7.12 19.64 13.34
12/25/2021 8:45:00 PM 2.52 36.536 0.105 7.15 19.06 13.34
12/25/2021 9:00:00 PM 2.55 36.59 0.105 7.15 18.11 13.33
12/25/2021 9:15:00 PM 2.58 36.644 0.104 7.14 17.64 13.31
12/25/2021 9:30:00 PM 2.61 36.698 0.104 7.13 13.29 13.31
12/25/2021 9:45:00 PM 2.64 36.752 0.103 7.13 16.17 13.3
12/25/2021 10:00:00 PM 2.67 36.806 0.103 7.14 15.46 13.29
12/25/2021 10:15:00 PM 2.69 36.842 0.103 7.14 15.31 13.28
12/25/2021 10:30:00 PM 2.72 36.896 0.102 7.13 14.89 13.27
12/25/2021 10:45:00 PM 2.75 36.95 0.102 7.14 14.34 13.26
12/25/2021 11:00:00 PM 2.77 36.986 0.102 7.14 14.6 13.25
12/25/2021 11:15:00 PM 2.79 37.022 0.102 7.14 13.33 13.25
12/25/2021 11:30:00 PM 2.82 37.076 0.102 7.13 12.93 13.24
12/25/2021 11:45:00 PM 2.84 37.112 0.101 7.14 13.2 13.23
12/26/2021 12:00:00 AM 2.86 37.148 0.101 7.13 11.4 13.23
12/26/2021 12:15:00 AM 2.88 37.184 0.101 7.13 13.25 13.22
12/26/2021 12:30:00 AM 2.9 37.22 0.101 7.14 13.28 13.22
12/26/2021 12:45:00 AM 2.92 37.256 0.101 7.13 17.1 13.21
12/26/2021 1:00:00 AM 2.94 37.292 0.101 7.13 12.39 13.21
12/26/2021 1:15:00 AM 2.95 37.31 0.1 7.13 12.35 13.2
12/26/2021 1:30:00 AM 2.97 37.346 0.1 7.12 12.09 13.2
12/26/2021 1:45:00 AM 2.98 37.364 0.1 7.13 11.85 13.2
12/26/2021 2:00:00 AM 2.99 37.382 0.1 7.13 12.06 13.2
12/26/2021 2:15:00 AM 2.99 37.382 0.1 7.14 11.4 13.2
12/26/2021 2:30:00 AM 3 37.4 0.099 7.14 11.53 13.2
12/26/2021 2:45:00 AM 3 37.4 0.099 7.14 11.38 13.2
12/26/2021 3:00:00 AM 3 37.4 0.099 7.15 11.34 13.2
12/26/2021 3:15:00 AM 3.01 37.418 0.099 7.14 11.07 13.2
12/26/2021 3:30:00 AM 3.01 37.418 0.099 7.14 10.83 13.21
12/26/2021 3:45:00 AM 3.01 37.418 0.099 7.15 10.71 13.21
12/26/2021 4:00:00 AM 3 37.4 0.099 7.15 10.31 13.21
12/26/2021 4:15:00 AM 3 37.4 0.099 7.14 10.4 13.21
12/26/2021 4:30:00 AM 3 37.4 0.099 7.15 9.94 13.22
12/26/2021 4:45:00 AM 3 37.4 0.099 7.14 10.4 13.22
12/26/2021 5:00:00 AM 3 37.4 0.1 7.14 9.7 13.22
12/26/2021 5:15:00 AM 2.99 37.382 0.1 7.15 9.85 13.23
12/26/2021 5:30:00 AM 2.99 37.382 0.1 7.15 9.88 13.23
12/26/2021 5:45:00 AM 2.98 37.364 0.1 7.16 9.34 13.24
12/26/2021 6:00:00 AM 2.97 37.346 0.1 7.15 9.29 13.24
12/26/2021 6:15:00 AM 2.95 37.31 0.1 7.16 9.32 13.24
12/26/2021 6:30:00 AM 2.94 37.292 0.1 7.16 8.97 13.25
12/26/2021 6:45:00 AM 2.93 37.274 0.1 7.16 8.9 13.25
12/26/2021 7:00:00 AM 2.91 37.238 0.1 7.16 8.47 13.25
12/26/2021 7:15:00 AM 2.89 37.202 0.1 7.16 9.02 13.26
12/26/2021 7:30:00 AM 2.87 37.166 0.08 7.16 8.66 13.27
12/26/2021 7:45:00 AM 2.84 37.112 0.098 7.15 19.78 13.28
12/26/2021 8:00:00 AM 2.82 37.076 0.1 7.16 8.42 13.29
12/26/2021 8:15:00 AM 2.81 37.058 0.101 7.16 7.55 13.32
12/26/2021 8:30:00 AM 2.81 37.058 0.101 7.16 7.68 13.34
12/26/2021 8:45:00 AM 2.82 37.076 0.101 7.17 7.39 13.37
12/26/2021 9:00:00 AM 2.83 37.094 0.101 7.17 7.13 13.41
12/26/2021 9:15:00 AM 2.85 37.13 0.101 7.18 7.12 13.45
12/26/2021 9:30:00 AM 2.88 37.184 0.102 7.19 6.98 13.48
12/26/2021 9:45:00 AM 2.9 37.22 0.102 7.2 6.63 13.52
12/26/2021 10:00:00 AM 2.93 37.274 0.102 7.21 6.64 13.55
12/26/2021 10:15:00 AM 2.96 37.328 0.102 7.22 6.36 13.57
12/26/2021 10:30:00 AM 3 37.4 0.102 7.24 6.27 13.61
12/26/2021 10:45:00 AM 3.03 37.454 0.102 7.25 6.16 13.65
12/26/2021 11:00:00 AM 3.07 37.526 0.102 7.25 6.1 13.68
12/26/2021 11:15:00 AM 3.11 37.598 0.102 7.28 5.72 13.72
12/26/2021 11:30:00 AM 3.16 37.688 0.102 7.3 5.71 13.75
12/26/2021 11:45:00 AM 3.2 37.76 0.102 7.31 5.49 13.77
12/26/2021 12:00:00 PM 3.25 37.85 0.102 7.32 5.41 13.79
12/26/2021 12:15:00 PM 3.29 37.922 0.102 7.33 5.31 13.8
12/26/2021 12:30:00 PM 3.31 37.958 0.102 7.34 5.23 13.79
12/26/2021 12:45:00 PM 3.33 37.994 0.103 7.35 5.09 13.78
12/26/2021 1:00:00 PM 3.35 38.03 0.103 7.36 4.93 13.77
12/26/2021 1:15:00 PM 3.37 38.066 0.103 7.36 4.86 13.77
12/26/2021 1:30:00 PM 3.38 38.084 0.103 7.36 4.89 13.74
12/26/2021 1:45:00 PM 3.4 38.12 0.103 7.36 4.68 13.73
12/26/2021 2:00:00 PM 3.41 38.138 0.103 7.36 5.03 13.73
12/26/2021 2:15:00 PM 3.43 38.174 0.103 7.37 5.27 13.71
12/26/2021 2:30:00 PM 3.45 38.21 0.103 7.38 4.63 13.72
12/26/2021 2:45:00 PM 3.47 38.246 0.104 7.38 4.74 13.72
12/26/2021 3:00:00 PM 3.47 38.246 0.104 7.38 4.33 13.7
12/26/2021 3:15:00 PM 3.48 38.264 0.104 7.38 5 13.66
12/26/2021 3:30:00 PM 3.47 38.246 0.104 7.37 4.81 13.6
12/26/2021 3:45:00 PM 3.47 38.246 0.104 7.36 4.82 13.54
12/26/2021 4:00:00 PM 3.46 38.228 0.104 7.35 5.76 13.48
12/26/2021 4:15:00 PM 3.45 38.21 0.104 7.33 11.5 13.45
12/26/2021 4:30:00 PM 3.43 38.174 0.105 7.32 5.63 13.4
12/26/2021 4:45:00 PM 3.41 38.138 0.105 7.32 5.43 13.36
12/26/2021 5:00:00 PM 3.4 38.12 0.105 7.3 5.51 13.33
12/26/2021 5:15:00 PM 3.38 38.084 0.105 7.29 5.18 13.29
12/26/2021 5:30:00 PM 3.37 38.066 0.105 7.28 5.25 13.27
12/26/2021 5:45:00 PM 3.36 38.048 0.105 7.27 4.95 13.25
12/26/2021 6:00:00 PM 3.35 38.03 0.105 7.26 5.28 13.24
12/26/2021 6:15:00 PM 3.34 38.012 0.105 7.25 5.02 13.23
12/26/2021 6:30:00 PM 3.34 38.012 0.106 7.24 5.39 13.23
12/26/2021 6:45:00 PM 3.33 37.994 0.106 7.24 5.34 13.22
12/26/2021 7:00:00 PM 3.32 37.976 0.106 7.24 5.42 13.21
12/26/2021 7:15:00 PM 3.31 37.958 0.106 7.24 5.14 13.21
12/26/2021 7:30:00 PM 3.3 37.94 0.106 7.23 5.14 13.21
12/26/2021 7:45:00 PM 3.29 37.922 0.106 7.23 5.31 13.21
12/26/2021 8:00:00 PM 3.28 37.904 0.106 7.23 5.26 13.22
12/26/2021 8:15:00 PM 3.27 37.886 0.106 7.23 4.82 13.22
12/26/2021 8:30:00 PM 3.26 37.868 0.106 7.23 94.65 13.23
12/26/2021 8:45:00 PM 3.25 37.85 0.106 7.23 5.63 13.23
12/26/2021 9:00:00 PM 3.24 37.832 0.106 7.23 4.3 13.24
12/26/2021 9:15:00 PM 3.23 37.814 0.106 7.23 4.46 13.24
12/26/2021 9:30:00 PM 3.2 37.76 0.106 7.22 4 13.25
12/26/2021 9:45:00 PM 3.18 37.724 0.106 7.22 4.18 13.26
12/26/2021 10:00:00 PM 3.15 37.67 0.106 7.23 4.43 13.27
12/26/2021 10:15:00 PM 3.12 37.616 0.106 7.23 4.71 13.28
12/26/2021 10:30:00 PM 3.1 37.58 0.106 7.23 4.6 13.28
12/26/2021 10:45:00 PM 3.07 37.526 0.106 7.23 5.84 13.3
12/26/2021 11:00:00 PM 3.05 37.49 0.106 7.23 6.43 13.31
12/26/2021 11:15:00 PM 3.03 37.454 0.106 7.23 7.17 13.32
12/26/2021 11:30:00 PM 3.01 37.418 0.106 7.23 8.09 13.32
12/26/2021 11:45:00 PM 2.98 37.364 0.106 7.23 8.46 13.33
12/27/2021 12:00:00 AM 2.96 37.328 0.106 7.23 8.74 13.34
12/27/2021 12:15:00 AM 2.94 37.292 0.106 7.23 8.7 13.35
12/27/2021 12:30:00 AM 2.91 37.238 0.106 7.23 8.7 13.36
12/27/2021 12:45:00 AM 2.89 37.202 0.106 7.23 8.46 13.36
12/27/2021 1:00:00 AM 2.86 37.148 0.106 7.23 8.13 13.37
12/27/2021 1:15:00 AM 2.84 37.112 0.106 7.24 7.54 13.38
12/27/2021 1:30:00 AM 2.82 37.076 0.106 7.23 6.9 13.39
12/27/2021 1:45:00 AM 2.79 37.022 0.106 7.23 6.98 13.4
12/27/2021 2:00:00 AM 2.76 36.968 0.106 7.23 6.64 13.42
12/27/2021 2:15:00 AM 2.73 36.914 0.106 7.24 7.23 13.43
12/27/2021 2:30:00 AM 2.69 36.842 0.106 7.24 7.76 13.44
12/27/2021 2:45:00 AM 2.65 36.77 0.106 7.25 9.6 13.45
12/27/2021 3:00:00 AM 2.62 36.716 0.106 7.24 12.08 13.47
12/27/2021 3:15:00 AM 2.6 36.68 0.106 7.25 14.07 13.48
12/27/2021 3:30:00 AM 2.58 36.644 0.106 7.25 15.9 13.48
12/27/2021 3:45:00 AM 2.57 36.626 0.106 7.25 16.01 13.49
12/27/2021 4:00:00 AM 2.54 36.572 0.106 7.24 16.55 13.5
12/27/2021 4:15:00 AM 2.52 36.536 0.106 7.24 14.5 13.5
12/27/2021 4:30:00 AM 2.51 36.518 0.106 7.25 13.47 13.51
12/27/2021 4:45:00 AM 2.49 36.482 0.106 7.25 13.87 13.52
12/27/2021 5:00:00 AM 2.48 36.464 0.106 7.25 11.63 13.53
12/27/2021 5:15:00 AM 2.46 36.428 0.106 7.24 10.72 13.52
12/27/2021 5:30:00 AM 2.44 36.392 0.106 7.24 8.92 13.53
12/27/2021 5:45:00 AM 2.43 36.374 0.106 7.25 7.58 13.54
12/27/2021 6:00:00 AM 2.41 36.338 0.106 7.24 7.01 13.55
12/27/2021 6:15:00 AM 2.39 36.302 0.106 7.25 6.4 13.54
12/27/2021 6:30:00 AM 2.38 36.284 0.106 7.24 5.94 13.56
12/27/2021 6:45:00 AM 2.36 36.248 0.106 7.25 5.47 13.56
12/27/2021 7:00:00 AM 2.34 36.212 0.106 7.25 5.44 13.57
12/27/2021 7:15:00 AM 2.33 36.194 0.106 7.25 4.74 13.58
12/27/2021 7:30:00 AM 2.31 36.158 0.106 7.24 4.56 13.58
12/27/2021 7:45:00 AM 2.3 36.14 0.106 7.25 4.71 13.58
12/27/2021 8:00:00 AM 2.29 36.122 0.106 7.25 4.33 13.59
12/27/2021 8:15:00 AM 2.28 36.104 0.106 7.25 4.12 13.6
12/27/2021 8:30:00 AM 2.27 36.086 0.106 7.25 3.89 13.62
12/27/2021 8:45:00 AM 2.26 36.068 0.106 7.25 3.8 13.63
12/27/2021 9:00:00 AM 2.25 36.05 0.105 7.26 3.81 13.65
12/27/2021 9:15:00 AM 2.24 36.032 0.105 7.26 3.61 13.68
12/27/2021 9:30:00 AM 2.24 36.032 0.105 7.26 3.52 13.72
12/27/2021 9:45:00 AM 2.25 36.05 0.105 7.28 3.52 13.78
12/27/2021 10:00:00 AM 2.26 36.068 0.105 7.29 3.3 13.85
12/27/2021 10:15:00 AM 2.27 36.086 0.105 7.3 3.25 13.93
12/27/2021 10:30:00 AM 2.28 36.104 0.105 7.32 3.2 13.98
12/27/2021 10:45:00 AM 2.3 36.14 0.105 7.34 2.99 14.04
12/27/2021 11:00:00 AM 2.3 36.14 0.105 7.35 3.05 14.07
12/27/2021 11:15:00 AM 2.31 36.158 0.105 7.35 3.01 14.08
12/27/2021 11:30:00 AM 2.32 36.176 0.105 7.37 2.92 14.08
12/27/2021 11:45:00 AM 2.33 36.194 0.104 7.37 2.86 14.09
12/27/2021 12:00:00 PM 2.34 36.212 0.104 7.38 2.86 14.1
12/27/2021 12:15:00 PM 2.34 36.212 0.104 7.38 2.9 14.1
12/27/2021 12:30:00 PM 2.35 36.23 0.104 7.38 2.79 14.11
12/27/2021 12:45:00 PM 2.36 36.248 0.104 7.4 2.57 14.13
12/27/2021 1:00:00 PM 2.31 36.158 0.104 7.4 2.72 14.14
12/27/2021 1:15:00 PM 2.32 36.176 0.104 7.41 2.69 14.17
12/27/2021 1:30:00 PM 2.34 36.212 0.104 7.42 2.63 14.19
12/27/2021 1:45:00 PM 2.35 36.23 0.104 7.42 2.55 14.21
12/27/2021 2:00:00 PM 2.37 36.266 0.104 7.42 2.63 14.21
12/27/2021 2:15:00 PM 2.39 36.302 0.104 7.43 2.66 14.2
12/27/2021 2:30:00 PM 2.4 36.32 0.104 7.44 2.69 14.18
12/27/2021 2:45:00 PM 2.41 36.338 0.104 7.43 2.56 14.15
12/27/2021 3:00:00 PM 2.4 36.32 0.104 7.42 2.66 14.12
12/27/2021 3:15:00 PM 2.4 36.32 0.104 7.42 2.63 14.07
12/27/2021 3:30:00 PM 2.41 36.338 0.104 7.41 2.66 14.02
12/27/2021 3:45:00 PM 2.42 36.356 0.104 7.4 2.68 13.97
12/27/2021 4:00:00 PM 2.42 36.356 0.104 7.38 2.57 13.92
12/27/2021 4:15:00 PM 2.42 36.356 0.104 7.37 2.64 13.86
12/27/2021 4:30:00 PM 2.42 36.356 0.104 7.36 2.71 13.81
12/27/2021 4:45:00 PM 2.42 36.356 0.104 7.35 2.61 13.75
12/27/2021 5:00:00 PM 2.41 36.338 0.104 7.34 2.77 13.7
12/27/2021 5:15:00 PM 2.41 36.338 0.104 7.32 2.82 13.65
12/27/2021 5:30:00 PM 2.41 36.338 0.104 7.31 2.74 13.63
12/27/2021 5:45:00 PM 2.39 36.302 0.104 7.31 2.8 13.59
12/27/2021 6:00:00 PM 2.39 36.302 0.104 7.3 2.67 13.57
12/27/2021 6:15:00 PM 2.39 36.302 0.103 7.3 2.82 13.56
12/27/2021 6:30:00 PM 2.38 36.284 0.103 7.29 2.86 13.54
12/27/2021 6:45:00 PM 2.38 36.284 0.103 7.29 3 13.54
12/27/2021 7:00:00 PM 2.38 36.284 0.103 7.28 2.92 13.52
12/27/2021 7:15:00 PM 2.39 36.302 0.103 7.28 2.83 13.52
12/27/2021 7:30:00 PM 2.31 36.158 0.103 7.28 2.84 13.5
12/27/2021 7:45:00 PM 2.33 36.194 0.103 7.27 3.05 13.49
12/27/2021 8:00:00 PM 2.36 36.248 0.103 7.27 3.01 13.49
12/27/2021 8:15:00 PM 2.38 36.284 0.103 7.27 2.85 13.48
12/27/2021 8:30:00 PM 2.39 36.302 0.103 7.27 3.02 13.48
12/27/2021 8:45:00 PM 2.39 36.302 0.103 7.26 2.99 13.47
12/27/2021 9:00:00 PM 2.38 36.284 0.103 7.26 2.88 13.47
12/27/2021 9:15:00 PM 2.38 36.284 0.103 7.26 3.1 13.46
12/27/2021 9:30:00 PM 2.38 36.284 0.103 7.26 3.38 13.46
12/27/2021 9:45:00 PM 2.38 36.284 0.103 7.26 3.25 13.46
12/27/2021 10:00:00 PM 2.39 36.302 0.103 7.26 2.95 13.46
12/27/2021 10:15:00 PM 2.4 36.32 0.103 7.26 2.87 13.45
12/27/2021 10:30:00 PM 2.42 36.356 0.103 7.26 2.94 13.44
12/27/2021 10:45:00 PM 2.43 36.374 0.103 7.26 3.04 13.43
12/27/2021 11:00:00 PM 2.44 36.392 0.103 7.26 3.12 13.43
12/27/2021 11:15:00 PM 2.45 36.41 0.103 7.25 2.93 13.43
12/27/2021 11:30:00 PM 2.45 36.41 0.103 7.26 3.13 13.42
12/27/2021 11:45:00 PM 2.46 36.428 0.104 7.26 3.08 13.42
12/28/2021 12:00:00 AM 2.46 36.428 0.104 7.25 2.96 13.42
12/28/2021 12:15:00 AM 2.46 36.428 0.104 7.26 3.09 13.41
12/28/2021 12:30:00 AM 2.47 36.446 0.104 7.26 2.99 13.41
12/28/2021 12:45:00 AM 2.48 36.464 0.104 7.26 2.93 13.41
12/28/2021 1:00:00 AM 2.49 36.482 0.104 7.25 2.83 13.4
12/28/2021 1:15:00 AM 2.5 36.5 0.104 7.26 2.98 13.39
12/28/2021 1:30:00 AM 2.52 36.536 0.104 7.26 3.06 13.39
12/28/2021 1:45:00 AM 2.52 36.536 0.105 7.25 3.11 13.39
12/28/2021 2:00:00 AM 2.53 36.554 0.105 7.26 2.9 13.38
12/28/2021 2:15:00 AM 2.55 36.59 0.105 7.25 2.88 13.39
12/28/2021 2:30:00 AM 2.56 36.608 0.105 7.25 2.78 13.37
12/28/2021 2:45:00 AM 2.57 36.626 0.105 7.26 2.88 13.38
12/28/2021 3:00:00 AM 2.58 36.644 0.105 7.25 2.99 13.37
12/28/2021 3:15:00 AM 2.59 36.662 0.105 7.25 2.75 13.36
12/28/2021 3:30:00 AM 2.6 36.68 0.105 7.26 2.97 13.36
12/28/2021 3:45:00 AM 2.61 36.698 0.105 7.25 2.78 13.36
12/28/2021 4:00:00 AM 2.62 36.716 0.105 7.26 2.87 13.36
12/28/2021 4:15:00 AM 2.63 36.734 0.105 7.25 2.96 13.35
12/28/2021 4:30:00 AM 2.64 36.752 0.105 7.26 3.26 13.34
12/28/2021 4:45:00 AM 2.66 36.788 0.105 7.25 2.95 13.34
12/28/2021 5:00:00 AM 2.67 36.806 0.105 7.25 3.59 13.34
12/28/2021 5:15:00 AM 2.68 36.824 0.105 7.25 3.1 13.33
12/28/2021 5:30:00 AM 2.69 36.842 0.105 7.25 2.99 13.33
12/28/2021 5:45:00 AM 2.69 36.842 0.105 7.24 3.25 13.32
12/28/2021 6:00:00 AM 2.69 36.842 0.105 7.26 3.01 13.32
12/28/2021 6:15:00 AM 2.69 36.842 0.105 7.25 3.05 13.32
12/28/2021 6:30:00 AM 2.68 36.824 0.105 7.25 3.13 13.33
12/28/2021 6:45:00 AM 2.67 36.806 0.105 7.24 2.83 13.33
12/28/2021 7:00:00 AM 2.67 36.806 0.105 7.25 2.86 13.34
12/28/2021 7:15:00 AM 2.66 36.788 0.105 7.25 3.07 13.34
12/28/2021 7:30:00 AM 2.66 36.788 0.105 7.25 3.05 13.34
12/28/2021 7:45:00 AM 2.66 36.788 0.105 7.26 3 13.36
12/28/2021 8:00:00 AM 2.65 36.77 0.105 7.25 2.97 13.37
12/28/2021 8:15:00 AM 2.65 36.77 0.105 7.25 2.91 13.4
12/28/2021 8:30:00 AM 2.66 36.788 0.105 7.27 2.75 13.44
12/28/2021 8:45:00 AM 2.67 36.806 0.105 7.28 2.74 13.49
12/28/2021 9:00:00 AM 2.69 36.842 0.105 7.27 2.6 13.56
12/28/2021 9:15:00 AM 2.7 36.86 0.105 7.3 2.65 13.62
12/28/2021 9:30:00 AM 2.72 36.896 0.105 7.31 2.51 13.69
12/28/2021 9:45:00 AM 2.76 36.968 0.105 7.34 2.58 13.76
12/28/2021 10:00:00 AM 2.8 37.04 0.105 7.36 2.45 13.83
12/28/2021 10:15:00 AM 2.84 37.112 0.105 7.39 2.42 13.89
12/28/2021 10:30:00 AM 2.88 37.184 0.105 7.4 2.46 13.94
12/28/2021 10:45:00 AM 2.92 37.256 0.105 7.41 2.44 13.98
12/28/2021 11:00:00 AM 2.95 37.31 0.105 7.42 2.5 14.01
12/28/2021 11:15:00 AM 3 37.4 0.105 7.43 2.42 14.04
12/28/2021 11:30:00 AM 3.03 37.454 0.105 7.44 2.49 14.06
12/28/2021 11:45:00 AM 3.05 37.49 0.105 7.46 2.44 14.05
12/28/2021 12:00:00 PM 3.1 37.58 0.105 7.47 2.32 14.04
12/28/2021 12:15:00 PM 3.17 37.706 0.105 7.46 2.41 14.04
12/28/2021 12:30:00 PM 3.24 37.832 0.105 7.48 2.4 14.04
12/28/2021 12:45:00 PM 3.31 37.958 0.105 7.49 2.57 14.04
12/28/2021 1:00:00 PM 3.38 38.084 0.105 7.5 2.41 14.03
12/28/2021 1:15:00 PM 3.45 38.21 0.105 7.51 2.41 14.02
12/28/2021 1:30:00 PM 3.49 38.282 0.105 7.52 2.33 14
12/28/2021 1:45:00 PM 3.52 38.336 0.105 7.52 2.3 13.98
12/28/2021 2:00:00 PM 3.53 38.354 0.105 7.51 2.4 13.94
12/28/2021 2:15:00 PM 3.53 38.354 0.105 7.5 2.5 13.89
12/28/2021 2:30:00 PM 3.52 38.336 0.105 7.5 2.38 13.85
12/28/2021 2:45:00 PM 3.52 38.336 0.105 7.5 2.54 13.8
12/28/2021 3:00:00 PM 3.52 38.336 0.105 7.48 2.34 13.77
12/28/2021 3:15:00 PM 3.52 38.336 0.105 7.47 2.69 13.72
12/28/2021 3:30:00 PM 3.52 38.336 0.105 7.45 2.56 13.67
12/28/2021 3:45:00 PM 3.51 38.318 0.105 7.44 2.55 13.59
12/28/2021 4:00:00 PM 3.51 38.318 0.105 7.42 2.49 13.53
12/28/2021 4:15:00 PM 3.49 38.282 0.106 7.4 2.38 13.45
12/28/2021 4:30:00 PM 3.48 38.264 0.106 7.38 2.62 13.39
12/28/2021 4:45:00 PM 3.46 38.228 0.106 7.37 2.46 13.34
12/28/2021 5:00:00 PM 3.45 38.21 0.106 7.35 2.58 13.3
12/28/2021 5:15:00 PM 3.44 38.192 0.106 7.35 2.68 13.26
12/28/2021 5:30:00 PM 3.43 38.174 0.106 7.33 2.73 13.23
12/28/2021 5:45:00 PM 3.42 38.156 0.106 7.32 2.62 13.2
12/28/2021 6:00:00 PM 3.42 38.156 0.106 7.31 2.73 13.18
12/28/2021 6:15:00 PM 3.42 38.156 0.106 7.3 2.65 13.16
12/28/2021 6:30:00 PM 3.42 38.156 0.106 7.29 2.63 13.15
12/28/2021 6:45:00 PM 3.43 38.174 0.106 7.29 2.73 13.13
12/28/2021 7:00:00 PM 3.42 38.156 0.106 7.29 2.55 13.12
12/28/2021 7:15:00 PM 3.4 38.12 0.106 7.28 2.7 13.11
12/28/2021 7:30:00 PM 3.33 37.994 0.106 7.27 2.68 13.1
12/28/2021 7:45:00 PM 3.21 37.778 0.106 7.29 2.75 13.1
12/28/2021 8:00:00 PM 3.07 37.526 0.105 7.29 2.69 13.11
12/28/2021 8:15:00 PM 2.94 37.292 0.105 7.28 2.53 13.13
12/28/2021 8:30:00 PM 2.82 37.076 0.105 7.28 2.82 13.14
12/28/2021 8:45:00 PM 2.76 36.968 0.105 7.28 2.78 13.19
12/28/2021 9:00:00 PM 2.74 36.932 0.105 7.28 2.58 13.21
12/28/2021 9:15:00 PM 2.74 36.932 0.105 7.28 2.61 13.23
12/28/2021 9:30:00 PM 2.77 36.986 0.105 7.27 2.78 13.24
12/28/2021 9:45:00 PM 2.78 37.004 0.105 7.27 2.68 13.25
12/28/2021 10:00:00 PM 2.79 37.022 0.105 7.27 2.57 13.26
12/28/2021 10:15:00 PM 2.81 37.058 0.105 7.28 2.82 13.26
12/28/2021 10:30:00 PM 2.83 37.094 0.105 7.27 2.74 13.26
12/28/2021 10:45:00 PM 2.86 37.148 0.105 7.27 2.6 13.24
12/28/2021 11:00:00 PM 2.9 37.22 0.105 7.27 2.69 13.23
12/28/2021 11:15:00 PM 2.93 37.274 0.105 7.27 2.71 13.23
12/28/2021 11:30:00 PM 2.94 37.292 0.105 7.27 2.61 13.23
12/28/2021 11:45:00 PM 2.94 37.292 0.105 7.28 2.69 13.23
12/29/2021 12:00:00 AM 2.94 37.292 0.105 7.27 2.76 13.23
12/29/2021 12:15:00 AM 2.93 37.274 0.105 7.27 2.76 13.23
12/29/2021 12:30:00 AM 2.93 37.274 0.105 7.26 2.82 13.24
12/29/2021 12:45:00 AM 2.93 37.274 0.105 7.26 2.79 13.24
12/29/2021 1:00:00 AM 2.92 37.256 0.105 7.27 2.61 13.23
12/29/2021 1:15:00 AM 2.92 37.256 0.106 7.25 2.8 13.23
12/29/2021 1:30:00 AM 2.89 37.202 0.106 7.27 2.67 13.22
12/29/2021 1:45:00 AM 2.88 37.184 0.106 7.27 2.65 13.22
12/29/2021 2:00:00 AM 2.88 37.184 0.106 7.27 2.72 13.22
12/29/2021 2:15:00 AM 2.88 37.184 0.106 7.27 2.85 13.23
12/29/2021 2:30:00 AM 2.87 37.166 0.106 7.26 2.69 13.23
12/29/2021 2:45:00 AM 2.87 37.166 0.106 7.27 2.74 13.23
12/29/2021 3:00:00 AM 2.87 37.166 0.106 7.27 2.78 13.23
12/29/2021 3:15:00 AM 2.87 37.166 0.106 7.26 2.81 13.25
12/29/2021 3:30:00 AM 2.86 37.148 0.106 7.26 2.94 13.24
12/29/2021 3:45:00 AM 2.85 37.13 0.106 7.26 2.82 13.24
12/29/2021 4:00:00 AM 2.84 37.112 0.106 7.26 2.84 13.25
12/29/2021 4:15:00 AM 2.84 37.112 0.106 7.26 2.99 13.25
12/29/2021 4:30:00 AM 2.84 37.112 0.106 7.26 2.85 13.25
12/29/2021 4:45:00 AM 2.83 37.094 0.106 7.26 2.89 13.26
12/29/2021 5:00:00 AM 2.83 37.094 0.107 7.27 2.85 13.26
12/29/2021 5:15:00 AM 2.82 37.076 0.107 7.26 2.86 13.26
12/29/2021 5:30:00 AM 2.82 37.076 0.107 7.27 3.15 13.26
12/29/2021 5:45:00 AM 2.81 37.058 0.107 7.25 2.89 13.26
12/29/2021 6:00:00 AM 2.81 37.058 0.108 7.25 2.98 13.26
12/29/2021 6:15:00 AM 2.82 37.076 0.108 7.24 2.82 13.27
12/29/2021 6:30:00 AM 2.82 37.076 0.108 7.25 2.88 13.26
12/29/2021 6:45:00 AM 2.83 37.094 0.108 7.26 2.91 13.26
12/29/2021 7:00:00 AM 2.83 37.094 0.109 7.25 2.91 13.26
12/29/2021 7:15:00 AM 2.84 37.112 0.109 7.26 2.92 13.25
12/29/2021 7:30:00 AM 2.85 37.13 0.109 7.25 2.98 13.25
12/29/2021 7:45:00 AM 2.86 37.148 0.109 7.27 2.88 13.25
12/29/2021 8:00:00 AM 2.86 37.148 0.11 7.26 2.87 13.25
12/29/2021 8:15:00 AM 2.87 37.166 0.11 7.26 2.89 13.26
12/29/2021 8:30:00 AM 2.88 37.184 0.11 7.25 2.94 13.26
12/29/2021 8:45:00 AM 2.89 37.202 0.111 7.27 2.85 13.27
12/29/2021 9:00:00 AM 2.9 37.22 0.111 7.25 2.77 13.28
12/29/2021 9:15:00 AM 2.91 37.238 0.111 7.26 2.73 13.29
12/29/2021 9:30:00 AM 2.92 37.256 0.112 7.27 2.67 13.3
12/29/2021 9:45:00 AM 2.93 37.274 0.112 7.26 2.7 13.34
12/29/2021 10:00:00 AM 2.95 37.31 0.112 7.28 2.66 13.39
12/29/2021 10:15:00 AM 2.97 37.346 0.112 7.29 2.61 13.43
12/29/2021 10:30:00 AM 2.99 37.382 0.112 7.3 2.53 13.48
12/29/2021 10:45:00 AM 3.01 37.418 0.112 7.31 2.47 13.55
12/29/2021 11:00:00 AM 3.04 37.472 0.112 7.33 2.47 13.6
12/29/2021 11:15:00 AM 3.07 37.526 0.112 7.34 2.44 13.65
12/29/2021 11:30:00 AM 3.1 37.58 0.112 7.36 2.42 13.7
12/29/2021 11:45:00 AM 3.13 37.634 0.112 7.37 2.48 13.75
12/29/2021 12:00:00 PM 3.17 37.706 0.112 7.39 2.2 13.78
12/29/2021 12:15:00 PM 3.2 37.76 0.113 7.4 2.36 13.81
12/29/2021 12:30:00 PM 3.24 37.832 0.113 7.41 2.35 13.82
12/29/2021 12:45:00 PM 3.27 37.886 0.113 7.43 2.32 13.83
12/29/2021 1:00:00 PM 3.31 37.958 0.113 7.43 2.4 13.84
12/29/2021 1:15:00 PM 3.34 38.012 0.113 7.44 2.47 13.84
12/29/2021 1:30:00 PM 3.38 38.084 0.112 7.43 2.4 13.82
12/29/2021 1:45:00 PM 3.41 38.138 0.112 7.44 2.55 13.8
12/29/2021 2:00:00 PM 3.44 38.192 0.112 7.44 2.72 13.8
12/29/2021 2:15:00 PM 3.47 38.246 0.113 7.45 2.66 13.78
12/29/2021 2:30:00 PM 3.49 38.282 0.113 7.44 2.65 13.76
12/29/2021 2:45:00 PM 3.51 38.318 0.113 7.44 2.68 13.72
12/29/2021 3:00:00 PM 3.53 38.354 0.113 7.44 2.74 13.69
12/29/2021 3:15:00 PM 3.55 38.39 0.113 7.43 2.54 13.64
12/29/2021 3:30:00 PM 3.56 38.408 0.114 7.42 2.75 13.59
12/29/2021 3:45:00 PM 3.57 38.426 0.114 7.41 2.96 13.54
12/29/2021 4:00:00 PM 3.58 38.444 0.114 7.4 2.88 13.49
12/29/2021 4:15:00 PM 3.58 38.444 0.114 7.38 2.88 13.43
12/29/2021 4:30:00 PM 3.58 38.444 0.114 7.37 2.85 13.38
12/29/2021 4:45:00 PM 3.57 38.426 0.114 7.35 3.02 13.32
12/29/2021 5:00:00 PM 3.55 38.39 0.115 7.35 3.14 13.27
12/29/2021 5:15:00 PM 3.54 38.372 0.115 7.33 3.14 13.23
12/29/2021 5:30:00 PM 3.51 38.318 0.116 7.33 3.07 13.2
12/29/2021 5:45:00 PM 3.49 38.282 0.116 7.33 3.09 13.18
12/29/2021 6:00:00 PM 3.48 38.264 0.116 7.32 2.92 13.15
12/29/2021 6:15:00 PM 3.46 38.228 0.117 7.32 3.01 13.15
12/29/2021 6:30:00 PM 3.45 38.21 0.117 7.31 3.11 13.14
12/29/2021 6:45:00 PM 3.44 38.192 0.117 7.31 3.37 13.13
12/29/2021 7:00:00 PM 3.43 38.174 0.118 7.3 3.22 13.13
12/29/2021 7:15:00 PM 3.43 38.174 0.118 7.3 3.27 13.12
12/29/2021 7:30:00 PM 3.42 38.156 0.118 7.29 3.58 13.13
12/29/2021 7:45:00 PM 3.42 38.156 0.118 7.29 3.26 13.12
12/29/2021 8:00:00 PM 3.42 38.156 0.118 7.3 3.17 13.12
12/29/2021 8:15:00 PM 3.42 38.156 0.118 7.29 3.11 13.12
12/29/2021 8:30:00 PM 3.42 38.156 0.118 7.29 3.16 13.12
12/29/2021 8:45:00 PM 3.43 38.174 0.118 7.28 3.18 13.12
12/29/2021 9:00:00 PM 3.43 38.174 0.119 7.28 3.21 13.12
12/29/2021 9:15:00 PM 3.43 38.174 0.119 7.28 3.1 13.11
12/29/2021 9:30:00 PM 3.43 38.174 0.119 7.29 3.11 13.1
12/29/2021 9:45:00 PM 3.44 38.192 0.119 7.28 3.07 13.1
12/29/2021 10:00:00 PM 3.44 38.192 0.119 7.28 3.27 13.09
12/29/2021 10:15:00 PM 3.44 38.192 0.119 7.28 3.14 13.1
12/29/2021 10:30:00 PM 3.44 38.192 0.119 7.28 3.23 13.09
12/29/2021 10:45:00 PM 3.44 38.192 0.119 7.28 2.99 13.09
12/29/2021 11:00:00 PM 3.44 38.192 0.119 7.28 2.99 13.09
12/29/2021 11:15:00 PM 3.44 38.192 0.119 7.28 3.32 13.09
12/29/2021 11:30:00 PM 3.44 38.192 0.119 7.27 3.25 13.09
12/29/2021 11:45:00 PM 3.44 38.192 0.119 7.27 3.14 13.08
12/30/2021 12:00:00 AM 3.43 38.174 0.119 7.27 3.22 13.08
12/30/2021 12:15:00 AM 3.43 38.174 0.119 7.27 3.51 13.08
12/30/2021 12:30:00 AM 3.43 38.174 0.119 7.27 3.21 13.08
12/30/2021 12:45:00 AM 3.43 38.174 0.119 7.27 3.29 13.08
12/30/2021 1:00:00 AM 3.43 38.174 0.119 7.26 3.19 13.08
12/30/2021 1:15:00 AM 3.43 38.174 0.119 7.27 3.18 13.08
12/30/2021 1:30:00 AM 3.42 38.156 0.119 7.26 3.25 13.09
12/30/2021 1:45:00 AM 3.43 38.174 0.119 7.26 3.41 13.08
12/30/2021 2:00:00 AM 3.43 38.174 0.119 7.26 3.33 13.08
12/30/2021 2:15:00 AM 3.43 38.174 0.119 7.27 3.26 13.08
12/30/2021 2:30:00 AM 3.43 38.174 0.119 7.26 3.35 13.08
12/30/2021 2:45:00 AM 3.43 38.174 0.119 7.26 3.27 13.07
12/30/2021 3:00:00 AM 3.43 38.174 0.119 7.26 3.59 13.08
12/30/2021 3:15:00 AM 3.43 38.174 0.119 7.26 3.32 13.07
12/30/2021 3:30:00 AM 3.43 38.174 0.119 7.27 3.38 13.08
12/30/2021 3:45:00 AM 3.43 38.174 0.119 7.27 3.06 13.07
12/30/2021 4:00:00 AM 3.43 38.174 0.119 7.26 3.26 13.07
12/30/2021 4:15:00 AM 3.44 38.192 0.119 7.27 3.32 13.07
12/30/2021 4:30:00 AM 3.44 38.192 0.119 7.27 3.36 13.07
12/30/2021 4:45:00 AM 3.44 38.192 0.119 7.27 3.28 13.07
12/30/2021 5:00:00 AM 3.44 38.192 0.119 7.26 3.11 13.07
12/30/2021 5:15:00 AM 3.44 38.192 0.119 7.28 3.18 13.07
12/30/2021 5:30:00 AM 3.45 38.21 0.119 7.28 3.2 13.06
12/30/2021 5:45:00 AM 3.45 38.21 0.119 7.27 3.14 13.06
12/30/2021 6:00:00 AM 3.45 38.21 0.119 7.27 2.94 13.05
12/30/2021 6:15:00 AM 3.46 38.228 0.119 7.27 3.05 13.07
12/30/2021 6:30:00 AM 3.46 38.228 0.119 7.27 3.08 13.06
12/30/2021 6:45:00 AM 3.46 38.228 0.119 7.27 3.06 13.06
12/30/2021 7:00:00 AM 3.47 38.246 0.119 7.27 2.98 13.05
12/30/2021 7:15:00 AM 3.47 38.246 0.118 7.28 3.28 13.05
12/30/2021 7:30:00 AM 3.48 38.264 0.118 7.27 3.32 13.05
12/30/2021 7:45:00 AM 3.48 38.264 0.118 7.27 3.09 13.06
12/30/2021 8:00:00 AM 3.49 38.282 0.118 7.27 3.2 13.06
12/30/2021 8:15:00 AM 3.49 38.282 0.118 7.27 3.39 13.07
12/30/2021 8:30:00 AM 3.5 38.3 0.118 7.27 2.86 13.08
12/30/2021 8:45:00 AM 3.51 38.318 0.118 7.28 2.8 13.1
12/30/2021 9:00:00 AM 3.53 38.354 0.118 7.27 2.72 13.12
12/30/2021 9:15:00 AM 3.54 38.372 0.118 7.28 2.6 13.15
12/30/2021 9:30:00 AM 3.55 38.39 0.118 7.3 2.67 13.19
12/30/2021 9:45:00 AM 3.57 38.426 0.118 7.31 2.57 13.23
12/30/2021 10:00:00 AM 3.59 38.462 0.117 7.32 2.55 13.27
12/30/2021 10:15:00 AM 3.62 38.516 0.117 7.33 2.56 13.33
12/30/2021 10:30:00 AM 3.64 38.552 0.117 7.34 2.46 13.39
12/30/2021 10:45:00 AM 3.67 38.606 0.117 7.36 2.54 13.44
12/30/2021 11:00:00 AM 3.71 38.678 0.117 7.37 2.44 13.49
12/30/2021 11:15:00 AM 3.75 38.75 0.117 7.38 2.46 13.55
12/30/2021 11:30:00 AM 3.79 38.822 0.117 7.41 2.33 13.6
12/30/2021 11:45:00 AM 3.82 38.876 0.116 7.42 2.41 13.62
12/30/2021 12:00:00 PM 3.86 38.948 0.116 7.42 2.34 13.65
12/30/2021 12:15:00 PM 3.89 39.002 0.116 7.45 2.32 13.66
12/30/2021 12:30:00 PM 3.93 39.074 0.116 7.45 2.28 13.66
12/30/2021 12:45:00 PM 3.97 39.146 0.116 7.46 2.32 13.67
12/30/2021 1:00:00 PM 4.02 39.236 0.116 7.48 2.25 13.68
12/30/2021 1:15:00 PM 4.05 39.29 0.116 7.49 2.19 13.67
12/30/2021 1:30:00 PM 4.07 39.326 0.116 7.46 2.25 13.63
12/30/2021 1:45:00 PM 4.1 39.38 0.116 7.47 2.3 13.59
12/30/2021 2:00:00 PM 4.12 39.416 0.115 7.48 2.49 13.57
12/30/2021 2:15:00 PM 4.15 39.47 0.116 7.48 2.25 13.55
12/30/2021 2:30:00 PM 4.18 39.524 0.116 7.47 2.25 13.52
12/30/2021 2:45:00 PM 4.19 39.542 0.116 7.47 2.3 13.48
12/30/2021 3:00:00 PM 4.21 39.578 0.116 7.46 2.34 13.43
12/30/2021 3:15:00 PM 4.22 39.596 0.116 7.45 2.22 13.38
12/30/2021 3:30:00 PM 4.23 39.614 0.115 7.43 2.34 13.31
12/30/2021 3:45:00 PM 4.24 39.632 0.115 7.42 2.34 13.25
12/30/2021 4:00:00 PM 4.25 39.65 0.115 7.42 2.31 13.2
12/30/2021 4:15:00 PM 4.26 39.668 0.115 7.4 2.35 13.16
12/30/2021 4:30:00 PM 4.27 39.686 0.115 7.38 2.35 13.1
12/30/2021 4:45:00 PM 4.27 39.686 0.115 7.37 2.38 13.05
12/30/2021 5:00:00 PM 4.28 39.704 0.115 7.36 2.36 12.99
12/30/2021 5:15:00 PM 4.28 39.704 0.115 7.34 2.44 12.95
12/30/2021 5:30:00 PM 4.29 39.722 0.115 7.33 2.57 12.92
12/30/2021 5:45:00 PM 4.29 39.722 0.115 7.32 2.49 12.89
12/30/2021 6:00:00 PM 4.29 39.722 0.115 7.31 2.61 12.87
12/30/2021 6:15:00 PM 4.29 39.722 0.115 7.31 2.58 12.85
12/30/2021 6:30:00 PM 4.3 39.74 0.115 7.3 2.57 12.83
12/30/2021 6:45:00 PM 4.3 39.74 0.115 7.31 2.31 12.82
12/30/2021 7:00:00 PM 4.3 39.74 0.115 7.29 2.6 12.8
12/30/2021 7:15:00 PM 4.31 39.758 0.115 7.31 3.05 12.79
12/30/2021 7:30:00 PM 4.31 39.758 0.115 7.29 2.64 12.79
12/30/2021 7:45:00 PM 4.32 39.776 0.114 7.28 2.89 12.78
12/30/2021 8:00:00 PM 4.32 39.776 0.114 7.29 2.69 12.78
12/30/2021 8:15:00 PM 4.33 39.794 0.114 7.28 2.79 12.78
12/30/2021 8:30:00 PM 4.33 39.794 0.114 7.29 2.56 12.77
12/30/2021 8:45:00 PM 4.34 39.812 0.114 7.28 2.77 12.77
12/30/2021 9:00:00 PM 4.35 39.83 0.114 7.28 2.6 12.76
12/30/2021 9:15:00 PM 4.35 39.83 0.114 7.28 2.66 12.75
12/30/2021 9:30:00 PM 4.36 39.848 0.114 7.28 2.53 12.75
12/30/2021 9:45:00 PM 4.36 39.848 0.114 7.27 2.8 12.74
12/30/2021 10:00:00 PM 4.36 39.848 0.114 7.27 2.7 12.74
12/30/2021 10:15:00 PM 4.37 39.866 0.114 7.27 2.68 12.74
12/30/2021 10:30:00 PM 4.37 39.866 0.114 7.27 2.61 12.73
12/30/2021 10:45:00 PM 4.37 39.866 0.114 7.27 2.98 12.74
12/30/2021 11:00:00 PM 4.38 39.884 0.113 7.27 2.84 12.73
12/30/2021 11:15:00 PM 4.38 39.884 0.113 7.27 2.91 12.73
12/30/2021 11:30:00 PM 4.38 39.884 0.113 7.26 3.02 12.72
12/30/2021 11:45:00 PM 4.38 39.884 0.113 7.27 2.89 12.72
12/31/2021 12:00:00 AM 4.39 39.902 0.113 7.27 2.94 12.72
12/31/2021 12:15:00 AM 4.39 39.902 0.114 7.26 2.96 12.73
12/31/2021 12:30:00 AM 4.38 39.884 0.114 7.27 2.91 12.72
12/31/2021 12:45:00 AM 4.38 39.884 0.114 7.26 2.99 12.72
12/31/2021 1:00:00 AM 4.38 39.884 0.114 7.25 2.91 12.73
12/31/2021 1:15:00 AM 4.38 39.884 0.114 7.26 2.86 12.73
12/31/2021 1:30:00 AM 4.38 39.884 0.114 7.25 2.97 12.73
12/31/2021 1:45:00 AM 4.38 39.884 0.114 7.25 3 12.73
12/31/2021 2:00:00 AM 4.38 39.884 0.114 7.26 2.95 12.72
12/31/2021 2:15:00 AM 4.38 39.884 0.114 7.26 2.87 12.73
12/31/2021 2:30:00 AM 4.38 39.884 0.114 7.23 2.82 12.72
12/31/2021 2:45:00 AM 4.38 39.884 0.114 7.26 2.84 12.73
12/31/2021 3:00:00 AM 4.38 39.884 0.114 7.26 2.95 12.72
12/31/2021 3:15:00 AM 4.37 39.866 0.114 7.26 2.89 12.73
12/31/2021 3:30:00 AM 4.37 39.866 0.113 7.24 2.97 12.73
12/31/2021 3:45:00 AM 4.37 39.866 0.114 7.26 2.9 12.72
12/31/2021 4:00:00 AM 4.37 39.866 0.114 7.26 2.94 12.72
12/31/2021 4:15:00 AM 4.37 39.866 0.114 7.24 2.82 12.72
12/31/2021 4:30:00 AM 4.37 39.866 0.114 7.25 2.88 12.72
12/31/2021 4:45:00 AM 4.37 39.866 0.114 7.26 2.8 12.72
12/31/2021 5:00:00 AM 4.37 39.866 0.114 7.27 2.85 12.72
12/31/2021 5:15:00 AM 4.37 39.866 0.113 7.26 2.85 12.72
12/31/2021 5:30:00 AM 4.37 39.866 0.114 7.26 2.86 12.72
12/31/2021 5:45:00 AM 4.37 39.866 0.114 7.25 2.94 12.71
12/31/2021 6:00:00 AM 4.37 39.866 0.113 7.26 3.08 12.71
12/31/2021 6:15:00 AM 4.37 39.866 0.113 7.26 2.94 12.71
12/31/2021 6:30:00 AM 4.37 39.866 0.113 7.26 2.92 12.71
12/31/2021 6:45:00 AM 4.37 39.866 0.113 7.25 2.91 12.72
12/31/2021 7:00:00 AM 4.37 39.866 0.113 7.25 2.9 12.71
12/31/2021 7:15:00 AM 4.37 39.866 0.113 7.26 2.85 12.71
12/31/2021 7:30:00 AM 4.37 39.866 0.113 7.25 2.91 12.71
12/31/2021 7:45:00 AM 4.37 39.866 0.113 7.27 2.79 12.71
12/31/2021 8:00:00 AM 4.38 39.884 0.113 7.26 2.82 12.72
12/31/2021 8:15:00 AM 4.38 39.884 0.113 7.27 2.89 12.73
12/31/2021 8:30:00 AM 4.39 39.902 0.113 7.27 2.65 12.75
12/31/2021 8:45:00 AM 4.4 39.92 0.113 7.27 2.64 12.78
12/31/2021 9:00:00 AM 4.41 39.938 0.114 7.27 2.59 12.81
12/31/2021 9:15:00 AM 4.42 39.956 0.114 7.28 2.5 12.84
12/31/2021 9:30:00 AM 4.44 39.992 0.114 7.3 2.51 12.89
12/31/2021 9:45:00 AM 4.46 40.028 0.114 7.31 2.53 12.95
12/31/2021 10:00:00 AM 4.49 40.082 0.113 7.32 2.5 13.01
12/31/2021 10:15:00 AM 4.52 40.136 0.113 7.33 2.58 13.07
12/31/2021 10:30:00 AM 4.55 40.19 0.113 7.35 2.41 13.14
12/31/2021 10:45:00 AM 4.59 40.262 0.113 7.37 2.51 13.2
12/31/2021 11:00:00 AM 4.63 40.334 0.113 7.37 2.33 13.25
12/31/2021 11:15:00 AM 4.67 40.406 0.113 7.41 2.31 13.3
12/31/2021 11:30:00 AM 4.74 40.532 0.113 7.43 2.26 13.36
12/31/2021 11:45:00 AM 4.8 40.64 0.113 7.44 2.27 13.41
12/31/2021 12:00:00 PM 4.87 40.766 0.113 7.48 2.2 13.46
12/31/2021 12:15:00 PM 4.95 40.91 0.113 7.49 2.18 13.49
12/31/2021 12:30:00 PM 5.05 41.09 0.113 7.51 2.26 13.53
12/31/2021 12:45:00 PM 5.13 41.234 0.113 7.54 2.19 13.53
12/31/2021 1:00:00 PM 5.29 41.522 0.113 7.55 2.23 13.53
12/31/2021 1:15:00 PM 5.33 41.594 0.113 7.57 2.26 13.52
12/31/2021 1:30:00 PM 5.37 41.666 0.113 7.59 2.17 13.48
12/31/2021 1:45:00 PM 5.39 41.702 0.113 7.58 2.11 13.44
12/31/2021 2:00:00 PM 5.39 41.702 0.113 7.57 2.18 13.39
12/31/2021 2:15:00 PM 5.43 41.774 0.113 7.58 2.13 13.37
12/31/2021 2:30:00 PM 5.46 41.828 0.113 7.57 2.19 13.37
12/31/2021 2:45:00 PM 5.46 41.828 0.113 7.58 2.1 13.33
12/31/2021 3:00:00 PM 5.47 41.846 0.113 7.58 2.17 13.28
12/31/2021 3:15:00 PM 5.44 41.792 0.113 7.56 2.23 13.2
12/31/2021 3:30:00 PM 5.4 41.72 0.114 7.53 2.2 13.12
12/31/2021 3:45:00 PM 5.37 41.666 0.114 7.52 2.23 13.06
12/31/2021 4:00:00 PM 5.34 41.612 0.114 7.49 2.25 13
12/31/2021 4:15:00 PM 5.31 41.558 0.114 7.47 2.05 12.94
12/31/2021 4:30:00 PM 5.29 41.522 0.114 7.45 2.13 12.88
12/31/2021 4:45:00 PM 5.27 41.486 0.114 7.44 2.01 12.81
12/31/2021 5:00:00 PM 5.24 41.432 0.114 7.42 2.31 12.75
12/31/2021 5:15:00 PM 5.21 41.378 0.114 7.38 2.34 12.69
12/31/2021 5:30:00 PM 5.18 41.324 0.114 7.38 2.21 12.65
12/31/2021 5:45:00 PM 5.16 41.288 0.114 7.36 2.34 12.6
12/31/2021 6:00:00 PM 5.13 41.234 0.114 7.35 2.24 12.58
12/31/2021 6:15:00 PM 5.1 41.18 0.114 7.35 2.41 12.56
12/31/2021 6:30:00 PM 5.08 41.144 0.114 7.34 2.44 12.55
12/31/2021 6:45:00 PM 5.05 41.09 0.114 7.33 2.35 12.53
12/31/2021 7:00:00 PM 5.03 41.054 0.114 7.32 2.55 12.53
12/31/2021 7:15:00 PM 5.01 41.018 0.114 7.31 2.48 12.52
12/31/2021 7:30:00 PM 5 41 0.115 7.31 2.51 12.52
12/31/2021 7:45:00 PM 4.99 40.982 0.115 7.31 2.51 12.51
12/31/2021 8:00:00 PM 4.97 40.946 0.115 7.31 2.63 12.5
12/31/2021 8:15:00 PM 4.96 40.928 0.115 7.31 2.7 12.5
12/31/2021 8:30:00 PM 4.94 40.892 0.115 7.31 2.81 12.5
12/31/2021 8:45:00 PM 4.91 40.838 0.115 7.3 2.67 12.5
12/31/2021 9:00:00 PM 4.89 40.802 0.115 7.3 2.8 12.5
12/31/2021 9:15:00 PM 4.87 40.766 0.115 7.3 2.68 12.49
12/31/2021 9:30:00 PM 4.84 40.712 0.115 7.3 2.62 12.5
12/31/2021 9:45:00 PM 4.82 40.676 0.115 7.29 2.77 12.5
12/31/2021 10:00:00 PM 4.8 40.64 0.115 7.3 2.51 12.51
12/31/2021 10:15:00 PM 4.77 40.586 0.115 7.29 2.59 12.52
12/31/2021 10:30:00 PM 4.76 40.568 0.115 7.3 2.45 12.52
12/31/2021 10:45:00 PM 4.75 40.55 0.115 7.3 2.5 12.53
12/31/2021 11:00:00 PM 4.74 40.532 0.115 7.3 2.43 12.53
12/31/2021 11:15:00 PM 4.74 40.532 0.115 7.29 2.59 12.54
12/31/2021 11:30:00 PM 4.74 40.532 0.115 7.29 2.57 12.54
12/31/2021 11:45:00 PM 4.74 40.532 0.115 7.29 2.61 12.54
1/1/2022 12:00:00 AM 4.74 40.532 0.115 7.29 2.44 12.53
1/1/2022 12:15:00 AM 4.75 40.55 0.115 7.29 2.53 12.53
1/1/2022 12:30:00 AM 4.75 40.55 0.115 7.3 2.52 12.53
1/1/2022 12:45:00 AM 4.75 40.55 0.115 7.29 2.56 12.53
1/1/2022 1:00:00 AM 4.75 40.55 0.115 7.29 2.51 12.52
1/1/2022 1:15:00 AM 4.76 40.568 0.115 7.29 2.47 12.52
1/1/2022 1:30:00 AM 4.76 40.568 0.115 7.27 2.63 12.52
1/1/2022 1:45:00 AM 4.76 40.568 0.115 7.29 2.52 12.52
1/1/2022 2:00:00 AM 4.77 40.586 0.115 7.29 2.47 12.52
1/1/2022 2:15:00 AM 4.77 40.586 0.115 7.29 2.54 12.52
1/1/2022 2:30:00 AM 4.77 40.586 0.115 7.28 2.54 12.52
1/1/2022 2:45:00 AM 4.78 40.604 0.115 7.28 2.4 12.51
1/1/2022 3:00:00 AM 4.78 40.604 0.115 7.29 2.52 12.51
1/1/2022 3:15:00 AM 4.78 40.604 0.115 7.29 2.48 12.51
1/1/2022 3:30:00 AM 4.79 40.622 0.115 7.28 2.59 12.51
1/1/2022 3:45:00 AM 4.79 40.622 0.115 7.29 2.63 12.5
1/1/2022 4:00:00 AM 4.8 40.64 0.115 7.27 2.64 12.5
1/1/2022 4:15:00 AM 4.81 40.658 0.115 7.28 2.65 12.5
1/1/2022 4:30:00 AM 4.82 40.676 0.115 7.27 2.67 12.49
1/1/2022 4:45:00 AM 4.83 40.694 0.115 7.28 2.62 12.48
1/1/2022 5:00:00 AM 4.84 40.712 0.115 7.27 2.76 12.49
1/1/2022 5:15:00 AM 4.85 40.73 0.115 7.28 2.75 12.48
1/1/2022 5:30:00 AM 4.85 40.73 0.115 7.27 2.7 12.48
1/1/2022 5:45:00 AM 4.86 40.748 0.115 7.27 2.71 12.47
1/1/2022 6:00:00 AM 4.87 40.766 0.115 7.27 2.64 12.47
1/1/2022 6:15:00 AM 4.88 40.784 0.115 7.27 2.54 12.46
1/1/2022 6:30:00 AM 4.89 40.802 0.115 7.26 2.78 12.46
1/1/2022 6:45:00 AM 4.91 40.838 0.115 7.26 2.66 12.45
1/1/2022 7:00:00 AM 4.92 40.856 0.115 7.26 2.73 12.45
1/1/2022 7:15:00 AM 4.93 40.874 0.115 7.27 2.83 12.45
1/1/2022 7:30:00 AM 4.94 40.892 0.115 7.27 2.72 12.45
1/1/2022 7:45:00 AM 4.95 40.91 0.115 7.28 2.76 12.44
1/1/2022 8:00:00 AM 4.97 40.946 0.115 7.28 2.69 12.45
1/1/2022 8:15:00 AM 4.98 40.964 0.115 7.26 2.85 12.44
1/1/2022 8:30:00 AM 5 41 0.115 7.28 2.83 12.45
1/1/2022 8:45:00 AM 5.02 41.036 0.115 7.26 2.73 12.46
1/1/2022 9:00:00 AM 5.04 41.072 0.116 7.28 2.81 12.48
1/1/2022 9:15:00 AM 5.06 41.108 0.116 7.28 2.65 12.49
1/1/2022 9:30:00 AM 5.08 41.144 0.116 7.29 2.42 12.51
1/1/2022 9:45:00 AM 5.1 41.18 0.116 7.3 2.27 12.54
1/1/2022 10:00:00 AM 5.13 41.234 0.116 7.3 2.25 12.56
1/1/2022 10:15:00 AM 5.16 41.288 0.116 7.31 2.32 12.62
1/1/2022 10:30:00 AM 5.2 41.36 0.116 7.34 2.28 12.7
1/1/2022 10:45:00 AM 5.25 41.45 0.115 7.35 2.1 12.78
1/1/2022 11:00:00 AM 5.29 41.522 0.115 7.37 2.26 12.86
1/1/2022 11:15:00 AM 5.33 41.594 0.115 7.4 2.2 12.92
1/1/2022 11:30:00 AM 5.38 41.684 0.115 7.42 2.1 12.97
1/1/2022 11:45:00 AM 5.42 41.756 0.115 7.44 2.09 12.99
1/1/2022 12:00:00 PM 5.46 41.828 0.115 7.45 2.1 12.98
1/1/2022 12:15:00 PM 5.5 41.9 0.115 7.45 2.08 12.96
1/1/2022 12:30:00 PM 5.54 41.972 0.115 7.46 2.04 12.96
1/1/2022 12:45:00 PM 5.58 42.044 0.115 7.46 2.13 12.94
1/1/2022 1:00:00 PM 5.61 42.098 0.115 7.46 2.16 12.9
1/1/2022 1:15:00 PM 5.65 42.17 0.115 7.46 2.11 12.87
1/1/2022 1:30:00 PM 5.67 42.206 0.115 7.45 2.08 12.83
1/1/2022 1:45:00 PM 5.7 42.26 0.115 7.45 2.12 12.79
1/1/2022 2:00:00 PM 5.72 42.296 0.115 7.45 2.37 12.77
1/1/2022 2:15:00 PM 5.75 42.35 0.115 7.45 2.1 12.74
1/1/2022 2:30:00 PM 5.77 42.386 0.115 7.44 2.14 12.71
1/1/2022 2:45:00 PM 5.79 42.422 0.115 7.43 2.09 12.68
1/1/2022 3:00:00 PM 5.81 42.458 0.115 7.43 2.11 12.67
1/1/2022 3:15:00 PM 5.84 42.512 0.115 7.43 2.15 12.66
1/1/2022 3:30:00 PM 5.85 42.53 0.114 7.43 2.16 12.66
1/1/2022 3:45:00 PM 5.87 42.566 0.114 7.43 2.06 12.64
1/1/2022 4:00:00 PM 5.89 42.602 0.114 7.43 2.17 12.62
1/1/2022 4:15:00 PM 5.9 42.62 0.114 7.42 2.16 12.56
1/1/2022 4:30:00 PM 5.91 42.638 0.114 7.4 2.22 12.5
1/1/2022 4:45:00 PM 5.92 42.656 0.114 7.39 2.26 12.43
1/1/2022 5:00:00 PM 5.92 42.656 0.114 7.37 2.26 12.37
1/1/2022 5:15:00 PM 5.93 42.674 0.114 7.35 2.27 12.32
1/1/2022 5:30:00 PM 5.94 42.692 0.114 7.34 2.3 12.27
1/1/2022 5:45:00 PM 5.94 42.692 0.114 7.33 2.41 12.23
1/1/2022 6:00:00 PM 5.95 42.71 0.114 7.32 2.54 12.2
1/1/2022 6:15:00 PM 5.96 42.728 0.114 7.31 2.65 12.17
1/1/2022 6:30:00 PM 5.96 42.728 0.114 7.3 2.68 12.15
1/1/2022 6:45:00 PM 5.97 42.746 0.114 7.29 2.61 12.13
1/1/2022 7:00:00 PM 5.98 42.764 0.114 7.29 2.61 12.1
1/1/2022 7:15:00 PM 5.99 42.782 0.114 7.29 2.66 12.09
1/1/2022 7:30:00 PM 6.01 42.818 0.114 7.28 2.69 12.09
1/1/2022 7:45:00 PM 6.02 42.836 0.114 7.29 2.93 12.07
1/1/2022 8:00:00 PM 6.03 42.854 0.114 7.3 2.82 12.06
1/1/2022 8:15:00 PM 6.04 42.872 0.114 7.29 3.15 12.06
1/1/2022 8:30:00 PM 6.04 42.872 0.114 7.3 3.16 12.05
1/1/2022 8:45:00 PM 6.05 42.89 0.114 7.3 3.03 12.05
1/1/2022 9:00:00 PM 6.05 42.89 0.114 7.3 2.88 12.04
1/1/2022 9:15:00 PM 6.04 42.872 0.114 7.31 3.13 12.04
1/1/2022 9:30:00 PM 6.04 42.872 0.114 7.3 2.93 12.04
1/1/2022 9:45:00 PM 6.04 42.872 0.114 7.31 2.67 12.03
1/1/2022 10:00:00 PM 6.03 42.854 0.114 7.31 2.65 12.03
1/1/2022 10:15:00 PM 6.02 42.836 0.114 7.3 2.69 12.03
1/1/2022 10:30:00 PM 6 42.8 0.114 7.31 2.52 12.03
1/1/2022 10:45:00 PM 5.99 42.782 0.114 7.3 2.67 12.03
1/1/2022 11:00:00 PM 5.98 42.764 0.114 7.3 2.73 12.04
1/1/2022 11:15:00 PM 5.97 42.746 0.114 7.29 2.88 12.03
1/1/2022 11:30:00 PM 5.96 42.728 0.114 7.3 2.86 12.04
1/1/2022 11:45:00 PM 5.94 42.692 0.114 7.3 2.99 12.04
1/2/2022 12:00:00 AM 5.93 42.674 0.114 7.3 2.75 12.05
1/2/2022 12:15:00 AM 5.91 42.638 0.114 7.3 3.07 12.06
1/2/2022 12:30:00 AM 5.89 42.602 0.114 7.3 3.24 12.06
1/2/2022 12:45:00 AM 5.87 42.566 0.114 7.3 3.31 12.06
1/2/2022 1:00:00 AM 5.85 42.53 0.114 7.29 3.16 12.07
1/2/2022 1:15:00 AM 5.83 42.494 0.114 7.29 3.27 12.08
1/2/2022 1:30:00 AM 5.8 42.44 0.114 7.3 3.14 12.08
1/2/2022 1:45:00 AM 5.78 42.404 0.114 7.28 3.09 12.09
1/2/2022 2:00:00 AM 5.75 42.35 0.114 7.3 3.07 12.1
1/2/2022 2:15:00 AM 5.73 42.314 0.114 7.27 3.16 12.11
1/2/2022 2:30:00 AM 5.7 42.26 0.115 7.29 3.17 12.11
1/2/2022 2:45:00 AM 5.67 42.206 0.115 7.28 3.15 12.13
1/2/2022 3:00:00 AM 5.64 42.152 0.115 7.3 3.08 12.13
1/2/2022 3:15:00 AM 5.62 42.116 0.116 7.3 3.41 12.14
1/2/2022 3:30:00 AM 5.58 42.044 0.116 7.29 3.5 12.15
1/2/2022 3:45:00 AM 5.55 41.99 0.116 7.29 3.58 12.17
1/2/2022 4:00:00 AM 5.51 41.918 0.116 7.28 3.25 12.17
1/2/2022 4:15:00 AM 5.48 41.864 0.116 7.28 3.26 12.18
1/2/2022 4:30:00 AM 5.44 41.792 0.116 7.28 3.2 12.2
1/2/2022 4:45:00 AM 5.4 41.72 0.116 7.29 3.29 12.2
1/2/2022 5:00:00 AM 5.37 41.666 0.116 7.29 3.52 12.22
1/2/2022 5:15:00 AM 5.33 41.594 0.116 7.28 3.5 12.23
1/2/2022 5:30:00 AM 5.29 41.522 0.116 7.28 3.49 12.25
1/2/2022 5:45:00 AM 5.26 41.468 0.115 7.28 3.29 12.26
1/2/2022 6:00:00 AM 5.22 41.396 0.115 7.28 3.34 12.27
1/2/2022 6:15:00 AM 5.18 41.324 0.115 7.28 3.34 12.3
1/2/2022 6:30:00 AM 5.14 41.252 0.115 7.29 3.41 12.29
1/2/2022 6:45:00 AM 5.11 41.198 0.115 7.29 3.44 12.32
1/2/2022 7:00:00 AM 5.07 41.126 0.115 7.28 3.38 12.33
1/2/2022 7:15:00 AM 5.03 41.054 0.115 7.28 3.5 12.33
1/2/2022 7:30:00 AM 4.99 40.982 0.115 7.28 3.25 12.36
1/2/2022 7:45:00 AM 4.95 40.91 0.115 7.28 3.21 12.36
1/2/2022 8:00:00 AM 4.91 40.838 0.115 7.29 3.1 12.39
1/2/2022 8:15:00 AM 4.87 40.766 0.114 7.28 3.02 12.41
1/2/2022 8:30:00 AM 4.83 40.694 0.114 7.29 3.01 12.43
1/2/2022 8:45:00 AM 4.78 40.604 0.114 7.27 3.13 12.47
1/2/2022 9:00:00 AM 4.74 40.532 0.114 7.29 3.01 12.49
1/2/2022 9:15:00 AM 4.7 40.46 0.114 7.3 2.91 12.53
1/2/2022 9:30:00 AM 4.66 40.388 0.114 7.3 2.86 12.58
1/2/2022 9:45:00 AM 4.61 40.298 0.113 7.3 3.01 12.64
1/2/2022 10:00:00 AM 4.57 40.226 0.113 7.31 2.92 12.7
1/2/2022 10:15:00 AM 4.53 40.154 0.113 7.33 2.86 12.77
1/2/2022 10:30:00 AM 4.49 40.082 0.113 7.32 2.82 12.83
1/2/2022 10:45:00 AM 4.45 40.01 0.113 7.35 2.8 12.9
1/2/2022 11:00:00 AM 4.42 39.956 0.113 7.37 2.8 12.97
1/2/2022 11:15:00 AM 4.38 39.884 0.113 7.38 2.86 13.05
1/2/2022 11:30:00 AM 4.35 39.83 0.112 7.4 2.71 13.1
1/2/2022 11:45:00 AM 4.32 39.776 0.112 7.41 2.76 13.17
1/2/2022 12:00:00 PM 4.28 39.704 0.112 7.41 2.78 13.23
1/2/2022 12:15:00 PM 4.25 39.65 0.112 7.44 2.78 13.27
1/2/2022 12:30:00 PM 4.2 39.56 0.112 7.44 2.94 13.3
1/2/2022 12:45:00 PM 4.17 39.506 0.112 7.45 2.77 13.34
1/2/2022 1:00:00 PM 4.14 39.452 0.112 7.47 2.78 13.38
1/2/2022 1:15:00 PM 4.1 39.38 0.112 7.47 2.81 13.41
1/2/2022 1:30:00 PM 4.07 39.326 0.112 7.48 2.74 13.44
1/2/2022 1:45:00 PM 4.04 39.272 0.112 7.49 2.74 13.46
1/2/2022 2:00:00 PM 4 39.2 0.112 7.49 2.8 13.47
1/2/2022 2:15:00 PM 3.96 39.128 0.112 7.5 2.79 13.47
1/2/2022 2:30:00 PM 3.92 39.056 0.113 7.48 2.75 13.48
1/2/2022 2:45:00 PM 3.87 38.966 0.113 7.49 2.74 13.47
1/2/2022 3:00:00 PM 3.81 38.858 0.113 7.48 2.8 13.45
1/2/2022 3:15:00 PM 3.76 38.768 0.113 7.47 3 13.42
1/2/2022 3:30:00 PM 3.7 38.66 0.113 7.45 2.98 13.39
1/2/2022 3:45:00 PM 3.64 38.552 0.113 7.43 2.87 13.36
1/2/2022 4:00:00 PM 3.59 38.462 0.113 7.42 2.91 13.33
1/2/2022 4:15:00 PM 3.54 38.372 0.113 7.39 2.97 13.3
1/2/2022 4:30:00 PM 3.5 38.3 0.113 7.38 2.94 13.28
1/2/2022 4:45:00 PM 3.45 38.21 0.114 7.37 3.07 13.26
1/2/2022 5:00:00 PM 3.4 38.12 0.114 7.37 2.94 13.24
1/2/2022 5:15:00 PM 3.35 38.03 0.114 7.36 2.76 13.23
1/2/2022 5:30:00 PM 3.3 37.94 0.114 7.34 3.13 13.21
1/2/2022 5:45:00 PM 3.26 37.868 0.114 7.32 2.95 13.21
1/2/2022 6:00:00 PM 3.21 37.778 0.114 7.33 2.98 13.21
1/2/2022 6:15:00 PM 3.16 37.688 0.114 7.32 2.86 13.22
1/2/2022 6:30:00 PM 3.12 37.616 0.114 7.31 2.89 13.23
1/2/2022 6:45:00 PM 3.08 37.544 0.114 7.31 3 13.23
1/2/2022 7:00:00 PM 3.05 37.49 0.114 7.31 3.05 13.24
1/2/2022 7:15:00 PM 3.02 37.436 0.114 7.31 2.89 13.25
1/2/2022 7:30:00 PM 2.99 37.382 0.114 7.31 2.96 13.26
1/2/2022 7:45:00 PM 2.96 37.328 0.114 7.3 2.89 13.27
1/2/2022 8:00:00 PM 2.93 37.274 0.114 7.3 2.97 13.28
1/2/2022 8:15:00 PM 2.9 37.22 0.114 7.29 2.99 13.29
1/2/2022 8:30:00 PM 2.88 37.184 0.114 7.3 2.97 13.3
1/2/2022 8:45:00 PM 2.84 37.112 0.114 7.3 3.12 13.3
1/2/2022 9:00:00 PM 2.81 37.058 0.114 7.3 3.05 13.32
1/2/2022 9:15:00 PM 2.78 37.004 0.114 7.31 2.89 13.33
1/2/2022 9:30:00 PM 2.74 36.932 0.114 7.3 3.1 13.34
1/2/2022 9:45:00 PM 2.71 36.878 0.114 7.3 3.6 13.36
1/2/2022 10:00:00 PM 2.68 36.824 0.114 7.3 3.04 13.38
1/2/2022 10:15:00 PM 2.64 36.752 0.114 7.29 3.35 13.39
1/2/2022 10:30:00 PM 2.61 36.698 0.114 7.3 2.82 13.41
1/2/2022 10:45:00 PM 2.58 36.644 0.114 7.3 2.72 13.42
1/2/2022 11:00:00 PM 2.55 36.59 0.114 7.3 2.86 13.43
1/2/2022 11:15:00 PM 2.51 36.518 0.114 7.3 2.94 13.45
1/2/2022 11:30:00 PM 2.47 36.446 0.114 7.3 3 13.46
1/2/2022 11:45:00 PM 2.43 36.374 0.114 7.3 2.81 13.48
1/3/2022 12:00:00 AM 2.38 36.284 0.115 7.3 2.76 13.5
1/3/2022 12:15:00 AM 2.33 36.194 0.115 7.3 2.81 13.51
1/3/2022 12:30:00 AM 2.28 36.104 0.115 7.3 3.06 13.52
1/3/2022 12:45:00 AM 2.22 35.996 0.115 7.28 2.77 13.54
1/3/2022 1:00:00 AM 2.18 35.924 0.115 7.29 2.93 13.56
1/3/2022 1:15:00 AM 2.13 35.834 0.115 7.31 2.89 13.58
1/3/2022 1:30:00 AM 2.09 35.762 0.115 7.28 3.82 13.6
1/3/2022 1:45:00 AM 2.05 35.69 0.115 7.25 2.9 13.62
1/3/2022 2:00:00 AM 2.01 35.618 0.115 7.25 2.88 13.64
1/3/2022 2:15:00 AM 1.96 35.528 0.115 7.24 2.83 13.66
1/3/2022 2:30:00 AM 1.94 35.492 0.115 7.23 2.92 13.68
1/3/2022 2:45:00 AM 1.91 35.438 0.115 7.24 2.9 13.69
1/3/2022 3:00:00 AM 1.89 35.402 0.115 7.25 3.15 13.71
1/3/2022 3:15:00 AM 1.86 35.348 0.115 7.25 3.09 13.72
1/3/2022 3:30:00 AM 1.83 35.294 0.115 7.25 3.01 13.74
1/3/2022 3:45:00 AM 1.81 35.258 0.115 7.25 2.98 13.75
1/3/2022 4:00:00 AM 1.78 35.204 0.115 7.26 2.98 13.76
1/3/2022 4:15:00 AM 1.75 35.15 0.115 7.26 2.92 13.77
1/3/2022 4:30:00 AM 1.72 35.096 0.115 7.27 2.76 13.79
1/3/2022 4:45:00 AM 1.68 35.024 0.115 7.27 2.63 13.8
1/3/2022 5:00:00 AM 1.64 34.952 0.115 7.27 2.55 13.81
1/3/2022 5:15:00 AM 1.6 34.88 0.116 7.28 2.56 13.83
1/3/2022 5:30:00 AM 1.57 34.826 0.116 7.27 2.64 13.84
1/3/2022 5:45:00 AM 1.53 34.754 0.116 7.27 2.49 13.85
1/3/2022 6:00:00 AM 1.5 34.7 0.116 7.27 2.59 13.87
1/3/2022 6:15:00 AM 1.46 34.628 0.116 7.28 2.64 13.87
1/3/2022 6:30:00 AM 1.42 34.556 0.116 7.28 2.7 13.9
1/3/2022 6:45:00 AM 1.39 34.502 0.116 7.27 2.62 13.92
1/3/2022 7:00:00 AM 1.36 34.448 0.116 7.29 2.61 13.93
1/3/2022 7:15:00 AM 1.34 34.412 0.116 7.29 2.62 13.94
1/3/2022 7:30:00 AM 1.31 34.358 0.116 7.29 2.56 13.96
1/3/2022 7:45:00 AM 1.28 34.304 0.116 7.28 2.55 13.98
1/3/2022 8:00:00 AM 1.25 34.25 0.116 7.28 2.35 13.99
1/3/2022 8:15:00 AM 1.23 34.214 0.116 7.28 2.43 14.01
1/3/2022 8:30:00 AM 1.21 34.178 0.116 7.28 2.43 14.05
1/3/2022 8:45:00 AM 1.2 34.16 0.116 7.28 2.4 14.09
1/3/2022 9:00:00 AM 1.19 34.142 0.116 7.3 2.33 14.14
1/3/2022 9:15:00 AM 1.19 34.142 0.116 7.31 2.28 14.21
1/3/2022 9:30:00 AM 1.18 34.124 0.116 7.33 2.26 14.29
1/3/2022 9:45:00 AM 1.17 34.106 0.116 7.35 2.22 14.39
1/3/2022 10:00:00 AM 1.18 34.124 0.116 7.37 2.2 14.47
1/3/2022 10:15:00 AM 1.18 34.124 0.116 7.4 2.24 14.56
1/3/2022 10:30:00 AM 1.19 34.142 0.116 7.42 2.11 14.63
1/3/2022 10:45:00 AM 1.2 34.16 0.116 7.44 2.16 14.7
1/3/2022 11:00:00 AM 1.22 34.196 0.116 7.46 2.14 14.75
1/3/2022 11:15:00 AM 1.23 34.214 0.116 7.48 2.12 14.8
1/3/2022 11:30:00 AM 1.25 34.25 0.116 7.5 2.1 14.84
1/3/2022 11:45:00 AM 1.27 34.286 0.116 7.52 2.06 14.87
1/3/2022 12:00:00 PM 1.28 34.304 0.116 7.54 2.09 14.89
1/3/2022 12:15:00 PM 1.31 34.358 0.116 7.55 2.02 14.9
1/3/2022 12:30:00 PM 1.34 34.412 0.116 7.56 1.98 14.92
1/3/2022 12:45:00 PM 1.35 34.43 0.116 7.57 2.05 14.93
1/3/2022 1:00:00 PM 1.37 34.466 0.116 7.58 1.95 14.93
1/3/2022 1:15:00 PM 1.39 34.502 0.116 7.58 1.97 14.93
1/3/2022 1:30:00 PM 1.4 34.52 0.116 7.6 1.92 14.94
1/3/2022 1:45:00 PM 1.41 34.538 0.116 7.61 1.98 14.93
1/3/2022 2:00:00 PM 1.41 34.538 0.116 7.61 1.88 14.93
1/3/2022 2:15:00 PM 1.4 34.52 0.116 7.61 2.02 14.92
1/3/2022 2:30:00 PM 1.39 34.502 0.116 7.61 1.94 14.91
1/3/2022 2:45:00 PM 1.35 34.43 0.116 7.61 1.89 14.9
1/3/2022 3:00:00 PM 1.31 34.358 0.116 7.6 1.98 14.88
1/3/2022 3:15:00 PM 1.27 34.286 0.116 7.6 1.95 14.85
1/3/2022 3:30:00 PM 1.23 34.214 0.116 7.59 1.96 14.83
1/3/2022 3:45:00 PM 1.18 34.124 0.117 7.58 1.95 14.81
1/3/2022 4:00:00 PM 1.12 34.016 0.117 7.57 2 14.79
1/3/2022 4:15:00 PM 1.04 33.872 0.117 7.56 2.02 14.75
1/3/2022 4:30:00 PM 0.97 33.746 0.117 7.54 2.05 14.71
1/3/2022 4:45:00 PM 0.9 33.62 0.117 7.51 2 14.65
1/3/2022 5:00:00 PM 0.82 33.476 0.117 7.49 1.99 14.61
1/3/2022 5:15:00 PM 0.75 33.35 0.118 7.47 2.13 14.57
1/3/2022 5:30:00 PM 0.68 33.224 0.118 7.44 2.04 14.53
1/3/2022 5:45:00 PM 0.63 33.134 0.118 7.4 2.1 14.49
1/3/2022 6:00:00 PM 0.57 33.026 0.118 7.37 2.19 14.47
1/3/2022 6:15:00 PM 0.52 32.936 0.118 7.34 2.16 14.46
1/3/2022 6:30:00 PM 0.48 32.864 0.118 7.33 2.1 14.45
1/3/2022 6:45:00 PM 0.44 32.792 0.118 7.32 2.17 14.44
1/3/2022 7:00:00 PM 0.39 32.702 0.119 7.31 2.22 14.44
1/3/2022 7:15:00 PM 0.36 32.648 0.119 7.3 2.33 14.44
1/3/2022 7:30:00 PM 0.33 32.594 0.119 7.29 2.39 14.44
1/3/2022 7:45:00 PM 0.31 32.558 0.119 7.29 2.65 14.43
1/3/2022 8:00:00 PM 0.3 32.54 0.119 7.3 2.47 14.44
1/3/2022 8:15:00 PM 0.29 32.522 0.119 7.31 2.42 14.44
1/3/2022 8:30:00 PM 0.27 32.486 0.119 7.32 2.6 14.44
1/3/2022 8:45:00 PM 0.26 32.468 0.119 7.32 2.53 14.45
1/3/2022 9:00:00 PM 0.25 32.45 0.119 7.33 2.57 14.44
1/3/2022 9:15:00 PM 0.25 32.45 0.12 7.33 2.5 14.45
1/3/2022 9:30:00 PM 0.25 32.45 0.12 7.33 2.5 14.45
1/3/2022 9:45:00 PM 0.24 32.432 0.12 7.34 2.61 14.46
1/3/2022 10:00:00 PM 0.22 32.396 0.12 7.34 2.49 14.46
1/3/2022 10:15:00 PM 0.21 32.378 0.12 7.33 2.62 14.46
1/3/2022 10:30:00 PM 0.2 32.36 0.12 7.33 2.43 14.47
1/3/2022 10:45:00 PM 0.19 32.342 0.12 7.33 2.39 14.49
1/3/2022 11:00:00 PM 0.19 32.342 0.12 7.34 2.48 14.47
1/3/2022 11:15:00 PM 0.18 32.324 0.12 7.34 2.38 14.47
1/3/2022 11:30:00 PM 0.17 32.306 0.12 7.35 2.44 14.48
1/3/2022 11:45:00 PM 0.17 32.306 0.12 7.34 2.43 14.49
1/4/2022 12:00:00 AM 0.16 32.288 0.12 7.34 2.43 14.48
1/4/2022 12:15:00 AM 0.16 32.288 0.12 7.34 2.45 14.49
1/4/2022 12:30:00 AM 0.15 32.27 0.12 7.34 2.5 14.5
1/4/2022 12:45:00 AM 0.13 32.234 0.12 7.34 2.33 14.5
1/4/2022 1:00:00 AM 0.1 32.18 0.12 7.34 2.5 14.52
1/4/2022 1:15:00 AM 0.08 32.144 0.12 7.33 2.3 14.52
1/4/2022 1:30:00 AM 0.06 32.108 0.12 7.32 2.47 14.53
1/4/2022 1:45:00 AM 0.03 32.054 0.12 7.32 2.59 14.54
1/4/2022 2:00:00 AM 0.01 32.018 0.12 7.31 2.47 14.54
1/4/2022 2:15:00 AM -0.02 31.964 0.12 7.31 2.48 14.56
1/4/2022 2:30:00 AM -0.05 31.91 0.12 7.3 2.4 14.57
1/4/2022 2:45:00 AM -0.07 31.874 0.121 7.3 2.49 14.59
1/4/2022 3:00:00 AM -0.1 31.82 0.121 7.31 2.47 14.6
1/4/2022 3:15:00 AM -0.13 31.766 0.121 7.31 2.36 14.62
1/4/2022 3:30:00 AM -0.15 31.73 0.121 7.31 2.31 14.63
1/4/2022 3:45:00 AM -0.16 31.712 0.121 7.3 2.51 14.64
1/4/2022 4:00:00 AM -0.15 31.73 0.121 7.27 2.81 14.66
1/4/2022 4:15:00 AM -0.13 31.766 0.121 7.25 3.09 14.67
1/4/2022 4:30:00 AM -0.13 31.766 0.121 7.24 3.2 14.69
1/4/2022 4:45:00 AM -0.13 31.766 0.121 7.23 3.16 14.7
1/4/2022 5:00:00 AM -0.12 31.784 0.121 7.23 3.17 14.69
1/4/2022 5:15:00 AM -0.12 31.784 0.121 7.23 3.04 14.7
1/4/2022 5:30:00 AM -0.12 31.784 0.121 7.24 2.86 14.68
1/4/2022 5:45:00 AM -0.12 31.784 0.122 7.25 2.96 14.68
1/4/2022 6:00:00 AM -0.12 31.784 0.122 7.26 2.77 14.68
1/4/2022 6:15:00 AM -0.12 31.784 0.122 7.28 3.06 14.67
1/4/2022 6:30:00 AM -0.12 31.784 0.122 7.31 3.09 14.66
1/4/2022 6:45:00 AM -0.12 31.784 0.122 7.33 2.94 14.66
1/4/2022 7:00:00 AM -0.12 31.784 0.123 7.35 2.87 14.66
1/4/2022 7:15:00 AM -0.12 31.784 0.123 7.36 2.64 14.65
1/4/2022 7:30:00 AM -0.12 31.784 0.123 7.36 2.45 14.65
1/4/2022 7:45:00 AM -0.11 31.802 0.123 7.36 2.43 14.65
1/4/2022 8:00:00 AM -0.11 31.802 0.123 7.36 2.5 14.65
1/4/2022 8:15:00 AM -0.11 31.802 0.123 7.36 2.56 14.66
1/4/2022 8:30:00 AM -0.1 31.82 0.123 7.36 2.41 14.68
1/4/2022 8:45:00 AM -0.09 31.838 0.124 7.37 2.48 14.72
1/4/2022 9:00:00 AM -0.08 31.856 0.124 7.39 2.44 14.78
1/4/2022 9:15:00 AM -0.05 31.91 0.124 7.41 2.43 14.87